RU562 / VQ-BLQ 7700 Squawk Report (24th of May, 2019)

Aircraft B748 Reg No. VQ-BLQ Age 7 years old
Model 747 Jet engines 4 First flight 21-12-11
Registered 26-01-12 Rollout 28-11-11 Delivered 26-01-12
Construction No. 37581 Line No. 1448 Series 8HVF
ADSHEX 4249EA Airline name AirBridge Cargo Owner N/A
Airfield based Moscow-Sheremetyevo~Moscow~RA First tracked 2017-07-13 10:01:00

Flight history for VQ-BLQ

Route Flight No Date Playback
Sheremetyevo (SVO) - Leipzig Halle (LEJ) RU775 2019-06-23 19:51:00
Frankfurt Main (FRA) - Sheremetyevo (SVO) RU662 2019-06-23 12:28:00
Sheremetyevo (SVO) - Leipzig Halle (LEJ) - Frankfurt Main (FRA) RU661 2019-06-23 03:02:00
Pudong (PVG) - Baoan Intl (SZX) - Sheremetyevo (SVO) RU558 2019-06-22 18:15:00
Sheremetyevo (SVO) - Leipzig Halle (LEJ) - Frankfurt Main (FRA) RU661 2019-06-22 14:28:00
Pudong (PVG) - Baoan Intl (SZX) - Sheremetyevo (SVO) RU558 2019-06-22 11:56:00
Sheremetyevo (SVO) - Pudong (PVG) RU567 2019-06-21 21:41:00
Malpensa (MXP) - Sheremetyevo (SVO) RU482 2019-06-21 07:37:00
Sheremetyevo (SVO) - Heathrow (LHR) - Malpensa (MXP) RU481 2019-06-20 20:21:00
Xinzheng (CGO) - Sheremetyevo (SVO) RU386 2019-06-20 12:52:00
Sheremetyevo (SVO) - Shuangliu (CTU) - Xinzheng (CGO) RU385 2019-06-20 04:56:00
Pudong (PVG) - Domododevo (DME) RU220 2019-06-19 09:20:00
???? RU9519 2019-06-18 16:25:00
???? RU142 2019-06-17 18:32:00
???? RU9418 2019-06-17 21:41:00
???? N/A 2019-06-17 15:34:00
Sheremetyevo (SVO) - Frankfurt Main (FRA) RU181 2019-06-17 10:08:00
Charles De Gaulle (CDG) - Sheremetyevo (SVO) RU716 2019-06-16 23:13:00
Sheremetyevo (SVO) - Charles De Gaulle (CDG) RU715 2019-06-16 17:32:00
Xinzheng (CGO) - Sheremetyevo (SVO) RU686 2019-06-16 14:17:00
Time Lat Lon Altitude Heading Speed Vertical Rate
2019-05-24 09:50:19 GMT 55.981010 37.429863 0 81 3 0
2019-05-24 09:49:59 GMT 55.980915 37.429192 0 81 8 0
2019-05-24 09:49:45 GMT 55.980743 37.428101 0 73 12 0
2019-05-24 09:49:29 GMT 55.980515 37.426945 0 53 8 0
2019-05-24 09:49:17 GMT 55.980228 37.426632 0 81 8 0
2019-05-24 09:49:07 GMT 55.979881 37.426708 0 345 10 0
2019-05-24 09:48:40 GMT 55.978775 37.427223 0 345 8 0
2019-05-24 09:48:08 GMT 55.977539 37.427841 0 345 8 0
2019-05-24 09:47:38 GMT 55.976246 37.428444 0 345 15 0
2019-05-24 09:47:22 GMT 55.975296 37.428879 0 345 15 0
2019-05-24 09:47:11 GMT 55.974518 37.429256 0 345 16 0
2019-05-24 09:46:51 GMT 55.973480 37.428787 0 70 17 0
2019-05-24 09:46:48 GMT 55.973408 37.428299 0 75 29 0
2019-05-24 09:46:39 GMT 55.972885 37.424778 0 73 69 0
2019-05-24 09:46:23 GMT 55.971199 37.413597 550 74 114 0
2019-05-24 09:46:18 GMT 55.970501 37.408875 550 74 146 0
2019-05-24 09:46:07 GMT 55.968498 37.395828 575 74 165 -192
2019-05-24 09:45:55 GMT 55.966080 37.379436 1,175 75 160 -768
2019-05-24 09:45:46 GMT 55.964401 37.367935 825 75 162 -896
2019-05-24 09:45:39 GMT 55.962914 37.358150 950 74 163 -896
2019-05-24 09:45:28 GMT 55.960876 37.344528 1,100 75 163 -768
2019-05-24 09:45:18 GMT 55.959000 37.331959 1,225 75 162 -960
2019-05-24 09:45:08 GMT 55.956894 37.318062 1,400 75 162 -832
2019-05-24 09:44:57 GMT 55.954952 37.305107 1,525 75 161 -704
2019-05-24 09:44:49 GMT 55.953369 37.294552 1,650 74 158 -832
2019-05-24 09:44:42 GMT 55.951927 37.284939 1,750 75 158 -768
2019-05-24 09:44:37 GMT 55.950943 37.278111 1,825 74 158 -832
2019-05-24 09:44:28 GMT 55.949551 37.268543 1,925 75 157 -704
2019-05-24 09:44:21 GMT 55.948105 37.258968 2,025 74 157 -896
2019-05-24 09:44:18 GMT 55.947643 37.255753 2,075 74 157 -768
2019-05-24 09:44:15 GMT 55.947052 37.251976 2,100 74 157 -896
2019-05-24 09:44:07 GMT 55.945503 37.241676 2,275 74 158 -960
2019-05-24 09:44:04 GMT 55.944710 37.236698 2,275 74 158 -960
2019-05-24 09:43:57 GMT 55.943344 37.227921 2,400 74 160 -896
2019-05-24 09:43:53 GMT 55.942802 37.224171 2,575 92 161 64
2019-05-24 09:43:49 GMT 55.941742 37.217354 2,525 75 160 -640
2019-05-24 09:43:43 GMT 55.940826 37.210941 2,550 75 161 -320
2019-05-24 09:43:37 GMT 55.939869 37.204342 2,575 75 162 64
2019-05-24 09:43:33 GMT 55.939087 37.199039 2,575 74 161 -128
2019-05-24 09:43:25 GMT 55.937347 37.188389 2,575 73 160 0
2019-05-24 09:43:14 GMT 55.935261 37.174988 2,575 80 162 192
2019-05-24 09:43:04 GMT 55.933868 37.160671 2,575 85 162 0
2019-05-24 09:42:53 GMT 55.934002 37.144520 2,575 92 161 64
2019-05-24 09:42:43 GMT 55.934326 37.133373 2,575 92 161 64
2019-05-24 09:42:33 GMT 55.934704 37.119968 2,575 92 164 -192
2019-05-24 09:42:22 GMT 55.935013 37.105740 2,600 92 166 320
2019-05-24 09:42:13 GMT 55.935398 37.091644 2,550 92 167 192
2019-05-24 09:42:08 GMT 55.935608 37.085098 2,550 93 168 -64
2019-05-24 09:42:02 GMT 55.935791 37.077274 2,575 92 168 -512
2019-05-24 09:41:51 GMT 55.936333 37.061348 2,675 94 170 -448
2019-05-24 09:41:43 GMT 55.936703 37.050961 2,750 93 169 -384
2019-05-24 09:41:40 GMT 55.936844 37.047359 2,750 93 169 -384
2019-05-24 09:41:33 GMT 55.937073 37.037659 2,800 92 168 -512
2019-05-24 09:41:29 GMT 55.937256 37.032082 2,850 95 169 -832
2019-05-24 09:41:23 GMT 55.937962 37.023926 2,950 181 184 -320
2019-05-24 09:41:19 GMT 55.939224 37.018101 2,950 113 167 -960
2019-05-24 09:41:09 GMT 55.945175 37.006931 3,250 151 174 -768
2019-05-24 09:41:01 GMT 55.950527 37.001183 3,275 158 176 -640
2019-05-24 09:40:57 GMT 55.952579 36.999722 3,300 158 176 -640
2019-05-24 09:40:49 GMT 55.961655 36.998177 3,400 183 186 -192
2019-05-24 09:40:39 GMT 55.967941 36.998775 3,450 183 187 -768
2019-05-24 09:40:35 GMT 55.970966 36.999035 3,500 183 189 -704
2019-05-24 09:40:29 GMT 55.977016 36.999462 3,575 183 190 -768
2019-05-24 09:40:25 GMT 55.980377 36.999790 3,600 183 192 -384
2019-05-24 09:40:19 GMT 55.986191 37.000206 3,650 183 196 -576
2019-05-24 09:40:14 GMT 55.990814 37.000622 3,700 183 197 -448
2019-05-24 09:40:08 GMT 55.999737 37.001183 3,775 182 193 -384
2019-05-24 09:40:03 GMT 55.999737 37.001183 3,775 182 193 -384
2019-05-24 09:39:57 GMT 56.008575 37.000954 3,925 176 191 -320
2019-05-24 09:39:53 GMT 56.008575 37.000954 3,850 176 191 -448
2019-05-24 09:39:47 GMT 56.014305 36.999805 3,900 169 195 -640
2019-05-24 09:39:42 GMT 56.018124 36.998348 3,950 165 197 -512
2019-05-24 09:39:36 GMT 56.023453 36.995712 4,000 164 201 -704
2019-05-24 09:39:32 GMT 56.027756 36.993629 4,075 164 204 -768
2019-05-24 09:39:26 GMT 56.033066 36.991051 4,125 165 205 -640
2019-05-24 09:39:20 GMT 56.038559 36.988480 4,200 165 210 -640
2019-05-24 09:39:17 GMT 56.042145 36.986759 4,225 164 212 -320
2019-05-24 09:39:14 GMT 56.044052 36.985817 4,225 164 214 -320
2019-05-24 09:39:10 GMT 56.047806 36.983974 4,250 164 218 -256
2019-05-24 09:39:07 GMT 56.054077 36.980728 4,275 163 222 -128
2019-05-24 09:39:04 GMT 56.054077 36.980728 4,275 163 224 -192
2019-05-24 09:39:00 GMT 56.058205 36.978691 4,275 165 226 -256
2019-05-24 09:38:54 GMT 56.063599 36.976486 4,300 171 226 -384
2019-05-24 09:38:50 GMT 56.069237 36.975861 4,350 183 226 -320
2019-05-24 09:38:45 GMT 56.074127 36.976807 4,375 201 230 -256
2019-05-24 09:38:39 GMT 56.079620 36.979382 4,400 203 230 -320
2019-05-24 09:38:35 GMT 56.083237 36.982143 4,425 209 232 -320
2019-05-24 09:38:32 GMT 56.086090 36.985043 4,425 211 233 -320
2019-05-24 09:38:29 GMT 56.089691 36.989883 4,450 224 235 -384
2019-05-24 09:38:24 GMT 56.093033 36.996292 4,500 246 234 -64
2019-05-24 09:38:15 GMT 56.097820 37.012508 4,525 253 234 -64
2019-05-24 09:38:12 GMT 56.098427 37.015858 4,525 253 234 -64
2019-05-24 09:38:07 GMT 56.099945 37.025173 4,500 255 234 0
2019-05-24 09:38:01 GMT 56.102104 37.039032 4,525 255 234 -128
2019-05-24 09:37:55 GMT 56.103653 37.049313 4,525 255 235 0
2019-05-24 09:37:51 GMT 56.104568 37.055138 4,525 255 233 256
2019-05-24 09:37:46 GMT 56.106155 37.065556 4,500 255 232 128
2019-05-24 09:37:42 GMT 56.107178 37.072247 4,475 255 232 -64
2019-05-24 09:37:34 GMT 56.109512 37.086845 4,525 255 233 -320
2019-05-24 09:37:31 GMT 56.110390 37.092850 4,550 255 232 -384
2019-05-24 09:37:22 GMT 56.113277 37.111385 4,600 255 233 -448
2019-05-24 09:37:14 GMT 56.115372 37.124386 4,675 255 234 -512
2019-05-24 09:37:11 GMT 56.116379 37.130795 4,700 255 234 -512
2019-05-24 09:37:03 GMT 56.118584 37.145035 4,775 255 236 -448
2019-05-24 09:37:00 GMT 56.119308 37.149937 4,775 255 237 -256
2019-05-24 09:36:53 GMT 56.121609 37.164948 4,825 255 237 -448
2019-05-24 09:36:50 GMT 56.122375 37.170078 4,850 255 237 -448
2019-05-24 09:36:39 GMT 56.125332 37.189323 4,925 255 237 -320
2019-05-24 09:36:36 GMT 56.126358 37.195930 4,925 255 237 -384
2019-05-24 09:36:30 GMT 56.128464 37.209530 4,975 255 237 -448
2019-05-24 09:36:23 GMT 56.130177 37.220737 5,025 255 238 -320
2019-05-24 09:36:19 GMT 56.131348 37.228504 5,050 256 237 -384
2019-05-24 09:36:08 GMT 56.134460 37.249561 5,150 256 236 -384
2019-05-24 09:36:00 GMT 56.136703 37.264294 5,225 255 237 -448
2019-05-24 09:35:57 GMT 56.137531 37.270000 5,200 255 237 -448
2019-05-24 09:35:47 GMT 56.140369 37.288971 5,275 255 238 -512
2019-05-24 09:35:39 GMT 56.142700 37.304325 5,350 255 237 -576
2019-05-24 09:35:36 GMT 56.143433 37.309071 5,375 255 236 -640
2019-05-24 09:35:30 GMT 56.145309 37.320805 5,425 254 237 -576
2019-05-24 09:35:26 GMT 56.146561 37.328541 5,475 255 236 -576
2019-05-24 09:35:18 GMT 56.148834 37.343861 5,525 256 236 -320
2019-05-24 09:35:15 GMT 56.149540 37.348797 5,550 256 236 -576
2019-05-24 09:35:09 GMT 56.151489 37.361423 5,650 249 236 -768
2019-05-24 09:35:06 GMT 56.152843 37.367847 5,675 243 237 -768
2019-05-24 09:34:55 GMT 56.159271 37.384670 5,825 222 239 -896
2019-05-24 09:34:48 GMT 56.165321 37.392826 5,925 206 239 -1280
2019-05-24 09:34:44 GMT 56.169277 37.396343 6,025 203 238 -1472
2019-05-24 09:34:37 GMT 56.179848 37.403469 6,225 201 240 -1472
2019-05-24 09:34:34 GMT 56.179848 37.403469 6,250 201 240 -1536
2019-05-24 09:34:28 GMT 56.186455 37.407845 6,425 200 241 -1536
2019-05-24 09:34:24 GMT 56.190948 37.410778 6,525 201 241 -1536
2019-05-24 09:34:18 GMT 56.197350 37.414970 6,675 201 242 -1408
2019-05-24 09:34:13 GMT 56.201588 37.417717 6,775 201 242 -1344
2019-05-24 09:34:07 GMT 56.208527 37.422348 6,900 201 243 -1088
2019-05-24 09:34:02 GMT 56.212898 37.425182 6,950 201 244 -768
2019-05-24 09:33:57 GMT 56.218761 37.429047 7,000 200 246 0
2019-05-24 09:33:52 GMT 56.224136 37.432503 7,000 200 246 0
2019-05-24 09:33:46 GMT 56.230030 37.436340 7,000 200 246 0
2019-05-24 09:33:42 GMT 56.235580 37.439907 7,000 200 246 0
2019-05-24 09:33:37 GMT 56.240845 37.443321 7,000 200 247 -64
2019-05-24 09:33:31 GMT 56.246227 37.446815 7,000 200 247 -64
2019-05-24 09:33:26 GMT 56.252380 37.450809 7,050 200 246 -1344
2019-05-24 09:33:20 GMT 56.258102 37.454472 7,000 200 248 -64
2019-05-24 09:33:15 GMT 56.263596 37.458134 7,000 201 247 -320
2019-05-24 09:33:09 GMT 56.270855 37.462952 7,100 201 246 -1088
2019-05-24 09:33:06 GMT 56.275040 37.465626 7,175 200 246 -1344
2019-05-24 09:32:59 GMT 56.280487 37.469204 7,300 200 246 -1280
2019-05-24 09:32:55 GMT 56.285286 37.472305 7,400 200 246 -1280
2019-05-24 09:32:50 GMT 56.290649 37.475780 7,625 200 246 -1152
2019-05-24 09:32:45 GMT 56.296368 37.479515 7,600 200 246 -1152
2019-05-24 09:32:39 GMT 56.302689 37.483604 7,700 200 247 -1024
2019-05-24 09:32:35 GMT 56.307304 37.486637 7,775 200 247 -960
2019-05-24 09:32:27 GMT 56.314636 37.491261 7,900 200 247 -832
2019-05-24 09:32:24 GMT 56.318523 37.493763 7,925 200 248 -704
2019-05-24 09:32:18 GMT 56.324997 37.497971 8,000 200 249 -192
2019-05-24 09:32:14 GMT 56.329651 37.500889 8,000 200 249 0
2019-05-24 09:32:07 GMT 56.336586 37.505348 8,000 200 249 0
2019-05-24 09:32:04 GMT 56.340729 37.508011 8,000 200 249 0
2019-05-24 09:31:57 GMT 56.348007 37.512733 8,000 201 251 0
2019-05-24 09:31:53 GMT 56.352127 37.515480 8,000 201 251 64
2019-05-24 09:31:47 GMT 56.358902 37.519894 8,000 200 252 -64
2019-05-24 09:31:43 GMT 56.362984 37.522514 8,000 201 253 0
2019-05-24 09:31:36 GMT 56.370941 37.527798 8,000 201 255 0
2019-05-24 09:31:33 GMT 56.374146 37.529881 8,000 201 255 0
2019-05-24 09:31:25 GMT 56.382442 37.535477 8,000 201 255 0
2019-05-24 09:31:22 GMT 56.386185 37.538036 8,000 201 254 -64
2019-05-24 09:31:17 GMT 56.392681 37.542431 8,000 201 256 -128
2019-05-24 09:31:12 GMT 56.397152 37.545521 8,025 201 258 -256
2019-05-24 09:31:05 GMT 56.405548 37.551186 8,075 201 258 -1280
2019-05-24 09:31:02 GMT 56.408882 37.553501 8,125 202 258 -1472
2019-05-24 09:30:56 GMT 56.415665 37.558262 8,300 203 259 -1536
2019-05-24 09:30:51 GMT 56.420612 37.561996 8,400 204 259 -1408
2019-05-24 09:30:45 GMT 56.427155 37.567081 8,575 202 262 -1280
2019-05-24 09:30:42 GMT 56.431870 37.570496 8,625 199 264 -1216
2019-05-24 09:30:34 GMT 56.439701 37.574360 8,750 190 269 -1152
2019-05-24 09:30:31 GMT 56.444031 37.575474 9,250 157 285 -1728
2019-05-24 09:30:21 GMT 56.457047 37.574574 9,025 166 282 -1536
2019-05-24 09:30:13 GMT 56.465790 37.569080 9,950 104 290 -384
2019-05-24 09:30:09 GMT 56.471031 37.562943 9,375 143 287 -1984
2019-05-24 09:30:04 GMT 56.476456 37.553432 9,575 128 288 -1600
2019-05-24 09:30:00 GMT 56.478973 37.547440 9,650 123 289 -1344
2019-05-24 09:29:53 GMT 56.483459 37.532875 9,775 115 290 -1024
2019-05-24 09:29:50 GMT 56.485416 37.525177 9,825 113 290 -832
2019-05-24 09:29:46 GMT 56.487698 37.515820 9,875 113 291 -768
2019-05-24 09:29:40 GMT 56.490395 37.502861 9,950 105 290 -448
2019-05-24 09:29:35 GMT 56.491974 37.491592 9,975 100 289 -128
2019-05-24 09:29:30 GMT 56.492863 37.478397 9,975 90 288 0
2019-05-24 09:29:24 GMT 56.492661 37.466873 9,975 82 286 -64
2019-05-24 09:29:19 GMT 56.491333 37.453560 10,000 75 284 0
2019-05-24 09:29:14 GMT 56.489136 37.439907 10,000 72 283 0
2019-05-24 09:29:09 GMT 56.487076 37.428421 10,000 72 284 0
2019-05-24 09:29:02 GMT 56.484787 37.415272 10,000 72 286 0
2019-05-24 09:28:57 GMT 56.482948 37.404842 10,000 72 286 64
2019-05-24 09:28:52 GMT 56.480484 37.390884 10,000 72 286 0
2019-05-24 09:28:49 GMT 56.479458 37.385185 10,000 72 286 -64
2019-05-24 09:28:46 GMT 56.478432 37.379520 10,000 72 286 -64
2019-05-24 09:28:41 GMT 56.475872 37.364929 10,000 72 286 0
2019-05-24 09:28:35 GMT 56.474056 37.354630 10,000 72 286 0
2019-05-24 09:28:29 GMT 56.471634 37.340984 10,000 72 286 64
2019-05-24 09:28:25 GMT 56.469772 37.330601 10,000 72 286 0
2019-05-24 09:28:18 GMT 56.466747 37.313690 10,000 72 287 -64
2019-05-24 09:28:14 GMT 56.465515 37.306824 10,000 72 287 0
2019-05-24 09:28:09 GMT 56.463348 37.294552 10,000 72 287 0
2019-05-24 09:28:04 GMT 56.461395 37.283604 10,000 72 287 0
2019-05-24 09:27:57 GMT 56.458603 37.267788 10,000 72 287 0
2019-05-24 09:27:53 GMT 56.457047 37.259132 10,000 72 287 0
2019-05-24 09:27:49 GMT 56.454895 37.247066 10,000 72 287 0
2019-05-24 09:27:43 GMT 56.452744 37.234913 10,000 72 288 -64
2019-05-24 09:27:37 GMT 56.450180 37.220432 10,000 72 289 0
2019-05-24 09:27:32 GMT 56.448498 37.211037 10,000 72 289 64
2019-05-24 09:27:25 GMT 56.445374 37.193714 9,975 72 286 128
2019-05-24 09:27:22 GMT 56.444229 37.187138 9,975 72 285 -256
2019-05-24 09:27:15 GMT 56.441299 37.170578 10,025 72 285 -448
2019-05-24 09:27:11 GMT 56.439934 37.163055 10,050 72 285 -448
2019-05-24 09:27:06 GMT 56.437607 37.149925 10,100 72 285 -384
2019-05-24 09:27:01 GMT 56.435837 37.139969 10,125 72 286 -320
2019-05-24 09:26:55 GMT 56.433426 37.126465 10,150 72 287 -256
2019-05-24 09:26:51 GMT 56.431366 37.114815 10,175 72 287 -512
2019-05-24 09:26:46 GMT 56.429550 37.104607 10,250 72 286 -768
2019-05-24 09:26:39 GMT 56.426880 37.089596 10,350 72 286 -832
2019-05-24 09:26:36 GMT 56.425507 37.081856 10,400 72 286 -832
2019-05-24 09:26:28 GMT 56.422428 37.064526 10,450 72 286 -768
2019-05-24 09:26:25 GMT 56.420986 37.056370 10,475 72 287 -704
2019-05-24 09:26:17 GMT 56.418098 37.040150 10,575 72 287 -640
2019-05-24 09:26:14 GMT 56.416470 37.031052 10,600 72 289 -576
2019-05-24 09:26:06 GMT 56.413631 37.015259 10,650 72 289 -448
2019-05-24 09:26:03 GMT 56.412048 37.006500 10,700 72 290 -448
2019-05-24 09:25:57 GMT 56.409576 36.992382 10,725 72 292 -512
2019-05-24 09:25:52 GMT 56.407440 36.980240 10,775 72 293 -640
2019-05-24 09:25:49 GMT 56.406227 36.973541 10,800 72 294 -640
2019-05-24 09:25:46 GMT 56.405182 36.967663 10,850 71 294 -576
2019-05-24 09:25:43 GMT 56.403946 36.960922 10,875 71 294 -448
2019-05-24 09:25:33 GMT 56.399643 36.937534 10,925 71 297 -256
2019-05-24 09:25:23 GMT 56.395111 36.912895 10,975 72 298 -448
2019-05-24 09:25:16 GMT 56.392044 36.895084 11,050 73 298 -384
2019-05-24 09:25:13 GMT 56.391006 36.888912 11,050 72 298 -384
2019-05-24 09:25:04 GMT 56.387005 36.869347 11,125 63 296 -448
2019-05-24 09:24:51 GMT 56.376995 36.843765 11,125 43 289 128
2019-05-24 09:24:41 GMT 56.366135 36.829918 11,375 8 281 -1472
2019-05-24 09:24:33 GMT 56.356743 36.824284 11,400 17 280 -1216
2019-05-24 09:24:30 GMT 56.353065 36.822994 11,450 9 279 -1088
2019-05-24 09:24:20 GMT 56.338715 36.819180 11,650 8 281 -1344
2019-05-24 09:24:10 GMT 56.326439 36.815872 11,900 8 281 -1536
2019-05-24 09:24:04 GMT 56.318710 36.813812 12,050 8 281 -1472
2019-05-24 09:24:00 GMT 56.312286 36.812180 12,175 8 281 -1472
2019-05-24 09:23:55 GMT 56.307819 36.810982 12,250 8 281 -1536
2019-05-24 09:23:48 GMT 56.298695 36.808578 12,425 8 280 -1472
2019-05-24 09:23:43 GMT 56.291756 36.806774 12,500 8 281 -1472
2019-05-24 09:23:38 GMT 56.285477 36.805115 12,650 8 281 -1088
2019-05-24 09:23:30 GMT 56.275276 36.802399 12,775 8 283 -704
2019-05-24 09:23:27 GMT 56.272018 36.801537 12,800 8 283 -704
2019-05-24 09:23:22 GMT 56.264664 36.799648 12,850 8 283 -704
2019-05-24 09:23:17 GMT 56.258926 36.798122 12,925 8 284 -704
2019-05-24 09:23:12 GMT 56.250465 36.796043 12,975 8 284 -704
2019-05-24 09:23:09 GMT 56.248650 36.795528 13,000 8 285 -704
2019-05-24 09:23:06 GMT 56.244461 36.794460 13,050 8 285 -704
2019-05-24 09:23:03 GMT 56.239746 36.793297 13,325 4 288 -640
2019-05-24 09:22:59 GMT 56.235397 36.792130 13,125 8 288 -640
2019-05-24 09:22:56 GMT 56.230820 36.790882 13,150 8 288 -704
2019-05-24 09:22:53 GMT 56.226212 36.789780 13,250 6 287 -704
2019-05-24 09:22:49 GMT 56.221184 36.788666 13,250 4 289 -640
2019-05-24 09:22:45 GMT 56.216675 36.787888 13,275 5 288 -640
2019-05-24 09:22:40 GMT 56.209488 36.786804 13,350 3 288 -704
2019-05-24 09:22:35 GMT 56.202984 36.786263 13,400 1 288 -704
2019-05-24 09:22:32 GMT 56.198044 36.786057 13,425 0 288 -704
2019-05-24 09:22:29 GMT 56.193695 36.785973 13,475 0 288 -704
2019-05-24 09:22:25 GMT 56.188385 36.786221 13,525 359 288 -704
2019-05-24 09:22:19 GMT 56.181568 36.786606 13,900 359 294 -768
2019-05-24 09:22:16 GMT 56.177307 36.786888 13,625 359 289 -704
2019-05-24 09:22:13 GMT 56.174652 36.787052 13,650 359 289 -704
2019-05-24 09:22:04 GMT 56.161411 36.787891 13,775 359 291 -704
2019-05-24 09:21:58 GMT 56.153458 36.788387 13,825 359 292 -704
2019-05-24 09:21:53 GMT 56.146839 36.788750 13,900 359 294 -768
2019-05-24 09:21:49 GMT 56.140743 36.789181 13,950 359 294 -704
2019-05-24 09:21:44 GMT 56.134502 36.789520 14,000 358 295 -192
2019-05-24 09:21:41 GMT 56.130386 36.789799 14,000 358 296 -128
2019-05-24 09:21:37 GMT 56.124634 36.790295 14,025 358 297 -128
2019-05-24 09:21:32 GMT 56.113312 36.791134 14,050 358 295 -448
2019-05-24 09:21:28 GMT 56.113312 36.791134 14,050 358 294 -576
2019-05-24 09:21:22 GMT 56.104568 36.791714 14,175 358 291 -1664
2019-05-24 09:21:17 GMT 56.097702 36.792213 14,325 358 291 -1600
2019-05-24 09:21:11 GMT 56.082825 36.793297 14,600 358 291 -1472
2019-05-24 09:21:06 GMT 56.082825 36.793297 14,600 358 291 -1408
2019-05-24 09:21:01 GMT 56.076080 36.793728 14,700 358 291 -1408
2019-05-24 09:20:54 GMT 56.067078 36.794376 14,850 358 292 -1408
2019-05-24 09:20:50 GMT 56.061676 36.794712 14,950 359 292 -1536
2019-05-24 09:20:45 GMT 56.054249 36.795101 15,100 359 293 -1664
2019-05-24 09:20:42 GMT 56.049126 36.795361 15,200 359 293 -1856
2019-05-24 09:20:39 GMT 56.047211 36.795460 15,250 359 293 -1856
2019-05-24 09:20:35 GMT 56.041122 36.795712 15,375 0 293 -1920
2019-05-24 09:20:28 GMT 56.031761 36.795959 15,600 359 294 -1920
2019-05-24 09:20:25 GMT 56.026749 36.796127 15,725 359 293 -1920
2019-05-24 09:20:20 GMT 56.020386 36.796543 15,900 358 293 -1856
2019-05-24 09:20:17 GMT 56.017960 36.796791 15,900 358 293 -1856
2019-05-24 09:20:14 GMT 56.012676 36.797249 16,025 359 294 -1728
2019-05-24 09:20:07 GMT 56.003860 36.797291 16,175 2 296 -1728
2019-05-24 09:20:02 GMT 55.993149 36.794792 16,550 23 309 -1600
2019-05-24 09:19:59 GMT 55.993149 36.794792 16,425 14 303 -1408
2019-05-24 09:19:56 GMT 55.987976 36.792381 16,425 14 303 -1408
2019-05-24 09:19:53 GMT 55.978409 36.785221 16,650 23 309 -1600
2019-05-24 09:19:49 GMT 55.978409 36.785221 16,700 28 311 -1792
2019-05-24 09:19:46 GMT 55.975574 36.782143 16,800 43 317 -2112
2019-05-24 09:19:43 GMT 55.971680 36.777233 16,875 39 316 -1920
2019-05-24 09:19:39 GMT 55.967239 36.770493 17,000 43 317 -2048
2019-05-24 09:19:36 GMT 55.963844 36.764717 17,075 44 317 -2112
2019-05-24 09:19:33 GMT 55.960587 36.758965 17,200 44 317 -2176
2019-05-24 09:19:27 GMT 55.955612 36.750183 17,500 44 317 -2048
2019-05-24 09:19:22 GMT 55.944901 36.731457 18,025 44 323 -1152
2019-05-24 09:19:17 GMT 55.944901 36.731457 17,700 44 319 -1792
2019-05-24 09:19:14 GMT 55.938583 36.720387 17,825 44 320 -1664
2019-05-24 09:19:11 GMT 55.938583 36.720387 18,575 44 323 -1216
2019-05-24 09:19:04 GMT 55.930527 36.706238 18,050 44 324 -1024
2019-05-24 09:19:01 GMT 55.927185 36.700497 18,100 44 325 -1024
2019-05-24 09:18:55 GMT 55.921574 36.690731 18,175 44 327 -1024
2019-05-24 09:18:52 GMT 55.917938 36.684349 18,225 44 327 -1024
2019-05-24 09:18:48 GMT 55.912495 36.674938 18,325 44 328 -1024
2019-05-24 09:18:44 GMT 55.908279 36.667538 18,375 44 329 -1024
2019-05-24 09:18:40 GMT 55.903046 36.658459 18,450 44 329 -1024
2019-05-24 09:18:35 GMT 55.899765 36.652805 18,600 44 330 -1024
2019-05-24 09:18:31 GMT 55.894852 36.644299 18,550 44 330 -1024
2019-05-24 09:18:27 GMT 55.889603 36.635159 18,675 44 332 -1024
2019-05-24 09:18:24 GMT 55.887177 36.630997 18,700 44 332 -1024
2019-05-24 09:18:21 GMT 55.884430 36.626255 18,725 44 332 -1024
2019-05-24 09:18:18 GMT 55.879257 36.617264 18,825 44 333 -1024
2019-05-24 09:18:15 GMT 55.873299 36.606873 18,900 44 334 -1088
2019-05-24 09:18:11 GMT 55.873299 36.606873 18,925 44 335 -1088
2019-05-24 09:18:05 GMT 55.865200 36.592884 19,050 44 336 -1088
2019-05-24 09:18:01 GMT 55.861633 36.586720 19,100 44 338 -1024
2019-05-24 09:17:56 GMT 55.854813 36.574818 19,200 44 340 -1024
2019-05-24 09:17:53 GMT 55.852772 36.571342 19,275 44 341 -1024
2019-05-24 09:17:50 GMT 55.849976 36.566448 19,275 44 342 -1024
2019-05-24 09:17:43 GMT 55.841366 36.551430 19,400 44 345 -1024
2019-05-24 09:17:40 GMT 55.829773 36.531086 20,675 55 355 -1344
2019-05-24 09:17:33 GMT 55.825882 36.524216 19,625 55 355 -1344
2019-05-24 09:17:29 GMT 55.825882 36.524216 19,700 44 348 -1536
2019-05-24 09:17:21 GMT 55.815170 36.505653 19,925 45 350 -1536
2019-05-24 09:17:18 GMT 55.813339 36.502323 19,950 46 350 -1536
2019-05-24 09:17:12 GMT 55.806541 36.488857 20,125 50 353 -1472
2019-05-24 09:17:08 GMT 55.802399 36.479519 20,225 53 354 -1344
2019-05-24 09:17:00 GMT 55.795120 36.460129 20,375 58 357 -1280
2019-05-24 09:16:57 GMT 55.792236 36.450890 20,450 61 358 -1280
2019-05-24 09:16:51 GMT 55.788666 36.437904 20,775 70 362 -1472
2019-05-24 09:16:48 GMT 55.785141 36.421925 20,700 70 362 -1472
2019-05-24 09:16:40 GMT 55.782196 36.405170 20,900 73 364 -1408
2019-05-24 09:16:37 GMT 55.780792 36.396542 20,925 74 364 -1408
2019-05-24 09:16:29 GMT 55.776993 36.373070 21,100 74 364 -1408
2019-05-24 09:16:26 GMT 55.775681 36.365005 21,175 74 364 -1408
2019-05-24 09:16:19 GMT 55.772369 36.344437 21,350 74 364 -1408
2019-05-24 09:16:16 GMT 55.770950 36.335533 21,400 74 364 -1280
2019-05-24 09:16:08 GMT 55.767426 36.313725 21,575 74 364 -1280
2019-05-24 09:16:05 GMT 55.766090 36.305435 21,600 74 364 -1280
2019-05-24 09:15:59 GMT 55.762783 36.285007 21,775 73 365 -1216
2019-05-24 09:15:54 GMT 55.760834 36.272945 21,850 73 366 -1024
2019-05-24 09:15:48 GMT 55.757858 36.254467 21,950 74 367 -1024
2019-05-24 09:15:43 GMT 55.756035 36.243210 22,025 73 368 -1024
2019-05-24 09:15:37 GMT 55.750488 36.209190 22,175 74 370 -1024
2019-05-24 09:15:33 GMT 55.750488 36.209190 22,225 73 370 -1024
2019-05-24 09:15:26 GMT 55.747971 36.193710 22,375 73 372 -1024
2019-05-24 09:15:22 GMT 55.745281 36.177032 22,400 73 372 -1024
2019-05-24 09:15:17 GMT 55.743137 36.164162 22,475 73 373 -1024
2019-05-24 09:15:13 GMT 55.739822 36.143520 22,550 73 374 -1088
2019-05-24 09:15:10 GMT 55.739822 36.143520 22,625 73 375 -1024
2019-05-24 09:15:07 GMT 55.737213 36.127625 22,650 73 375 -960
2019-05-24 09:15:04 GMT 55.737213 36.127625 22,675 73 375 -896
2019-05-24 09:15:00 GMT 55.735748 36.118385 22,725 73 376 -832
2019-05-24 09:14:57 GMT 55.734108 36.108372 22,775 73 376 -704
2019-05-24 09:14:50 GMT 55.730572 36.086739 22,850 73 376 -704
2019-05-24 09:14:47 GMT 55.729202 36.078438 23,100 73 378 -704
2019-05-24 09:14:40 GMT 55.725403 36.055382 22,975 73 378 -704
2019-05-24 09:14:37 GMT 55.724285 36.048546 23,475 73 378 -704
2019-05-24 09:14:29 GMT 55.720654 36.026573 23,150 73 378 -704
2019-05-24 09:14:25 GMT 55.718185 36.011467 23,150 73 378 -704
2019-05-24 09:14:18 GMT 55.714966 35.992210 23,625 73 377 -704
2019-05-24 09:14:13 GMT 55.712414 35.976791 23,325 73 376 -704
2019-05-24 09:14:06 GMT 55.708878 35.955173 23,400 73 377 -704
2019-05-24 09:14:03 GMT 55.707108 35.944519 23,450 73 376 -704
2019-05-24 09:13:58 GMT 55.705078 35.932449 23,625 73 376 -704
2019-05-24 09:13:53 GMT 55.702080 35.914391 23,525 73 376 -704
2019-05-24 09:13:50 GMT 55.701569 35.911472 23,525 73 376 -704
2019-05-24 09:13:47 GMT 55.699631 35.899658 23,625 73 376 -704
2019-05-24 09:13:42 GMT 55.697006 35.884094 23,650 73 376 -704
2019-05-24 09:13:34 GMT 55.693451 35.862869 23,725 73 376 -768
2019-05-24 09:13:31 GMT 55.691895 35.853714 23,775 73 376 -768
2019-05-24 09:13:28 GMT 55.690395 35.844872 23,800 73 376 -704
2019-05-24 09:13:24 GMT 55.688370 35.832825 23,850 73 376 -704
2019-05-24 09:13:20 GMT 55.686310 35.820423 23,900 73 377 -704
2019-05-24 09:13:16 GMT 55.684341 35.808605 23,950 73 377 -704
2019-05-24 09:13:13 GMT 55.682922 35.800034 23,975 73 378 -704
2019-05-24 09:13:10 GMT 55.680851 35.787537 24,025 73 377 -704
2019-05-24 09:13:07 GMT 55.679855 35.781303 24,050 73 377 -704
2019-05-24 09:13:02 GMT 55.677872 35.769169 24,100 74 378 -704
2019-05-24 09:12:58 GMT 55.675964 35.757236 24,150 74 380 -704
2019-05-24 09:12:53 GMT 55.673637 35.742645 24,225 74 379 -704
2019-05-24 09:12:50 GMT 55.671799 35.731285 24,250 74 380 -704
2019-05-24 09:12:47 GMT 55.669876 35.719383 24,300 74 380 -704
2019-05-24 09:12:43 GMT 55.668320 35.709812 24,350 74 381 -768
2019-05-24 09:12:40 GMT 55.666885 35.700848 24,375 74 381 -768
2019-05-24 09:12:36 GMT 55.665398 35.691490 24,400 74 382 -768
2019-05-24 09:12:33 GMT 55.663651 35.680679 24,525 73 383 -704
2019-05-24 09:12:27 GMT 55.660694 35.662308 24,575 74 385 -704
2019-05-24 09:12:23 GMT 55.657063 35.639908 24,625 74 386 -704
2019-05-24 09:12:15 GMT 55.655136 35.627995 24,725 73 388 -704
2019-05-24 09:12:10 GMT 55.652687 35.612782 24,725 74 389 -704
2019-05-24 09:12:05 GMT 55.649689 35.594204 24,775 74 389 -640
2019-05-24 09:12:02 GMT 55.648312 35.585663 24,825 73 384 0
2019-05-24 09:11:54 GMT 55.644356 35.561283 24,900 73 387 -640
2019-05-24 09:11:50 GMT 55.642502 35.549759 24,925 73 386 -640
2019-05-24 09:11:44 GMT 55.639526 35.531616 24,975 73 385 -256
2019-05-24 09:11:41 GMT 55.637512 35.519230 25,000 73 383 0
2019-05-24 09:11:37 GMT 55.636002 35.509892 25,000 73 383 0
2019-05-24 09:11:33 GMT 55.634079 35.498158 25,000 73 383 0
2019-05-24 09:11:29 GMT 55.632248 35.486671 25,000 73 383 0
2019-05-24 09:11:21 GMT 55.628666 35.464725 25,000 73 384 0
2019-05-24 09:11:17 GMT 55.626434 35.451218 25,000 73 384 0
2019-05-24 09:11:12 GMT 55.623505 35.433071 25,000 73 384 0
2019-05-24 09:11:08 GMT 55.621948 35.423752 25,000 73 384 0
2019-05-24 09:11:00 GMT 55.618240 35.401211 25,000 73 384 0
2019-05-24 09:10:56 GMT 55.616043 35.387630 25,000 73 384 0
2019-05-24 09:10:50 GMT 55.613117 35.369884 25,000 73 384 0
2019-05-24 09:10:47 GMT 55.611603 35.360828 25,000 73 384 0
2019-05-24 09:10:40 GMT 55.607758 35.337357 25,000 73 384 0
2019-05-24 09:10:36 GMT 55.606277 35.328342 25,000 73 384 0
2019-05-24 09:10:29 GMT 55.602272 35.304222 25,000 73 384 -64
2019-05-24 09:10:26 GMT 55.601349 35.298573 25,000 73 384 0
2019-05-24 09:10:16 GMT 55.596268 35.267860 25,000 73 384 0
2019-05-24 09:10:06 GMT 55.590683 35.234570 25,000 73 383 0
2019-05-24 09:09:57 GMT 55.586334 35.208435 25,000 73 383 0
2019-05-24 09:09:54 GMT 55.583771 35.193123 25,000 73 383 0
2019-05-24 09:09:43 GMT 55.579926 35.169983 25,000 73 383 0
2019-05-24 09:09:36 GMT 55.575714 35.144516 25,000 73 384 0
2019-05-24 09:09:33 GMT 55.574760 35.138824 25,000 73 384 0
2019-05-24 09:09:25 GMT 55.570312 35.111721 25,000 73 384 -64
2019-05-24 09:09:22 GMT 55.569077 35.104233 25,000 73 384 -64
2019-05-24 09:09:14 GMT 55.565048 35.080261 25,000 74 384 0
2019-05-24 09:09:11 GMT 55.564007 35.073936 25,000 74 384 0
2019-05-24 09:09:02 GMT 55.559464 35.043972 25,000 76 385 0
2019-05-24 09:08:51 GMT 55.555435 35.012180 25,000 78 384 0
2019-05-24 09:08:40 GMT 55.551857 34.976437 25,000 81 384 0
2019-05-24 09:08:37 GMT 55.551296 34.969913 25,000 81 384 0
2019-05-24 09:08:31 GMT 55.549480 34.946735 25,000 82 384 0
2019-05-24 09:08:28 GMT 55.548782 34.937725 25,000 82 383 0
2019-05-24 09:08:20 GMT 55.546875 34.912922 25,000 82 383 0
2019-05-24 09:08:17 GMT 55.546280 34.905811 25,000 82 383 0
2019-05-24 09:08:09 GMT 55.544357 34.881092 25,000 82 383 0
2019-05-24 09:08:06 GMT 55.543709 34.873009 25,000 82 383 0
2019-05-24 09:08:00 GMT 55.541107 34.839645 25,000 82 383 0
2019-05-24 09:07:55 GMT 55.541107 34.839645 25,000 82 383 0
2019-05-24 09:07:46 GMT 55.538494 34.806664 25,000 82 382 0
2019-05-24 09:07:35 GMT 55.536121 34.776447 25,000 82 382 0
2019-05-24 09:07:28 GMT 55.534470 34.756081 25,000 82 381 0
2019-05-24 09:07:24 GMT 55.533554 34.744431 25,000 82 381 0
2019-05-24 09:07:15 GMT 55.530899 34.710888 25,000 82 381 0
2019-05-24 09:07:04 GMT 55.528473 34.680092 25,000 82 381 0
2019-05-24 09:06:58 GMT 55.526825 34.659866 25,000 81 381 0
2019-05-24 09:06:52 GMT 55.525681 34.645386 25,000 81 381 0
2019-05-24 09:06:47 GMT 55.524353 34.629154 25,000 81 381 0
2019-05-24 09:06:42 GMT 55.523228 34.615002 25,000 81 381 0
2019-05-24 09:06:37 GMT 55.521832 34.597492 25,000 81 381 0
2019-05-24 09:06:32 GMT 55.520554 34.581799 25,000 81 380 0
2019-05-24 09:06:26 GMT 55.519272 34.565907 25,000 81 380 0
2019-05-24 09:06:22 GMT 55.518013 34.550800 25,000 81 380 0
2019-05-24 09:06:16 GMT 55.516521 34.532433 25,000 81 380 0
2019-05-24 09:06:12 GMT 55.515545 34.520161 25,000 81 380 0
2019-05-24 09:06:05 GMT 55.513962 34.500504 25,000 81 381 0
2019-05-24 09:06:01 GMT 55.512611 34.484196 25,000 81 381 0
2019-05-24 09:05:50 GMT 55.510071 34.453209 25,000 81 381 0
2019-05-24 09:05:44 GMT 55.508560 34.434731 25,000 81 381 0
2019-05-24 09:05:40 GMT 55.507305 34.419395 25,000 81 381 0
2019-05-24 09:05:33 GMT 55.505768 34.400940 25,000 81 381 0
2019-05-24 09:05:29 GMT 55.504807 34.388954 25,000 81 381 0
2019-05-24 09:05:23 GMT 55.503342 34.371059 25,000 81 381 0
2019-05-24 09:05:17 GMT 55.501602 34.350502 25,000 81 381 0
2019-05-24 09:05:08 GMT 55.499405 34.323704 25,000 81 382 0
2019-05-24 09:05:03 GMT 55.498215 34.309555 25,000 81 382 0
2019-05-24 09:04:58 GMT 55.496704 34.291740 25,000 81 382 0
2019-05-24 09:04:52 GMT 55.495342 34.275715 25,000 81 383 0
2019-05-24 09:04:46 GMT 55.493805 34.257259 25,000 81 383 0
2019-05-24 09:04:41 GMT 55.492447 34.241306 25,000 81 383 0
2019-05-24 09:04:35 GMT 55.491104 34.224987 25,000 81 383 0
2019-05-24 09:04:32 GMT 55.490128 34.213573 25,000 81 382 0
2019-05-24 09:04:24 GMT 55.487961 34.187790 25,000 81 382 0
2019-05-24 09:04:15 GMT 55.485661 34.161041 25,000 81 382 0
2019-05-24 09:04:04 GMT 55.482910 34.128773 25,000 81 382 0
2019-05-24 09:03:56 GMT 55.480679 34.102077 25,000 81 382 0
2019-05-24 09:03:53 GMT 55.480026 34.094696 25,000 81 382 0
2019-05-24 09:03:50 GMT 55.479126 34.084000 25,000 81 382 0
2019-05-24 09:03:42 GMT 55.477249 34.062195 25,000 81 382 0
2019-05-24 09:03:38 GMT 55.475975 34.046886 25,000 81 381 0
2019-05-24 09:03:35 GMT 55.474503 34.029652 25,000 81 381 0
2019-05-24 09:03:28 GMT 55.473415 34.017105 25,000 81 381 64
2019-05-24 09:03:22 GMT 55.471619 33.995693 25,000 81 382 0
2019-05-24 09:03:18 GMT 55.470840 33.986790 25,000 81 382 0
2019-05-24 09:03:11 GMT 55.468899 33.963718 25,000 81 382 0
2019-05-24 09:02:59 GMT 55.466106 33.930328 25,000 81 381 0
2019-05-24 09:02:49 GMT 55.463360 33.896854 25,000 81 381 0
2019-05-24 09:02:38 GMT 55.460587 33.863194 25,000 81 380 -64
2019-05-24 09:02:28 GMT 55.455864 33.805962 25,000 81 380 0
2019-05-24 09:02:19 GMT 55.455864 33.805962 25,000 81 380 0
2019-05-24 09:02:15 GMT 55.454865 33.794029 25,000 81 380 0
2019-05-24 09:02:08 GMT 55.453125 33.773556 25,000 81 380 0
2019-05-24 09:02:05 GMT 55.452393 33.764732 25,000 81 380 0
2019-05-24 09:01:58 GMT 55.450287 33.741261 25,000 80 379 0
2019-05-24 09:01:55 GMT 55.449509 33.733021 25,000 80 379 0
2019-05-24 09:01:45 GMT 55.442505 33.668102 25,000 78 379 0
2019-05-24 09:01:33 GMT 55.442505 33.668102 25,000 78 379 0
2019-05-24 09:01:23 GMT 55.438843 33.635208 25,000 78 379 0
2019-05-24 09:01:18 GMT 55.436966 33.618580 25,000 81 378 64
2019-05-24 09:01:15 GMT 55.436325 33.612831 25,000 78 379 0
2019-05-24 09:01:12 GMT 55.435242 33.603184 25,000 78 379 0
2019-05-24 09:01:04 GMT 55.432663 33.579952 24,975 79 378 0
2019-05-24 09:01:01 GMT 55.431564 33.569641 24,975 79 379 0
2019-05-24 09:00:50 GMT 55.427700 33.534599 25,000 79 379 -64
2019-05-24 09:00:43 GMT 55.425476 33.514278 25,000 78 380 -128
2019-05-24 09:00:39 GMT 55.423965 33.501030 25,000 78 379 0
2019-05-24 09:00:32 GMT 55.420765 33.450706 25,000 91 378 0
2019-05-24 09:00:22 GMT 55.420765 33.450706 25,000 93 377 0
2019-05-24 09:00:19 GMT 55.421036 33.443432 25,000 93 377 0
2019-05-24 09:00:12 GMT 55.423096 33.422028 25,000 107 376 0
2019-05-24 09:00:01 GMT 55.429794 33.390781 25,000 118 374 0
2019-05-24 08:59:51 GMT 55.439850 33.364429 25,000 130 370 0
2019-05-24 08:59:40 GMT 55.453674 33.341843 25,000 143 367 0
2019-05-24 08:59:34 GMT 55.462326 33.331936 25,000 148 366 0
2019-05-24 08:59:30 GMT 55.467590 33.327274 25,000 155 364 0
2019-05-24 08:59:20 GMT 55.485241 33.317070 25,000 170 361 0
2019-05-24 08:59:09 GMT 55.503304 33.314152 25,000 183 359 0
2019-05-24 08:58:57 GMT 55.521423 33.318619 25,000 198 356 0
2019-05-24 08:58:46 GMT 55.537659 33.329346 25,000 209 353 0
2019-05-24 08:58:35 GMT 55.552368 33.346169 25,000 221 350 0
2019-05-24 08:58:25 GMT 55.564316 33.367310 25,000 242 347 128
2019-05-24 08:58:14 GMT 55.573830 33.393372 24,975 246 347 64
2019-05-24 08:58:04 GMT 55.579697 33.422073 25,000 257 347 0
2019-05-24 08:57:53 GMT 55.582859 33.449421 25,000 260 346 0
2019-05-24 08:57:41 GMT 55.586445 33.482121 25,000 260 346 0
2019-05-24 08:57:30 GMT 55.590317 33.517040 25,000 259 346 0
2019-05-24 08:57:20 GMT 55.593193 33.542805 25,000 259 346 0
2019-05-24 08:57:10 GMT 55.596218 33.570187 25,000 259 346 -64
2019-05-24 08:57:01 GMT 55.599339 33.598167 25,000 260 346 64
2019-05-24 08:56:50 GMT 55.602493 33.626987 25,000 260 347 0
2019-05-24 08:56:39 GMT 55.607208 33.670933 25,000 260 347 -64
2019-05-24 08:56:34 GMT 55.607208 33.670933 25,000 260 347 -64
2019-05-24 08:56:29 GMT 55.608810 33.685913 25,000 259 347 -64
2019-05-24 08:56:23 GMT 55.610420 33.700390 25,000 259 347 0
2019-05-24 08:56:17 GMT 55.612232 33.717129 25,000 261 347 64
2019-05-24 08:56:13 GMT 55.613205 33.730026 25,000 266 347 64
2019-05-24 08:56:06 GMT 55.613525 33.746506 25,000 275 347 0
2019-05-24 08:56:01 GMT 55.612930 33.760319 25,000 279 347 0
2019-05-24 08:55:51 GMT 55.609085 33.789783 25,000 291 348 0
2019-05-24 08:55:40 GMT 55.601295 33.818493 25,000 304 349 0
2019-05-24 08:55:30 GMT 55.591461 33.841137 25,000 315 352 0
2019-05-24 08:55:23 GMT 55.583862 33.853622 25,000 322 353 0
2019-05-24 08:55:19 GMT 55.578094 33.861195 25,000 329 354 0
2019-05-24 08:55:12 GMT 55.567451 33.871964 25,000 334 355 0
2019-05-24 08:55:07 GMT 55.560013 33.877426 25,000 340 356 0
2019-05-24 08:54:57 GMT 55.545593 33.883919 25,000 353 360 0
2019-05-24 08:54:51 GMT 55.535656 33.885612 25,000 0 362 0
2019-05-24 08:54:46 GMT 55.526951 33.885357 25,000 60 381 128
2019-05-24 08:54:40 GMT 55.517258 33.883083 25,000 11 366 -64
2019-05-24 08:54:36 GMT 55.508564 33.879089 25,000 17 368 -64
2019-05-24 08:54:31 GMT 55.501373 33.874512 25,000 23 370 0
2019-05-24 08:54:25 GMT 55.493248 33.867416 25,000 29 371 0
2019-05-24 08:54:19 GMT 55.483200 33.855618 25,000 36 373 0
2019-05-24 08:54:14 GMT 55.478073 33.847961 25,000 42 375 0
2019-05-24 08:54:07 GMT 55.469414 33.831539 25,000 49 377 0
2019-05-24 08:54:04 GMT 55.466675 33.825157 25,000 55 379 64
2019-05-24 08:53:58 GMT 55.460953 33.808926 24,975 62 381 128
2019-05-24 08:53:54 GMT 55.457726 33.796432 24,975 69 383 0
2019-05-24 08:53:48 GMT 55.454224 33.776550 25,000 77 384 0
2019-05-24 08:53:43 GMT 55.452667 33.762154 25,000 81 383 64
2019-05-24 08:53:37 GMT 55.451202 33.744591 24,975 81 382 64
2019-05-24 08:53:32 GMT 55.450047 33.730431 25,000 81 383 -448
2019-05-24 08:53:25 GMT 55.448090 33.706638 25,100 81 385 -1024
2019-05-24 08:53:17 GMT 55.446041 33.681335 25,250 81 389 -1024
2019-05-24 08:53:11 GMT 55.444321 33.660309 25,375 81 390 -1024
2019-05-24 08:52:59 GMT 55.441681 33.627453 25,550 81 395 -1024
2019-05-24 08:52:55 GMT 55.440353 33.611542 25,625 81 397 -1024
2019-05-24 08:52:48 GMT 55.438660 33.590778 25,750 81 399 -960
2019-05-24 08:52:43 GMT 55.437378 33.575672 25,825 81 400 -960
2019-05-24 08:52:39 GMT 55.436268 33.562149 25,900 81 400 -1024
2019-05-24 08:52:35 GMT 55.434906 33.545784 25,975 81 401 -1024
2019-05-24 08:52:28 GMT 55.433350 33.527367 26,075 81 401 -960
2019-05-24 08:52:23 GMT 55.431938 33.510300 26,325 81 403 -960
2019-05-24 08:52:17 GMT 55.430447 33.492237 26,250 81 402 -960
2019-05-24 08:52:08 GMT 55.427628 33.458862 26,425 81 403 -1024
2019-05-24 08:52:03 GMT 55.426346 33.443352 26,500 81 404 -1024
2019-05-24 08:51:50 GMT 55.422905 33.402683 26,700 81 406 -1024
2019-05-24 08:51:39 GMT 55.419800 33.366123 26,900 81 408 -1024
2019-05-24 08:51:29 GMT 55.416870 33.331955 27,075 81 410 -1024
2019-05-24 08:51:19 GMT 55.414032 33.298267 27,250 81 413 -1152
2019-05-24 08:51:07 GMT 55.410553 33.257633 27,475 81 417 -896
2019-05-24 08:50:55 GMT 55.407211 33.218456 27,625 81 423 -832
2019-05-24 08:50:46 GMT 55.404694 33.189053 27,750 81 429 -1216
2019-05-24 08:50:35 GMT 55.401306 33.150276 28,050 81 433 -1792
2019-05-24 08:50:24 GMT 55.398010 33.112064 28,375 81 433 -1856
2019-05-24 08:50:12 GMT 55.394760 33.074501 28,700 81 436 -1600
2019-05-24 08:50:04 GMT 55.391968 33.042271 28,950 81 438 -1792
2019-05-24 08:50:01 GMT 55.391327 33.035240 29,000 81 438 -1856
2019-05-24 08:49:51 GMT 55.388039 32.997604 29,350 81 440 -1920
2019-05-24 08:49:40 GMT 55.384686 32.959152 29,700 81 441 -1856
2019-05-24 08:49:30 GMT 55.381256 32.920208 30,050 81 443 -1920
2019-05-24 08:49:22 GMT 55.379105 32.896053 30,275 81 444 -1984
2019-05-24 08:49:19 GMT 55.377777 32.881111 30,400 81 445 -1920
2019-05-24 08:49:08 GMT 55.374352 32.842880 30,750 81 447 -1856
2019-05-24 08:48:59 GMT 55.371933 32.815994 30,975 81 449 -1856
2019-05-24 08:48:56 GMT 55.370770 32.802677 31,100 80 449 -1920
2019-05-24 08:48:49 GMT 55.368721 32.779957 31,300 81 451 -1920
2019-05-24 08:48:44 GMT 55.367088 32.762314 31,450 81 452 -1920
2019-05-24 08:48:39 GMT 55.365372 32.742729 31,625 80 452 -1920
2019-05-24 08:48:35 GMT 55.363693 32.724277 31,800 80 453 -1984
2019-05-24 08:48:28 GMT 55.361755 32.702824 32,000 80 455 -1920
2019-05-24 08:48:23 GMT 55.360153 32.685326 32,150 80 455 -1920
2019-05-24 08:48:17 GMT 55.357864 32.659767 32,375 80 457 -1856
2019-05-24 08:48:12 GMT 55.356430 32.644043 32,500 80 458 -1856
2019-05-24 08:48:07 GMT 55.354614 32.623817 32,675 80 459 -1984
2019-05-24 08:48:01 GMT 55.352875 32.605080 32,850 80 460 -1984
2019-05-24 08:47:52 GMT 55.349308 32.565639 33,200 80 462 -1792
2019-05-24 08:47:46 GMT 55.347679 32.547913 33,350 80 464 -1664
2019-05-24 08:47:40 GMT 55.345734 32.526722 33,500 80 466 -1728
2019-05-24 08:47:35 GMT 55.343948 32.507332 33,675 80 467 -1920
2019-05-24 08:47:24 GMT 55.340137 32.466263 34,050 80 469 -1984
2019-05-24 08:47:13 GMT 55.336304 32.424934 34,500 80 471 -1280
2019-05-24 08:47:02 GMT 55.332596 32.384865 34,575 80 476 -896
2019-05-24 08:46:53 GMT 55.329208 32.348274 34,725 80 479 -832
2019-05-24 08:46:42 GMT 55.325226 32.305538 34,850 80 484 -640
2019-05-24 08:46:32 GMT 55.321518 32.265553 34,950 80 488 -384
2019-05-24 08:46:22 GMT 55.317604 32.224483 34,975 80 491 0
2019-05-24 08:46:10 GMT 55.313599 32.182510 34,975 80 491 0
2019-05-24 08:46:00 GMT 55.309753 32.142120 34,975 80 491 0
2019-05-24 08:45:50 GMT 55.305634 32.098980 34,975 80 491 0
2019-05-24 08:45:38 GMT 55.301697 32.057861 35,000 80 491 0
2019-05-24 08:45:27 GMT 55.297577 32.015129 35,000 80 490 0
2019-05-24 08:45:17 GMT 55.293365 31.971346 35,000 80 490 0
2019-05-24 08:45:06 GMT 55.289612 31.932571 35,000 80 490 0
2019-05-24 08:44:55 GMT 55.285439 31.889565 35,000 80 490 64
2019-05-24 08:44:42 GMT 55.280457 31.838299 34,975 80 491 0
2019-05-24 08:44:35 GMT 55.277252 31.805904 35,000 80 491 0
2019-05-24 08:44:23 GMT 55.273224 31.764868 34,975 80 490 0
2019-05-24 08:44:12 GMT 55.268818 31.720360 35,000 80 490 0
2019-05-24 08:44:00 GMT 55.264206 31.673988 35,000 80 490 0
2019-05-24 08:43:51 GMT 55.260441 31.636213 35,000 80 489 0
2019-05-24 08:43:40 GMT 55.256332 31.595306 35,000 79 489 0
2019-05-24 08:43:28 GMT 55.251499 31.546991 35,000 79 489 0
2019-05-24 08:43:19 GMT 55.248184 31.513960 34,975 79 489 0
2019-05-24 08:43:15 GMT 55.246658 31.498800 34,975 79 489 0
2019-05-24 08:43:08 GMT 55.243774 31.470421 34,975 79 489 0
2019-05-24 08:43:03 GMT 55.242050 31.452942 34,975 79 488 0
2019-05-24 08:42:58 GMT 55.239853 31.431158 34,975 79 488 0
2019-05-24 08:42:53 GMT 55.238094 31.414074 34,975 79 488 0
2019-05-24 08:42:48 GMT 55.236008 31.393108 34,975 79 488 64
2019-05-24 08:42:38 GMT 55.231903 31.352650 34,975 79 488 0
2019-05-24 08:42:31 GMT 55.228958 31.323959 34,975 79 488 0
2019-05-24 08:42:27 GMT 55.227676 31.311115 34,975 79 488 0
2019-05-24 08:42:24 GMT 55.226532 31.299887 34,975 79 488 0
2019-05-24 08:42:14 GMT 55.222500 31.260681 35,000 79 488 -64
2019-05-24 08:42:03 GMT 55.218292 31.219509 35,000 79 488 0
2019-05-24 08:41:54 GMT 55.214355 31.181461 35,000 79 488 0
2019-05-24 08:41:45 GMT 55.209187 31.132174 35,000 79 489 0
2019-05-24 08:41:33 GMT 55.206158 31.103460 35,000 79 489 0
2019-05-24 08:41:20 GMT 55.200668 31.051483 35,000 79 489 0
2019-05-24 08:41:12 GMT 55.197098 31.022160 35,000 76 489 0
2019-05-24 08:41:02 GMT 55.191216 30.981195 34,975 74 489 0
2019-05-24 08:40:50 GMT 55.183548 30.936127 35,000 72 490 0
2019-05-24 08:40:41 GMT 55.177391 30.904625 34,975 70 491 0
2019-05-24 08:40:36 GMT 55.173340 30.885815 35,000 69 490 -64
2019-05-24 08:40:30 GMT 55.167343 30.859303 35,000 67 490 0
2019-05-24 08:40:17 GMT 55.157135 30.815277 35,000 67 490 0
2019-05-24 08:40:09 GMT 55.149647 30.783026 35,000 67 490 0
2019-05-24 08:40:00 GMT 55.142578 30.752670 35,000 67 491 0
2019-05-24 08:39:48 GMT 55.132370 30.708727 35,000 67 491 64
2019-05-24 08:39:40 GMT 55.125809 30.680571 35,000 67 490 -64
2019-05-24 08:39:31 GMT 55.116779 30.641785 35,000 67 490 0
2019-05-24 08:39:19 GMT 55.107285 30.601286 34,975 67 490 0
2019-05-24 08:38:37 GMT 55.071903 30.450523 35,000 67 488 0
2019-05-24 08:37:58 GMT 55.038151 30.307867 35,000 67 489 0
2019-05-24 08:37:49 GMT 55.030563 30.275978 35,000 67 488 0
2019-05-24 08:37:38 GMT 55.020649 30.234291 35,000 67 488 0
2019-05-24 08:34:19 GMT 54.847595 29.519537 34,975 66 486 0
2019-05-24 08:33:51 GMT 54.823288 29.420982 35,000 66 485 0
2019-05-24 08:33:41 GMT 54.813770 29.382519 35,000 66 485 0
2019-05-24 08:33:08 GMT 54.785019 29.266689 34,975 66 485 0
2019-05-24 08:33:00 GMT 54.777740 29.237528 34,975 66 485 0
2019-05-24 08:32:54 GMT 54.772713 29.217224 35,000 66 485 0
2019-05-24 08:32:45 GMT 54.764099 29.182676 35,000 66 485 0
2019-05-24 08:32:34 GMT 54.755116 29.146812 35,000 66 485 0
2019-05-24 08:32:24 GMT 54.746037 29.110523 35,000 66 485 0
2019-05-24 08:32:14 GMT 54.736588 29.072813 35,000 66 486 0
2019-05-24 08:32:03 GMT 54.727184 29.035450 35,000 66 486 0
2019-05-24 08:31:54 GMT 54.718185 28.999624 35,000 66 486 0
2019-05-24 08:31:43 GMT 54.708939 28.963032 35,000 66 486 0
2019-05-24 08:31:33 GMT 54.699718 28.926502 35,000 66 485 0
2019-05-24 08:31:23 GMT 54.690445 28.889923 35,000 66 485 0
2019-05-24 08:31:11 GMT 54.680397 28.850264 34,975 66 485 0
2019-05-24 08:31:00 GMT 54.670807 28.812395 34,975 66 484 -64
2019-05-24 08:30:52 GMT 54.662704 28.780624 35,000 66 484 0
2019-05-24 08:30:49 GMT 54.660736 28.772869 35,000 66 484 0
2019-05-24 08:30:41 GMT 54.653442 28.744228 35,000 66 484 0
2019-05-24 08:30:38 GMT 54.651077 28.735064 35,000 66 484 0
2019-05-24 08:30:28 GMT 54.642105 28.699842 35,000 66 484 0
2019-05-24 08:30:18 GMT 54.633087 28.664541 35,000 66 484 0
2019-05-24 08:30:11 GMT 54.625854 28.636349 35,000 66 484 0
2019-05-24 08:30:07 GMT 54.623245 28.626169 34,975 66 484 0
2019-05-24 08:30:00 GMT 54.616196 28.598623 35,000 66 484 0
2019-05-24 08:29:57 GMT 54.614044 28.590223 35,000 66 484 0
2019-05-24 08:29:49 GMT 54.606628 28.561382 35,000 66 484 0
2019-05-24 08:29:46 GMT 54.604019 28.551125 35,000 66 484 0
2019-05-24 08:29:40 GMT 54.597931 28.527617 35,000 66 484 0
2019-05-24 08:29:36 GMT 54.594955 28.515984 34,975 66 484 64
2019-05-24 08:29:29 GMT 54.588226 28.489962 34,975 66 484 0
2019-05-24 08:29:25 GMT 54.585152 28.477978 34,975 65 483 0
2019-05-24 08:29:18 GMT 54.578728 28.453093 34,975 66 484 -64
2019-05-24 08:29:15 GMT 54.576260 28.443604 35,000 65 483 -64
2019-05-24 08:29:05 GMT 54.566483 28.405636 35,000 65 483 0
2019-05-24 08:28:54 GMT 54.557079 28.369446 35,000 65 484 0
2019-05-24 08:28:48 GMT 54.550797 28.345226 35,000 65 484 0
2019-05-24 08:28:44 GMT 54.547531 28.332609 35,000 65 484 0
2019-05-24 08:28:37 GMT 54.541031 28.307648 35,000 65 484 0
2019-05-24 08:28:33 GMT 54.537853 28.295370 35,000 65 484 -64
2019-05-24 08:28:23 GMT 54.528442 28.259258 35,000 65 484 64
2019-05-24 08:28:17 GMT 54.522766 28.237530 35,000 65 484 64
2019-05-24 08:28:12 GMT 54.518143 28.219597 35,000 65 484 0
2019-05-24 08:28:02 GMT 54.509354 28.185909 35,000 65 484 0
2019-05-24 08:27:51 GMT 54.499588 28.148804 35,000 65 485 0
2019-05-24 08:27:40 GMT 54.489395 28.109852 34,975 65 485 0
2019-05-24 08:27:30 GMT 54.480103 28.074430 34,975 65 485 0
2019-05-24 08:27:20 GMT 54.470718 28.038725 34,975 65 485 0
2019-05-24 08:27:10 GMT 54.461231 28.002651 35,000 65 485 0
2019-05-24 08:26:58 GMT 54.450336 27.961287 35,000 65 485 0
2019-05-24 08:26:49 GMT 54.441879 27.929104 35,000 65 485 64
2019-05-24 08:26:41 GMT 54.434189 27.900103 35,000 65 485 0
2019-05-24 08:26:38 GMT 54.432228 27.892790 35,000 65 485 0
2019-05-24 08:26:26 GMT 54.420822 27.849775 35,000 65 485 0
2019-05-24 08:26:17 GMT 54.412678 27.819048 35,000 65 484 0
2019-05-24 08:26:06 GMT 54.402100 27.779255 35,000 65 484 0
2019-05-24 08:25:54 GMT 54.391342 27.738783 35,000 65 484 0
2019-05-24 08:25:46 GMT 54.383514 27.709539 35,000 65 484 0
2019-05-24 08:25:35 GMT 54.373581 27.672298 34,975 65 483 0
2019-05-24 08:25:32 GMT 54.370777 27.661825 34,975 65 483 0
2019-05-24 08:25:23 GMT 54.361980 27.628784 35,000 65 484 0
2019-05-24 08:25:14 GMT 54.354126 27.599594 34,975 65 484 64
2019-05-24 08:25:04 GMT 54.344242 27.562866 34,975 65 484 0
2019-05-24 08:24:53 GMT 54.334625 27.527054 34,975 65 484 0
2019-05-24 08:24:43 GMT 54.324692 27.490297 35,000 65 484 0
2019-05-24 08:24:32 GMT 54.314896 27.453865 34,975 65 484 0
2019-05-24 08:24:21 GMT 54.304581 27.415716 34,975 65 484 0
2019-05-24 08:24:11 GMT 54.295410 27.381758 35,000 65 484 -64
2019-05-24 08:24:00 GMT 54.285172 27.343889 35,000 65 484 0
2019-05-24 08:23:49 GMT 54.274555 27.304741 35,000 65 484 0
2019-05-24 08:23:38 GMT 54.264267 27.267015 34,975 65 484 64
2019-05-24 08:23:28 GMT 54.254562 27.231340 35,000 65 484 0
2019-05-24 08:23:21 GMT 54.247555 27.205704 34,975 64 484 64
2019-05-24 08:23:17 GMT 54.244629 27.195007 34,975 64 484 64
2019-05-24 08:23:10 GMT 54.237946 27.170366 34,975 64 484 0
2019-05-24 08:23:07 GMT 54.235081 27.159981 34,975 64 484 0
2019-05-24 08:22:57 GMT 54.225258 27.124031 35,000 64 484 -64
2019-05-24 08:22:49 GMT 54.217670 27.096325 35,000 65 485 0
2019-05-24 08:22:46 GMT 54.215195 27.087341 35,000 64 485 0
2019-05-24 08:22:39 GMT 54.208546 27.063124 35,000 64 485 0
2019-05-24 08:22:36 GMT 54.205379 27.051733 35,000 64 485 0
2019-05-24 08:22:26 GMT 54.195511 27.015703 34,975 64 485 0
2019-05-24 08:22:15 GMT 54.185688 26.980160 34,975 64 486 0
2019-05-24 08:22:05 GMT 54.175774 26.944212 34,975 64 485 0
2019-05-24 08:21:57 GMT 54.166836 26.911737 35,000 64 485 0
2019-05-24 08:21:54 GMT 54.165665 26.907558 35,000 64 485 0
2019-05-24 08:21:47 GMT 54.159073 26.883701 35,000 64 485 0
2019-05-24 08:21:44 GMT 54.155849 26.871992 35,000 64 485 0
2019-05-24 08:21:37 GMT 54.149239 26.848162 34,975 64 485 0
2019-05-24 08:21:33 GMT 54.145523 26.834734 34,975 64 485 0
2019-05-24 08:21:28 GMT 54.139984 26.814722 34,975 64 485 0
2019-05-24 08:21:23 GMT 54.135361 26.798164 34,975 64 485 -64
2019-05-24 08:21:15 GMT 54.128082 26.771955 35,000 64 485 -64
2019-05-24 08:21:12 GMT 54.125290 26.761990 35,000 64 485 -64
2019-05-24 08:21:05 GMT 54.118103 26.736094 35,000 64 485 0
2019-05-24 08:21:01 GMT 54.114670 26.723694 35,000 64 485 0
2019-05-24 08:20:56 GMT 54.109386 26.704775 35,000 64 485 0
2019-05-24 08:20:51 GMT 54.105057 26.689243 35,000 64 485 -64
2019-05-24 08:20:45 GMT 54.099567 26.669636 35,000 64 486 0
2019-05-24 08:20:41 GMT 54.094940 26.653067 35,000 64 486 0
2019-05-24 08:20:35 GMT 54.089447 26.633450 35,000 64 486 64
2019-05-24 08:20:30 GMT 54.084621 26.616158 35,000 64 486 0
2019-05-24 08:20:25 GMT 54.079735 26.598627 35,000 64 486 0
2019-05-24 08:20:20 GMT 54.075172 26.582390 35,000 64 486 0
2019-05-24 08:20:15 GMT 54.069771 26.563084 35,000 64 486 0
2019-05-24 08:20:10 GMT 54.065231 26.546892 35,000 64 486 0
2019-05-24 08:20:04 GMT 54.059143 26.525234 35,000 64 486 0
2019-05-24 08:19:59 GMT 54.054886 26.510088 35,000 64 486 0
2019-05-24 08:19:53 GMT 54.049072 26.489450 35,000 64 486 0
2019-05-24 08:19:48 GMT 54.044128 26.471872 35,000 64 486 0
2019-05-24 08:19:44 GMT 54.039871 26.456726 35,000 64 486 0
2019-05-24 08:19:37 GMT 54.033737 26.435066 34,975 64 486 0
2019-05-24 08:19:33 GMT 54.029663 26.420628 34,975 64 486 0
2019-05-24 08:19:27 GMT 54.023964 26.400309 35,000 64 486 0
2019-05-24 08:19:22 GMT 54.019169 26.383505 35,000 64 486 0
2019-05-24 08:19:17 GMT 54.014511 26.367031 35,000 64 487 0
2019-05-24 08:19:11 GMT 54.008602 26.346024 35,000 64 487 0
2019-05-24 08:19:06 GMT 54.003708 26.328892 35,000 64 487 0
2019-05-24 08:19:02 GMT 53.999340 26.313387 35,000 64 487 0
2019-05-24 08:18:54 GMT 53.992123 26.288021 35,000 64 486 0
2019-05-24 08:18:51 GMT 53.989197 26.277727 35,000 64 486 0
2019-05-24 08:18:45 GMT 53.983383 26.257168 35,000 64 486 0
2019-05-24 08:18:41 GMT 53.979183 26.242380 35,000 64 486 0
2019-05-24 08:18:35 GMT 53.972897 26.220407 35,000 64 486 0
2019-05-24 08:18:31 GMT 53.969406 26.208048 35,000 64 486 0
2019-05-24 08:18:24 GMT 53.962841 26.185104 35,000 64 486 0
2019-05-24 08:18:21 GMT 53.959305 26.172808 35,000 64 486 0
2019-05-24 08:18:14 GMT 53.952274 26.148108 34,975 64 486 64
2019-05-24 08:18:10 GMT 53.949051 26.136789 34,975 64 486 64
2019-05-24 08:18:03 GMT 53.941910 26.111834 34,975 64 486 0
2019-05-24 08:18:00 GMT 53.938774 26.100849 34,975 64 487 0
2019-05-24 08:17:50 GMT 53.928864 26.066319 34,975 64 486 0
2019-05-24 08:17:43 GMT 53.922272 26.043484 34,975 64 486 0
2019-05-24 08:17:39 GMT 53.918476 26.030167 35,000 64 486 -64
2019-05-24 08:17:30 GMT 53.908356 25.994986 35,000 64 485 0
2019-05-24 08:17:22 GMT 53.901531 25.971113 35,000 63 485 0
2019-05-24 08:17:19 GMT 53.898647 25.961260 34,975 63 485 0
2019-05-24 08:17:09 GMT 53.888359 25.925472 35,000 63 485 0
2019-05-24 08:16:59 GMT 53.878117 25.890009 34,975 63 485 0
2019-05-24 08:16:48 GMT 53.867828 25.854303 35,000 63 485 0
2019-05-24 08:16:42 GMT 53.862381 25.835562 35,000 63 485 0
2019-05-24 08:16:38 GMT 53.858238 25.821264 34,975 63 485 0
2019-05-24 08:16:34 GMT 53.854431 25.807983 34,975 63 485 0
2019-05-24 08:16:27 GMT 53.847427 25.783813 35,000 63 485 0
2019-05-24 08:16:24 GMT 53.844833 25.774977 34,975 63 485 0
2019-05-24 08:16:17 GMT 53.837429 25.749531 34,975 63 485 0
2019-05-24 08:16:14 GMT 53.834778 25.740320 34,975 63 485 0
2019-05-24 08:16:04 GMT 53.824535 25.705019 34,975 63 484 0
2019-05-24 08:15:54 GMT 53.814621 25.671009 35,000 63 485 0
2019-05-24 08:15:45 GMT 53.806503 25.643188 34,975 63 485 0
2019-05-24 08:15:39 GMT 53.799774 25.620117 35,000 63 485 0
2019-05-24 08:15:34 GMT 53.793503 25.598772 35,000 63 485 0
2019-05-24 08:15:25 GMT 53.786175 25.573668 34,975 63 485 0
2019-05-24 08:15:14 GMT 53.774632 25.534327 34,975 63 485 0
2019-05-24 08:15:05 GMT 53.764996 25.501368 35,000 63 485 0
2019-05-24 08:14:54 GMT 53.755451 25.468893 35,000 63 485 0
2019-05-24 08:14:44 GMT 53.745163 25.433977 35,000 63 485 0
2019-05-24 08:14:34 GMT 53.734596 25.398048 35,000 63 485 0
2019-05-24 08:14:23 GMT 53.724335 25.363194 35,000 63 486 0
2019-05-24 08:14:13 GMT 53.714035 25.328352 34,975 63 486 0
2019-05-24 08:14:02 GMT 53.703732 25.293516 35,000 63 486 0
2019-05-24 08:13:52 GMT 53.693119 25.257730 35,000 63 485 0
2019-05-24 08:13:42 GMT 53.683182 25.224295 34,975 63 485 0
2019-05-24 08:13:32 GMT 53.672729 25.189226 34,975 63 485 0
2019-05-24 08:13:21 GMT 53.662300 25.154167 35,000 63 485 0
2019-05-24 08:13:10 GMT 53.651733 25.118786 35,000 63 485 0
2019-05-24 08:13:01 GMT 53.641308 25.083727 35,000 63 485 0
2019-05-24 08:12:50 GMT 53.631020 25.049395 34,975 63 485 0
2019-05-24 08:12:40 GMT 53.620636 25.014738 35,000 63 485 0
2019-05-24 08:12:30 GMT 53.610031 24.979458 35,000 63 485 0
2019-05-24 08:12:18 GMT 53.599129 24.943165 35,000 63 485 0
2019-05-24 08:12:08 GMT 53.589111 24.909851 35,000 63 485 0
2019-05-24 08:11:59 GMT 53.578506 24.874582 35,000 63 485 0
2019-05-24 08:11:48 GMT 53.568172 24.840330 35,000 63 485 0
2019-05-24 08:11:38 GMT 53.557976 24.806807 35,000 63 485 0
2019-05-24 08:11:28 GMT 53.547131 24.770939 34,975 63 485 0
2019-05-24 08:11:17 GMT 53.536983 24.737413 35,000 63 485 0
2019-05-24 08:11:07 GMT 53.526134 24.701628 34,975 63 485 0
2019-05-24 08:10:55 GMT 53.515335 24.666084 34,975 63 485 0
2019-05-24 08:10:46 GMT 53.504379 24.629934 34,975 62 486 0
2019-05-24 08:10:37 GMT 53.495911 24.602156 35,000 62 486 0
2019-05-24 08:10:34 GMT 53.493073 24.592817 35,000 62 486 0
2019-05-24 08:10:25 GMT 53.483459 24.561350 35,000 62 485 0
2019-05-24 08:10:14 GMT 53.472794 24.526585 35,000 62 485 0
2019-05-24 08:10:04 GMT 53.461941 24.491110 35,000 62 485 0
2019-05-24 08:09:55 GMT 53.452442 24.460009 35,000 62 485 0
2019-05-24 08:09:51 GMT 53.449837 24.451689 35,000 62 485 0
2019-05-24 08:09:44 GMT 53.441849 24.425589 35,000 62 486 0
2019-05-24 08:09:41 GMT 53.438061 24.413237 35,000 62 485 0
2019-05-24 08:09:34 GMT 53.431595 24.392239 35,000 62 485 0
2019-05-24 08:09:31 GMT 53.429352 24.384863 35,000 62 485 0
2019-05-24 08:09:22 GMT 53.418228 24.348854 35,000 62 486 0
2019-05-24 08:09:11 GMT 53.408066 24.315805 35,000 62 486 0
2019-05-24 08:09:06 GMT 53.402214 24.296829 35,000 62 486 0
2019-05-24 08:09:00 GMT 53.397373 24.281158 35,000 62 486 0
2019-05-24 08:08:55 GMT 53.391312 24.261501 35,000 62 485 0
2019-05-24 08:08:51 GMT 53.386780 24.246826 35,000 62 485 0
2019-05-24 08:08:45 GMT 53.380894 24.227922 35,000 62 485 0
2019-05-24 08:08:39 GMT 53.375866 24.211605 35,000 62 485 0
2019-05-24 08:08:34 GMT 53.369442 24.191006 35,000 62 484 0
2019-05-24 08:08:30 GMT 53.365345 24.177757 35,000 62 484 0
2019-05-24 08:08:22 GMT 53.357105 24.151180 35,000 62 484 0
2019-05-24 08:08:18 GMT 53.354126 24.141567 35,000 62 484 0
2019-05-24 08:08:14 GMT 53.348969 24.125034 35,000 62 484 0
2019-05-24 08:08:09 GMT 53.343704 24.108086 35,000 62 483 0
2019-05-24 08:08:04 GMT 53.338856 24.092533 35,000 62 483 0
2019-05-24 08:08:01 GMT 53.327728 24.056841 35,000 62 483 0
2019-05-24 08:07:54 GMT 53.327728 24.056841 34,975 62 483 0
2019-05-24 08:07:51 GMT 53.324341 24.045933 35,000 62 483 0
2019-05-24 08:07:48 GMT 53.322048 24.038651 35,000 62 483 0
2019-05-24 08:07:40 GMT 53.314636 24.014936 34,975 62 483 0
2019-05-24 08:07:37 GMT 53.311577 24.005047 34,975 62 483 0
2019-05-24 08:07:33 GMT 53.306808 23.989824 34,975 62 483 0
2019-05-24 08:07:27 GMT 53.300308 23.969107 35,000 62 483 0
2019-05-24 08:07:20 GMT 53.293003 23.945671 35,000 62 482 0
2019-05-24 08:07:15 GMT 53.288532 23.931536 35,000 62 482 0
2019-05-24 08:07:12 GMT 53.285973 23.923294 35,000 62 482 0
2019-05-24 08:07:09 GMT 53.281921 23.910530 35,000 62 482 0
2019-05-24 08:07:06 GMT 53.278427 23.899343 35,000 62 482 0
2019-05-24 08:06:59 GMT 53.271286 23.876665 35,000 62 482 0
2019-05-24 08:06:52 GMT 53.264374 23.854630 35,000 62 482 0
2019-05-24 08:06:48 GMT 53.260555 23.842512 34,975 62 481 0
2019-05-24 08:06:45 GMT 53.256645 23.830072 35,000 62 481 0
2019-05-24 08:06:41 GMT 53.253113 23.818909 35,000 62 481 0
2019-05-24 08:06:37 GMT 53.249943 23.808746 35,000 62 481 0
2019-05-24 08:06:33 GMT 53.242081 23.783831 35,000 62 481 0
2019-05-24 08:06:27 GMT 53.238956 23.774010 35,000 62 481 0
2019-05-24 08:06:24 GMT 53.228119 23.739651 35,000 62 480 0
2019-05-24 08:06:17 GMT 53.228119 23.739651 34,975 62 480 0
2019-05-24 08:06:13 GMT 53.224056 23.726913 34,975 62 480 0
2019-05-24 08:06:07 GMT 53.217178 23.704966 34,975 62 480 0
2019-05-24 08:06:02 GMT 53.213535 23.693550 34,975 62 480 0
2019-05-24 08:05:55 GMT 53.206284 23.670671 34,975 62 480 0
2019-05-24 08:05:52 GMT 53.202667 23.659216 34,975 62 480 0
2019-05-24 08:05:46 GMT 53.195847 23.637732 34,975 62 480 0
2019-05-24 08:05:42 GMT 53.191360 23.623667 34,975 62 480 0
2019-05-24 08:05:34 GMT 53.184860 23.603106 35,000 62 480 -64
2019-05-24 08:05:30 GMT 53.180099 23.588118 35,000 62 480 0
2019-05-24 08:05:25 GMT 53.174469 23.570539 35,000 62 480 0
2019-05-24 08:05:19 GMT 53.168564 23.551941 35,000 62 480 0
2019-05-24 08:05:14 GMT 53.162655 23.533361 35,000 62 480 0
2019-05-24 08:05:09 GMT 53.158092 23.519064 35,000 62 480 0
2019-05-24 08:05:03 GMT 53.152554 23.501776 35,000 62 480 0
2019-05-24 08:04:57 GMT 53.145584 23.479980 34,975 61 480 0
2019-05-24 08:04:53 GMT 53.141968 23.468601 34,975 61 480 0
2019-05-24 08:04:47 GMT 53.133728 23.442862 35,000 61 480 0
2019-05-24 08:04:43 GMT 53.131233 23.435049 35,000 61 480 0
2019-05-24 08:04:39 GMT 53.126438 23.420105 35,000 61 480 0
2019-05-24 08:04:36 GMT 53.122898 23.409039 34,975 61 480 64
2019-05-24 08:04:33 GMT 53.120178 23.400564 34,975 61 480 64
2019-05-24 08:04:27 GMT 53.115097 23.384636 34,975 61 480 0
2019-05-24 08:04:23 GMT 53.109375 23.366743 34,975 61 480 0
2019-05-24 08:04:15 GMT 53.100925 23.340454 34,975 61 480 -64
2019-05-24 08:04:12 GMT 53.098938 23.334255 35,000 61 480 0
2019-05-24 08:04:06 GMT 53.092968 23.315735 35,000 61 480 0
2019-05-24 08:04:02 GMT 53.088181 23.300781 34,975 61 480 64
2019-05-24 08:03:56 GMT 53.077698 23.268280 34,975 61 480 0
2019-05-24 08:03:52 GMT 53.077698 23.268280 34,975 61 480 0
2019-05-24 08:03:49 GMT 53.070667 23.246521 35,000 61 482 0
2019-05-24 08:03:46 GMT 53.066391 23.233261 35,000 61 480 0
2019-05-24 08:03:42 GMT 53.066391 23.233261 35,000 61 480 0
2019-05-24 08:03:37 GMT 53.061951 23.219604 35,000 61 481 0
2019-05-24 08:03:33 GMT 53.057262 23.205008 35,000 61 481 0
2019-05-24 08:03:30 GMT 53.048836 23.178955 35,000 61 482 0
2019-05-24 08:03:25 GMT 53.048836 23.178955 35,000 61 481 64
2019-05-24 08:03:20 GMT 53.044228 23.164673 35,000 61 481 64
2019-05-24 08:03:14 GMT 53.037804 23.144897 34,975 61 481 0
2019-05-24 08:03:11 GMT 53.033798 23.132500 35,000 61 481 0
2019-05-24 08:03:06 GMT 53.029907 23.120499 35,000 61 482 0
2019-05-24 08:03:03 GMT 53.026749 23.110733 35,000 61 482 0
2019-05-24 08:02:59 GMT 53.021976 23.096165 35,000 61 482 0
2019-05-24 08:02:51 GMT 53.012711 23.067522 35,000 61 482 0
2019-05-24 08:02:48 GMT 53.009216 23.056793 35,000 61 482 0
2019-05-24 08:02:43 GMT 53.004471 23.042175 35,000 61 482 0
2019-05-24 08:02:40 GMT 53.000977 23.031464 35,000 61 482 0
2019-05-24 08:02:32 GMT 52.993195 23.007431 35,000 61 482 0
2019-05-24 08:02:28 GMT 52.989578 22.996445 35,000 61 482 0
2019-05-24 08:02:22 GMT 52.982391 22.974319 35,000 61 482 0
2019-05-24 08:02:17 GMT 52.978310 22.961660 35,000 61 482 0
2019-05-24 08:02:09 GMT 52.968533 22.931841 35,000 61 483 0
2019-05-24 08:02:05 GMT 52.964203 22.918501 35,000 61 483 64
2019-05-24 08:01:57 GMT 52.955498 22.891897 35,000 61 483 0
2019-05-24 08:01:50 GMT 52.949120 22.872437 35,000 61 483 0
2019-05-24 08:01:46 GMT 52.944557 22.858467 35,000 61 483 0
2019-05-24 08:01:43 GMT 52.941673 22.849758 35,000 61 483 0
2019-05-24 08:01:38 GMT 52.935608 22.831268 35,000 61 483 0
2019-05-24 08:01:33 GMT 52.931351 22.818298 35,000 61 483 0
2019-05-24 08:01:27 GMT 52.925053 22.799143 34,975 61 483 0
2019-05-24 08:01:24 GMT 52.920868 22.786484 35,000 61 483 0
2019-05-24 08:01:17 GMT 52.914066 22.765713 35,000 61 483 0
2019-05-24 08:01:14 GMT 52.909969 22.753078 35,000 61 483 0
2019-05-24 08:01:06 GMT 52.901962 22.729034 35,000 61 484 0
2019-05-24 08:01:03 GMT 52.898659 22.719021 35,000 61 484 0
2019-05-24 08:00:56 GMT 52.891163 22.696262 35,000 61 484 0
2019-05-24 08:00:53 GMT 52.887726 22.685928 34,975 61 484 0
2019-05-24 08:00:46 GMT 52.879715 22.661591 35,000 61 484 0
2019-05-24 08:00:43 GMT 52.876919 22.653181 35,000 61 484 0
2019-05-24 08:00:35 GMT 52.868771 22.628540 35,000 61 484 0
2019-05-24 08:00:32 GMT 52.865570 22.618790 35,000 61 484 0
2019-05-24 08:00:25 GMT 52.857319 22.593855 35,000 61 484 64
2019-05-24 08:00:22 GMT 52.854401 22.585068 35,000 61 484 64
2019-05-24 08:00:12 GMT 52.844006 22.553598 34,975 61 484 0
2019-05-24 08:00:04 GMT 52.835392 22.527700 35,000 61 485 0
2019-05-24 08:00:01 GMT 52.831512 22.516022 35,000 61 485 0
2019-05-24 07:59:57 GMT 52.828491 22.506943 35,000 61 485 0
2019-05-24 07:59:53 GMT 52.823730 22.492752 35,000 61 485 0
2019-05-24 07:59:49 GMT 52.812973 22.460327 35,000 61 485 0
2019-05-24 07:59:43 GMT 52.812973 22.460327 35,000 61 485 0
2019-05-24 07:59:40 GMT 52.809402 22.449646 35,000 61 485 64
2019-05-24 07:59:37 GMT 52.806065 22.439653 35,000 61 485 64
2019-05-24 07:59:32 GMT 52.800980 22.424469 35,000 61 485 64
2019-05-24 07:59:29 GMT 52.797180 22.413101 35,000 61 485 0
2019-05-24 07:59:23 GMT 52.791496 22.396023 34,975 61 485 0
2019-05-24 07:59:20 GMT 52.788437 22.386932 34,975 61 485 0
2019-05-24 07:59:16 GMT 52.784138 22.373972 34,975 61 485 0
2019-05-24 07:59:12 GMT 52.779282 22.359467 35,000 61 485 -64
2019-05-24 07:59:08 GMT 52.775295 22.347525 35,000 61 484 0
2019-05-24 07:59:05 GMT 52.772362 22.338816 35,000 61 484 0
2019-05-24 07:59:02 GMT 52.768356 22.326887 35,000 61 484 0
2019-05-24 07:58:57 GMT 52.763397 22.312012 35,000 61 484 0
2019-05-24 07:58:54 GMT 52.760559 22.303619 35,000 61 484 0
2019-05-24 07:58:51 GMT 52.757092 22.293379 35,000 61 484 0
2019-05-24 07:58:46 GMT 52.751907 22.277908 35,000 61 484 0
2019-05-24 07:58:41 GMT 52.745872 22.259792 35,000 61 484 0
2019-05-24 07:58:38 GMT 52.742756 22.250454 35,000 61 484 0
2019-05-24 07:58:34 GMT 52.738632 22.238235 35,000 61 484 0
2019-05-24 07:58:30 GMT 52.734001 22.224400 35,000 61 484 0
2019-05-24 07:58:26 GMT 52.729111 22.209930 34,975 61 483 0
2019-05-24 07:58:20 GMT 52.723297 22.192539 35,000 61 483 0
2019-05-24 07:58:15 GMT 52.718082 22.177080 35,000 61 483 -64
2019-05-24 07:58:09 GMT 52.711193 22.156599 35,000 60 482 0
2019-05-24 07:58:04 GMT 52.706314 22.142105 35,000 60 482 0
2019-05-24 07:58:00 GMT 52.700718 22.125444 35,000 60 482 64
2019-05-24 07:57:57 GMT 52.697800 22.116776 35,000 60 482 0
2019-05-24 07:57:52 GMT 52.692898 22.102373 35,000 60 482 0
2019-05-24 07:57:49 GMT 52.689545 22.092407 35,000 60 482 0
2019-05-24 07:57:44 GMT 52.684570 22.077713 35,000 60 482 0
2019-05-24 07:57:41 GMT 52.680794 22.066511 35,000 60 482 0
2019-05-24 07:57:38 GMT 52.677979 22.058182 35,000 60 482 0
2019-05-24 07:57:34 GMT 52.673206 22.044146 35,000 60 482 0
2019-05-24 07:57:29 GMT 52.668137 22.029114 35,000 60 482 0
2019-05-24 07:57:26 GMT 52.658386 22.000427 34,975 60 482 0
2019-05-24 07:57:21 GMT 52.658386 22.000427 34,975 60 480 0
2019-05-24 07:57:18 GMT 52.655331 21.991489 34,975 60 480 0
2019-05-24 07:57:15 GMT 52.652210 21.982229 34,975 60 480 0
2019-05-24 07:57:06 GMT 52.643227 21.955784 34,975 60 480 0
2019-05-24 07:57:03 GMT 52.639984 21.946182 34,975 60 480 0
2019-05-24 07:56:59 GMT 52.636093 21.934738 34,975 60 479 0
2019-05-24 07:56:56 GMT 52.632339 21.923599 35,000 60 479 0
2019-05-24 07:56:52 GMT 52.628189 21.911526 34,975 60 480 0
2019-05-24 07:56:48 GMT 52.622452 21.894760 35,000 60 479 0
2019-05-24 07:56:45 GMT 52.620323 21.888374 35,000 60 479 0
2019-05-24 07:56:41 GMT 52.616821 21.878204 35,000 60 479 0
2019-05-24 07:56:36 GMT 52.610870 21.860752 35,000 60 479 0
2019-05-24 07:56:31 GMT 52.605984 21.846548 35,000 60 478 0
2019-05-24 07:56:27 GMT 52.596905 21.819946 35,000 60 479 0
2019-05-24 07:56:21 GMT 52.594620 21.813278 35,000 60 479 0
2019-05-24 07:56:18 GMT 52.590855 21.801897 35,000 60 479 0
2019-05-24 07:56:15 GMT 52.588108 21.794285 35,000 60 478 0
2019-05-24 07:56:12 GMT 52.581207 21.774063 35,000 60 478 0
2019-05-24 07:56:09 GMT 52.581207 21.774063 35,000 60 478 0
2019-05-24 07:56:04 GMT 52.575584 21.757639 35,000 60 476 0
2019-05-24 07:56:01 GMT 52.572979 21.750105 35,000 60 478 0
2019-05-24 07:55:56 GMT 52.566181 21.730251 34,975 60 477 0
2019-05-24 07:55:53 GMT 52.563995 21.723894 34,975 60 477 0
2019-05-24 07:55:50 GMT 52.561432 21.716360 34,975 60 477 0
2019-05-24 07:55:45 GMT 52.552322 21.689911 34,975 60 477 0
2019-05-24 07:55:38 GMT 52.548679 21.679165 35,000 60 477 0
2019-05-24 07:55:34 GMT 52.542953 21.662527 35,000 60 477 0
2019-05-24 07:55:29 GMT 52.539043 21.651150 35,000 60 477 64
2019-05-24 07:55:23 GMT 52.531593 21.629490 34,975 60 477 0
2019-05-24 07:55:20 GMT 52.528008 21.619053 34,975 60 476 0
2019-05-24 07:55:12 GMT 52.520329 21.596767 35,000 60 476 0
2019-05-24 07:55:08 GMT 52.516342 21.585159 35,000 60 476 0
2019-05-24 07:55:02 GMT 52.509384 21.565094 35,000 60 476 0
2019-05-24 07:54:58 GMT 52.503845 21.549072 35,000 60 476 0
2019-05-24 07:54:52 GMT 52.498123 21.532516 35,000 60 476 0
2019-05-24 07:54:49 GMT 52.494415 21.521835 35,000 60 476 0
2019-05-24 07:54:41 GMT 52.486267 21.498337 34,975 60 476 0
2019-05-24 07:54:38 GMT 52.482559 21.487656 35,000 60 476 0
2019-05-24 07:54:33 GMT 52.477478 21.473007 35,000 60 476 0
2019-05-24 07:54:30 GMT 52.474335 21.463911 35,000 60 476 0
2019-05-24 07:54:26 GMT 52.469681 21.450413 35,000 60 476 0
2019-05-24 07:54:21 GMT 52.463673 21.433228 35,000 60 476 0
2019-05-24 07:54:18 GMT 52.461090 21.425705 35,000 60 476 0
2019-05-24 07:54:13 GMT 52.456100 21.411362 35,000 60 476 0
2019-05-24 07:54:10 GMT 52.452827 21.401995 35,000 60 475 0
2019-05-24 07:54:07 GMT 52.449661 21.392893 35,000 60 475 0
2019-05-24 07:54:03 GMT 52.443935 21.376333 35,000 60 475 0
2019-05-24 07:54:00 GMT 52.441750 21.370134 35,000 60 475 0
2019-05-24 07:53:57 GMT 52.439049 21.362366 35,000 60 475 0
2019-05-24 07:53:52 GMT 52.432529 21.343611 35,000 60 474 0
2019-05-24 07:53:49 GMT 52.426895 21.327438 34,975 60 474 64
2019-05-24 07:53:42 GMT 52.422104 21.313711 34,975 60 474 0
2019-05-24 07:53:39 GMT 52.418381 21.303177 34,975 60 474 0
2019-05-24 07:53:36 GMT 52.416328 21.297232 34,975 60 474 0
2019-05-24 07:53:33 GMT 52.411652 21.283875 34,975 60 474 -64
2019-05-24 07:53:29 GMT 52.408081 21.273651 35,000 60 474 0
2019-05-24 07:53:26 GMT 52.405251 21.265530 35,000 60 473 0
2019-05-24 07:53:21 GMT 52.398968 21.247559 34,975 60 473 0
2019-05-24 07:53:18 GMT 52.395676 21.238251 34,975 60 473 0
2019-05-24 07:53:12 GMT 52.389175 21.219635 34,975 60 473 0
2019-05-24 07:53:08 GMT 52.385788 21.210022 34,975 60 473 0
2019-05-24 07:53:05 GMT 52.381786 21.198591 34,975 60 473 0
2019-05-24 07:53:02 GMT 52.373978 21.176300 34,975 60 473 0
2019-05-24 07:52:58 GMT 52.373978 21.176300 34,975 60 473 0
2019-05-24 07:52:55 GMT 52.368988 21.162033 34,975 60 473 -64
2019-05-24 07:52:52 GMT 52.367123 21.156763 34,975 60 473 -64
2019-05-24 07:52:49 GMT 52.363960 21.147818 35,000 60 473 -64
2019-05-24 07:52:46 GMT 52.360703 21.138535 35,000 60 473 0
2019-05-24 07:52:43 GMT 52.357132 21.128311 35,000 60 473 64
2019-05-24 07:52:40 GMT 52.355621 21.123962 35,000 60 473 64
2019-05-24 07:52:37 GMT 52.351593 21.112518 35,000 60 473 128
2019-05-24 07:52:34 GMT 52.348618 21.104202 34,975 60 473 64
2019-05-24 07:52:30 GMT 52.344086 21.091232 35,000 60 473 -64
2019-05-24 07:52:27 GMT 52.340820 21.081980 34,975 60 473 0
2019-05-24 07:52:24 GMT 52.337540 21.072693 34,975 60 473 0
2019-05-24 07:52:19 GMT 52.331680 21.055984 34,975 60 473 0
2019-05-24 07:52:13 GMT 52.325600 21.038660 34,975 60 473 0
2019-05-24 07:52:08 GMT 52.320480 21.024143 34,975 60 473 -64
2019-05-24 07:52:05 GMT 52.317398 21.015472 34,975 60 473 0
2019-05-24 07:52:02 GMT 52.314381 21.006802 34,975 60 473 0
2019-05-24 07:51:59 GMT 52.309891 20.994186 34,975 60 473 0
2019-05-24 07:51:56 GMT 52.306732 20.985184 34,975 60 473 0
2019-05-24 07:51:52 GMT 52.303253 20.975332 34,975 60 473 0
2019-05-24 07:51:48 GMT 52.297165 20.958023 34,975 59 473 0
2019-05-24 07:51:45 GMT 52.294968 20.951843 34,975 59 473 0
2019-05-24 07:51:40 GMT 52.284027 20.921021 35,000 59 473 -64
2019-05-24 07:51:35 GMT 52.284027 20.921021 35,000 59 474 -64
2019-05-24 07:51:32 GMT 52.280445 20.910828 35,000 59 473 0
2019-05-24 07:51:27 GMT 52.274963 20.895386 35,000 59 473 0
2019-05-24 07:51:21 GMT 52.268738 20.877838 35,000 59 473 64
2019-05-24 07:51:16 GMT 52.263382 20.862656 34,975 59 473 0
2019-05-24 07:51:13 GMT 52.260864 20.855560 34,975 59 473 0
2019-05-24 07:51:09 GMT 52.255600 20.840759 34,975 59 474 -64
2019-05-24 07:51:06 GMT 52.252121 20.830917 35,000 59 474 -64
2019-05-24 07:50:58 GMT 52.243759 20.807478 35,000 59 474 -64
2019-05-24 07:50:54 GMT 52.236740 20.787735 35,000 59 474 64
2019-05-24 07:50:48 GMT 52.228500 20.764618 35,000 59 474 0
2019-05-24 07:50:45 GMT 52.228500 20.764618 35,000 59 474 0
2019-05-24 07:50:42 GMT 52.226303 20.758438 35,000 59 475 -64
2019-05-24 07:50:39 GMT 52.222767 20.748545 35,000 59 474 0
2019-05-24 07:50:35 GMT 52.217178 20.732771 35,000 59 474 0
2019-05-24 07:50:31 GMT 52.213120 20.721359 35,000 59 474 0
2019-05-24 07:50:27 GMT 52.209591 20.711504 35,000 59 474 0
2019-05-24 07:50:24 GMT 52.206070 20.701675 35,000 59 474 0
2019-05-24 07:50:21 GMT 52.201584 20.689011 35,000 59 474 64
2019-05-24 07:50:18 GMT 52.199341 20.682831 35,000 59 475 64
2019-05-24 07:50:12 GMT 52.192135 20.662851 35,000 59 475 0
2019-05-24 07:50:07 GMT 52.187347 20.649643 34,975 59 474 64
2019-05-24 07:50:04 GMT 52.184032 20.640408 35,000 59 475 0
2019-05-24 07:50:01 GMT 52.180893 20.631790 35,000 59 475 0
2019-05-24 07:49:57 GMT 52.176353 20.619141 34,975 59 475 0
2019-05-24 07:49:53 GMT 52.171280 20.605011 35,000 59 475 -64
2019-05-24 07:49:50 GMT 52.168854 20.598221 35,000 59 475 -64
2019-05-24 07:49:46 GMT 52.164413 20.585861 35,000 59 475 0
2019-05-24 07:49:43 GMT 52.161133 20.576687 35,000 59 475 0
2019-05-24 07:49:40 GMT 52.157921 20.567739 35,000 59 475 0
2019-05-24 07:49:36 GMT 52.149494 20.544355 35,000 59 475 64
2019-05-24 07:49:33 GMT 52.149494 20.544355 35,000 59 475 64
2019-05-24 07:49:29 GMT 52.145508 20.533295 34,975 59 475 0
2019-05-24 07:49:25 GMT 52.140793 20.520401 35,000 59 475 0
2019-05-24 07:49:22 GMT 52.137669 20.511789 34,975 59 475 0
2019-05-24 07:49:19 GMT 52.134270 20.502214 35,000 59 475 0
2019-05-24 07:49:16 GMT 52.130722 20.492020 35,000 61 474 0
2019-05-24 07:49:12 GMT 52.126785 20.480423 35,000 61 475 0
2019-05-24 07:49:09 GMT 52.123581 20.470734 35,000 62 475 0
2019-05-24 07:49:03 GMT 52.116253 20.447598 35,000 63 474 0
2019-05-24 07:48:59 GMT 52.113461 20.438416 34,975 64 474 0
2019-05-24 07:48:56 GMT 52.110580 20.428772 34,975 64 474 0
2019-05-24 07:48:52 GMT 52.106247 20.413618 34,975 65 474 0
2019-05-24 07:48:49 GMT 52.103943 20.405197 34,975 66 474 0
2019-05-24 07:48:45 GMT 52.100876 20.393753 35,000 67 474 -64
2019-05-24 07:48:41 GMT 52.097900 20.381851 35,000 69 474 0
2019-05-24 07:48:38 GMT 52.095215 20.370613 35,000 69 474 0
2019-05-24 07:48:35 GMT 52.092697 20.360020 35,000 69 474 0
2019-05-24 07:48:31 GMT 52.089722 20.346994 35,000 69 474 0
2019-05-24 07:48:28 GMT 52.087067 20.335693 35,000 69 474 0
2019-05-24 07:48:21 GMT 52.081295 20.310740 34,975 69 474 0
2019-05-24 07:48:17 GMT 52.078949 20.300751 35,000 69 473 0
2019-05-24 07:48:14 GMT 52.076157 20.288849 35,000 69 473 0
2019-05-24 07:48:11 GMT 52.074219 20.280525 35,000 69 473 0
2019-05-24 07:48:07 GMT 52.068100 20.254288 35,000 69 473 0
2019-05-24 07:48:03 GMT 52.068100 20.254288 35,000 69 473 64
2019-05-24 07:48:00 GMT 52.065701 20.244036 35,000 69 473 64
2019-05-24 07:47:57 GMT 52.057831 20.210215 35,000 69 472 0
2019-05-24 07:47:51 GMT 52.056293 20.203545 35,000 69 473 0
2019-05-24 07:47:48 GMT 52.054760 20.196953 35,000 69 473 0
2019-05-24 07:47:42 GMT 52.051804 20.184326 35,000 69 472 0
2019-05-24 07:47:38 GMT 52.048141 20.168762 35,000 69 472 0
2019-05-24 07:47:35 GMT 52.046986 20.163836 35,000 69 472 0
2019-05-24 07:47:32 GMT 52.043335 20.148315 35,000 69 472 64
2019-05-24 07:47:29 GMT 52.038574 20.128174 35,000 69 472 0
2019-05-24 07:47:26 GMT 52.038574 20.128174 35,000 69 472 0
2019-05-24 07:47:23 GMT 52.037018 20.121536 35,000 69 472 64
2019-05-24 07:47:20 GMT 52.035324 20.114288 34,975 69 471 64
2019-05-24 07:47:17 GMT 52.032349 20.101776 34,975 69 471 -64
2019-05-24 07:47:13 GMT 52.029327 20.088882 34,975 69 471 0
2019-05-24 07:47:09 GMT 52.025391 20.072098 35,000 69 471 -64
2019-05-24 07:47:06 GMT 52.023285 20.063171 35,000 69 470 0
2019-05-24 07:47:03 GMT 52.021523 20.055620 35,000 69 470 0
2019-05-24 07:46:57 GMT 52.016773 20.035530 35,000 69 470 0
2019-05-24 07:46:53 GMT 52.014072 20.023996 35,000 69 470 0
2019-05-24 07:46:47 GMT 52.008820 20.001678 35,000 69 470 0
2019-05-24 07:46:44 GMT 52.006393 19.991455 34,975 68 468 64
2019-05-24 07:46:36 GMT 52.000214 19.965210 35,000 69 470 0
2019-05-24 07:46:32 GMT 51.996616 19.950151 35,000 69 469 64
2019-05-24 07:46:27 GMT 51.993542 19.937046 34,975 69 469 64
2019-05-24 07:46:24 GMT 51.990738 19.925232 34,975 69 469 0
2019-05-24 07:46:21 GMT 51.985245 19.901962 34,975 68 468 64
2019-05-24 07:46:16 GMT 51.985245 19.901962 34,975 68 468 -64
2019-05-24 07:46:13 GMT 51.980972 19.883999 35,000 68 468 -64
2019-05-24 07:46:07 GMT 51.978653 19.874191 35,000 69 467 0
2019-05-24 07:46:04 GMT 51.975479 19.860769 35,000 68 468 0
2019-05-24 07:46:01 GMT 51.970230 19.838562 34,975 68 468 64
2019-05-24 07:45:57 GMT 51.970230 19.838562 35,000 68 468 64
2019-05-24 07:45:53 GMT 51.966915 19.824594 34,975 69 467 0
2019-05-24 07:45:50 GMT 51.965519 19.818708 34,975 69 467 0
2019-05-24 07:45:44 GMT 51.960350 19.796814 34,975 68 467 -64
2019-05-24 07:45:41 GMT 51.958099 19.787369 35,000 68 467 -64
2019-05-24 07:45:36 GMT 51.954674 19.773035 35,000 68 467 -64
2019-05-24 07:45:33 GMT 51.949829 19.752869 35,000 68 467 64
2019-05-24 07:45:30 GMT 51.949829 19.752869 35,000 68 467 0
2019-05-24 07:45:25 GMT 51.945602 19.734955 35,000 69 466 0
2019-05-24 07:45:21 GMT 51.941666 19.718323 35,000 69 466 0
2019-05-24 07:45:15 GMT 51.937729 19.701767 35,000 68 466 0
2019-05-24 07:45:12 GMT 51.936172 19.695282 35,000 68 466 0
2019-05-24 07:45:09 GMT 51.933537 19.684204 34,975 68 465 -64
2019-05-24 07:45:04 GMT 51.929214 19.666367 35,000 68 465 -64
2019-05-24 07:45:01 GMT 51.926468 19.654999 35,000 68 465 -64
2019-05-24 07:44:58 GMT 51.924545 19.646912 35,000 68 465 0
2019-05-24 07:44:54 GMT 51.921574 19.634609 35,000 68 465 0
2019-05-24 07:44:51 GMT 51.918823 19.623260 35,000 68 465 0
2019-05-24 07:44:48 GMT 51.917267 19.616776 35,000 68 465 0
2019-05-24 07:44:44 GMT 51.911098 19.591213 34,975 68 465 0
2019-05-24 07:44:41 GMT 51.909348 19.583740 35,000 68 465 -64
2019-05-24 07:44:35 GMT 51.906677 19.572693 35,000 68 465 -64
2019-05-24 07:44:32 GMT 51.901703 19.552002 35,000 68 464 0
2019-05-24 07:44:29 GMT 51.901703 19.552002 35,000 68 464 0
2019-05-24 07:44:24 GMT 51.898205 19.537458 35,000 68 464 0
2019-05-24 07:44:18 GMT 51.893547 19.518076 35,000 68 464 0
2019-05-24 07:44:15 GMT 51.890198 19.504242 35,000 68 464 0
2019-05-24 07:44:10 GMT 51.886753 19.489975 34,975 68 463 0
2019-05-24 07:44:04 GMT 51.882793 19.473572 34,975 68 463 0
2019-05-24 07:44:01 GMT 51.877350 19.450996 34,975 68 463 0
2019-05-24 07:43:57 GMT 51.877350 19.450996 34,975 68 463 0
2019-05-24 07:43:53 GMT 51.874321 19.438477 35,000 68 462 0
2019-05-24 07:43:50 GMT 51.871204 19.425583 35,000 68 462 0
2019-05-24 07:43:47 GMT 51.868744 19.415365 35,000 68 461 -128
2019-05-24 07:43:44 GMT 51.866547 19.406357 35,000 68 462 0
2019-05-24 07:43:38 GMT 51.862106 19.388123 35,000 68 460 64
2019-05-24 07:43:35 GMT 51.859726 19.378176 34,975 68 458 0
2019-05-24 07:43:31 GMT 51.856750 19.366001 34,975 68 458 0
2019-05-24 07:43:26 GMT 51.852814 19.349745 34,975 68 459 0
2019-05-24 07:43:23 GMT 51.850628 19.340820 34,975 68 459 0
2019-05-24 07:43:16 GMT 51.845276 19.318771 34,975 68 458 0
2019-05-24 07:43:13 GMT 51.842194 19.306095 34,975 68 458 0
2019-05-24 07:43:08 GMT 51.838245 19.289856 34,975 68 458 64
2019-05-24 07:43:05 GMT 51.836838 19.284124 34,975 68 457 0
2019-05-24 07:43:02 GMT 51.834366 19.273954 34,975 68 457 0
2019-05-24 07:42:56 GMT 51.829788 19.255247 34,975 68 457 0
2019-05-24 07:42:52 GMT 51.826748 19.242859 34,975 68 457 0
2019-05-24 07:42:47 GMT 51.822788 19.226685 34,975 68 457 -64
2019-05-24 07:42:44 GMT 51.820953 19.219095 34,975 68 457 -64
2019-05-24 07:42:41 GMT 51.818253 19.208036 34,975 68 457 -64
2019-05-24 07:42:37 GMT 51.814644 19.193497 34,975 68 457 0
2019-05-24 07:42:34 GMT 51.813034 19.186806 34,975 68 457 0
2019-05-24 07:42:31 GMT 51.810314 19.175797 34,975 68 457 -64
2019-05-24 07:42:24 GMT 51.805115 19.154589 35,000 68 456 -64
2019-05-24 07:42:21 GMT 51.802872 19.145384 35,000 68 456 0
2019-05-24 07:42:13 GMT 51.795742 19.116364 35,000 68 456 0
2019-05-24 07:42:03 GMT 51.789040 19.088898 35,000 68 456 0
2019-05-24 07:42:00 GMT 51.786758 19.079742 35,000 68 456 0
2019-05-24 07:41:53 GMT 51.781078 19.056778 35,000 68 456 0
2019-05-24 07:41:50 GMT 51.778748 19.047323 35,000 68 456 0
2019-05-24 07:41:46 GMT 51.774948 19.031883 35,000 68 456 0
2019-05-24 07:41:43 GMT 51.773491 19.025879 35,000 68 456 0
2019-05-24 07:41:40 GMT 51.770279 19.012955 35,000 68 456 0
2019-05-24 07:41:36 GMT 51.767578 19.001923 35,000 68 456 0
2019-05-24 07:41:32 GMT 51.765244 18.992466 35,000 68 455 0
2019-05-24 07:41:29 GMT 51.762497 18.981480 35,000 68 455 0
2019-05-24 07:41:23 GMT 51.757278 18.960323 35,000 68 455 64
2019-05-24 07:41:19 GMT 51.754532 18.949339 34,975 68 455 0
2019-05-24 07:41:10 GMT 51.743977 18.906860 34,975 68 455 0
2019-05-24 07:41:01 GMT 51.740616 18.893291 34,975 68 455 0
2019-05-24 07:40:57 GMT 51.737823 18.882010 34,975 68 455 0
2019-05-24 07:40:52 GMT 51.732712 18.861542 34,975 68 455 0
2019-05-24 07:40:49 GMT 51.730431 18.852386 34,975 68 456 0
2019-05-24 07:40:45 GMT 51.727776 18.841705 34,975 68 456 0
2019-05-24 07:40:41 GMT 51.724594 18.828785 34,975 68 456 0
2019-05-24 07:40:38 GMT 51.722610 18.820953 34,975 68 456 0
2019-05-24 07:40:35 GMT 51.720108 18.810822 34,975 68 456 0
2019-05-24 07:40:30 GMT 51.715626 18.792877 34,975 68 456 0
2019-05-24 07:40:27 GMT 51.710449 18.772146 34,975 68 456 0
2019-05-24 07:40:23 GMT 51.710449 18.772146 34,975 68 456 -64
2019-05-24 07:40:20 GMT 51.707386 18.759842 35,000 68 457 0
2019-05-24 07:40:15 GMT 51.704220 18.747253 35,000 68 457 0
2019-05-24 07:40:10 GMT 51.699753 18.729324 34,975 68 457 64
2019-05-24 07:40:07 GMT 51.697609 18.720779 34,975 68 457 64
2019-05-24 07:40:04 GMT 51.695801 18.713503 34,975 68 457 64
2019-05-24 07:39:58 GMT 51.690441 18.692093 34,975 68 458 0
2019-05-24 07:39:55 GMT 51.688065 18.682623 34,975 68 458 -64
2019-05-24 07:39:49 GMT 51.680943 18.654251 35,000 68 458 -64
2019-05-24 07:39:43 GMT 51.679276 18.647585 35,000 68 458 -64
2019-05-24 07:39:38 GMT 51.675430 18.632145 35,000 68 458 0
2019-05-24 07:39:34 GMT 51.672005 18.618622 35,000 68 458 0
2019-05-24 07:39:30 GMT 51.666840 18.598099 35,000 67 458 0
2019-05-24 07:39:24 GMT 51.664307 18.587976 35,000 68 459 0
2019-05-24 07:39:21 GMT 51.661148 18.575357 35,000 68 459 0
2019-05-24 07:39:16 GMT 51.658039 18.563004 35,000 67 460 0
2019-05-24 07:39:12 GMT 51.654373 18.548485 34,975 67 460 -64
2019-05-24 07:39:08 GMT 51.650711 18.533936 35,000 67 459 0
2019-05-24 07:39:04 GMT 51.648312 18.524399 35,000 67 459 0
2019-05-24 07:39:01 GMT 51.644913 18.510818 34,975 67 459 0
2019-05-24 07:38:57 GMT 51.642445 18.501053 35,000 67 461 0
2019-05-24 07:38:52 GMT 51.637527 18.481750 34,975 67 460 0
2019-05-24 07:38:46 GMT 51.634323 18.469057 35,000 67 461 0
2019-05-24 07:38:41 GMT 51.628990 18.447800 34,975 67 461 0
2019-05-24 07:38:37 GMT 51.625687 18.434830 35,000 67 461 0
2019-05-24 07:38:33 GMT 51.622707 18.423157 35,000 67 462 0
2019-05-24 07:38:28 GMT 51.618610 18.406982 35,000 67 462 -64
2019-05-24 07:38:25 GMT 51.616795 18.399658 35,000 67 462 -64
2019-05-24 07:38:22 GMT 51.614182 18.389481 35,000 67 462 -64
2019-05-24 07:38:19 GMT 51.611526 18.379013 35,000 67 463 0
2019-05-24 07:38:16 GMT 51.609055 18.369215 35,000 67 462 0
2019-05-24 07:38:12 GMT 51.605904 18.356857 35,000 67 462 0
2019-05-24 07:38:09 GMT 51.599899 18.333361 35,000 67 462 0
2019-05-24 07:38:04 GMT 51.599899 18.333361 35,000 67 463 0
2019-05-24 07:38:00 GMT 51.597382 18.323517 35,000 67 463 0
2019-05-24 07:37:57 GMT 51.593658 18.308868 34,975 67 463 0
2019-05-24 07:37:53 GMT 51.591248 18.299362 34,975 67 463 0
2019-05-24 07:37:49 GMT 51.588318 18.287857 34,975 67 463 0
2019-05-24 07:37:45 GMT 51.581135 18.259888 34,975 67 465 0
2019-05-24 07:37:41 GMT 51.581135 18.259888 34,975 67 465 0
2019-05-24 07:37:38 GMT 51.579182 18.252258 34,975 67 465 0
2019-05-24 07:37:33 GMT 51.574619 18.234406 34,975 67 464 -64
2019-05-24 07:37:30 GMT 51.571701 18.222979 35,000 67 464 -64
2019-05-24 07:37:23 GMT 51.566803 18.203827 35,000 67 465 0
2019-05-24 07:37:19 GMT 51.563492 18.190765 35,000 67 465 0
2019-05-24 07:37:16 GMT 51.561539 18.183115 35,000 67 465 0
2019-05-24 07:37:12 GMT 51.557861 18.168793 35,000 67 465 0
2019-05-24 07:37:09 GMT 51.554855 18.156986 35,000 67 465 0
2019-05-24 07:37:06 GMT 51.552551 18.148041 35,000 67 467 0
2019-05-24 07:37:03 GMT 51.549854 18.137512 35,000 67 466 0
2019-05-24 07:36:58 GMT 51.546341 18.123804 35,000 67 466 0
2019-05-24 07:36:54 GMT 51.542816 18.110071 35,000 67 467 0
2019-05-24 07:36:51 GMT 51.537689 18.090252 35,000 67 467 0
2019-05-24 07:36:47 GMT 51.537689 18.090252 35,000 67 467 0
2019-05-24 07:36:41 GMT 51.531418 18.065948 35,000 67 467 0
2019-05-24 07:36:37 GMT 51.528946 18.056328 35,000 67 467 0
2019-05-24 07:36:34 GMT 51.526997 18.048706 35,000 67 468 0
2019-05-24 07:36:30 GMT 51.522621 18.031693 35,000 67 468 0
2019-05-24 07:36:26 GMT 51.516495 18.008001 35,000 67 468 0
2019-05-24 07:36:22 GMT 51.516495 18.008001 35,000 67 468 0
2019-05-24 07:36:19 GMT 51.513451 17.996140 35,000 67 468 0
2019-05-24 07:36:16 GMT 51.510609 17.985306 35,000 67 468 0
2019-05-24 07:36:13 GMT 51.508980 17.978897 35,000 67 468 0
2019-05-24 07:36:10 GMT 51.506882 17.970886 35,000 67 468 0
2019-05-24 07:36:07 GMT 51.504501 17.961607 35,000 67 468 0
2019-05-24 07:36:04 GMT 51.502075 17.952253 35,000 67 468 0
2019-05-24 07:36:01 GMT 51.495762 17.927933 35,000 67 469 0
2019-05-24 07:35:57 GMT 51.495762 17.927933 35,000 67 469 0
2019-05-24 07:35:53 GMT 51.492508 17.915436 35,000 67 469 0
2019-05-24 07:35:50 GMT 51.490360 17.907104 35,000 67 469 0
2019-05-24 07:35:47 GMT 51.486603 17.892647 35,000 67 470 0
2019-05-24 07:35:44 GMT 51.484959 17.886276 35,000 67 470 0
2019-05-24 07:35:41 GMT 51.482025 17.874985 35,000 67 470 0
2019-05-24 07:35:37 GMT 51.478638 17.861839 35,000 67 469 -64
2019-05-24 07:35:33 GMT 51.475433 17.849665 35,000 67 469 0
2019-05-24 07:35:29 GMT 51.471542 17.834597 35,000 67 470 0
2019-05-24 07:35:25 GMT 51.469894 17.828213 35,000 67 469 0
2019-05-24 07:35:22 GMT 51.467037 17.817307 35,000 67 470 0
2019-05-24 07:35:19 GMT 51.464905 17.808912 35,000 67 470 0
2019-05-24 07:35:14 GMT 51.459030 17.786484 35,000 67 470 0
2019-05-24 07:35:08 GMT 51.454147 17.767862 35,000 67 470 64
2019-05-24 07:35:05 GMT 51.452000 17.759552 35,000 67 470 0
2019-05-24 07:35:02 GMT 51.449394 17.749634 34,975 67 470 0
2019-05-24 07:34:59 GMT 51.447720 17.743149 34,975 67 470 0
2019-05-24 07:34:55 GMT 51.443577 17.727432 35,000 67 471 0
2019-05-24 07:34:51 GMT 51.440872 17.717161 35,000 67 471 0
2019-05-24 07:34:48 GMT 51.438812 17.709145 35,000 67 471 0
2019-05-24 07:34:45 GMT 51.435837 17.697935 35,000 67 471 0
2019-05-24 07:34:41 GMT 51.432312 17.684425 35,000 67 471 0
2019-05-24 07:34:38 GMT 51.430206 17.676409 34,975 67 471 0
2019-05-24 07:34:33 GMT 51.424805 17.655846 34,975 67 471 0
2019-05-24 07:34:30 GMT 51.422951 17.648773 34,975 67 471 0
2019-05-24 07:34:27 GMT 51.420868 17.640778 34,975 67 471 0
2019-05-24 07:34:24 GMT 51.417740 17.628860 34,975 67 471 0
2019-05-24 07:34:20 GMT 51.413593 17.613144 34,975 67 471 0
2019-05-24 07:34:17 GMT 51.412525 17.608948 34,975 67 471 0
2019-05-24 07:34:12 GMT 51.408382 17.593231 34,975 67 471 0
2019-05-24 07:34:09 GMT 51.404472 17.578430 34,975 67 471 0
2019-05-24 07:34:06 GMT 51.402878 17.572334 34,975 67 471 0
2019-05-24 07:34:03 GMT 51.400654 17.564011 34,975 67 471 0
2019-05-24 07:34:00 GMT 51.397202 17.550808 34,975 67 472 0
2019-05-24 07:33:57 GMT 51.395187 17.543089 34,975 67 472 0
2019-05-24 07:33:54 GMT 51.391937 17.530912 34,975 67 471 0
2019-05-24 07:33:50 GMT 51.389389 17.521286 34,975 67 472 0
2019-05-24 07:33:47 GMT 51.386036 17.508392 34,975 67 472 0
2019-05-24 07:33:41 GMT 51.379669 17.484369 35,000 67 472 0
2019-05-24 07:33:35 GMT 51.377098 17.474747 35,000 67 473 0
2019-05-24 07:33:32 GMT 51.373188 17.459946 35,000 67 472 0
2019-05-24 07:33:29 GMT 51.371613 17.453861 35,000 67 473 0
2019-05-24 07:33:26 GMT 51.366066 17.433014 35,000 67 473 0
2019-05-24 07:33:23 GMT 51.366066 17.433014 35,000 67 473 0
2019-05-24 07:33:19 GMT 51.363098 17.421719 35,000 67 473 0
2019-05-24 07:33:15 GMT 51.358662 17.405014 35,000 67 473 0
2019-05-24 07:33:11 GMT 51.355682 17.393806 35,000 67 473 0
2019-05-24 07:33:08 GMT 51.352985 17.383499 35,000 67 473 0
2019-05-24 07:33:04 GMT 51.349213 17.369385 35,000 66 472 -64
2019-05-24 07:33:01 GMT 51.345722 17.356262 35,000 66 472 0
2019-05-24 07:32:58 GMT 51.345722 17.356262 35,000 66 472 0
2019-05-24 07:32:55 GMT 51.339569 17.333160 35,000 66 472 0
2019-05-24 07:32:52 GMT 51.339569 17.333160 35,000 66 472 0
2019-05-24 07:32:49 GMT 51.337017 17.323532 35,000 66 472 0
2019-05-24 07:32:45 GMT 51.333710 17.311037 35,000 66 472 0
2019-05-24 07:32:41 GMT 51.327705 17.288589 35,000 67 471 0
2019-05-24 07:32:38 GMT 51.327705 17.288589 35,000 66 472 0
2019-05-24 07:32:34 GMT 51.324463 17.276373 35,000 66 472 0
2019-05-24 07:32:31 GMT 51.321140 17.263870 35,000 66 473 0
2019-05-24 07:32:28 GMT 51.318878 17.255512 35,000 66 473 0
2019-05-24 07:32:23 GMT 51.315308 17.242077 35,000 66 473 0
2019-05-24 07:32:19 GMT 51.310959 17.225672 35,000 66 473 0
2019-05-24 07:32:16 GMT 51.308712 17.217407 35,000 66 473 0
2019-05-24 07:32:13 GMT 51.306564 17.209341 35,000 66 473 0
2019-05-24 07:32:09 GMT 51.302940 17.195892 34,975 66 473 0
2019-05-24 07:32:06 GMT 51.301079 17.188873 34,975 66 473 0
2019-05-24 07:32:03 GMT 51.297634 17.176056 34,975 66 473 0
2019-05-24 07:31:57 GMT 51.292328 17.156143 35,000 66 473 -64
2019-05-24 07:31:54 GMT 51.290279 17.148514 35,000 66 473 0
2019-05-24 07:31:51 GMT 51.288025 17.140158 35,000 66 473 0
2019-05-24 07:31:47 GMT 51.283310 17.122564 35,000 66 473 0
2019-05-24 07:31:44 GMT 51.281666 17.116470 35,000 66 473 0
2019-05-24 07:31:41 GMT 51.279198 17.107162 35,000 66 473 0
2019-05-24 07:31:37 GMT 51.275475 17.093430 35,000 66 474 0
2019-05-24 07:31:34 GMT 51.270493 17.074833 35,000 66 473 0
2019-05-24 07:31:27 GMT 51.266418 17.059763 34,975 66 473 0
2019-05-24 07:31:24 GMT 51.264267 17.051746 34,975 66 473 0
2019-05-24 07:31:21 GMT 51.262115 17.043762 34,975 66 473 0
2019-05-24 07:31:15 GMT 51.256256 17.021978 34,975 66 473 0
2019-05-24 07:31:11 GMT 51.252777 17.009211 34,975 66 474 0
2019-05-24 07:31:07 GMT 51.250198 16.999588 34,975 66 474 0
2019-05-24 07:31:04 GMT 51.247169 16.988373 34,975 66 474 64
2019-05-24 07:31:01 GMT 51.244125 16.977142 34,975 66 474 0
2019-05-24 07:30:57 GMT 51.241104 16.965935 34,975 66 474 0
2019-05-24 07:30:54 GMT 51.238586 16.956656 34,975 66 474 0
2019-05-24 07:30:50 GMT 51.235580 16.945419 34,975 66 474 -64
2019-05-24 07:30:47 GMT 51.228699 16.920134 34,975 66 474 0
2019-05-24 07:30:44 GMT 51.228699 16.920134 34,975 66 474 -64
2019-05-24 07:30:40 GMT 51.226269 16.911163 35,000 66 474 -64
2019-05-24 07:30:36 GMT 51.222977 16.898977 35,000 66 474 0
2019-05-24 07:30:33 GMT 51.219864 16.887398 35,000 66 478 -64
2019-05-24 07:30:30 GMT 51.216911 16.876526 35,000 66 474 0
2019-05-24 07:30:27 GMT 51.215656 16.872025 35,000 66 474 0
2019-05-24 07:30:24 GMT 51.211761 16.857630 35,000 66 475 0
2019-05-24 07:30:21 GMT 51.209061 16.847683 35,000 66 475 0
2019-05-24 07:30:18 GMT 51.204803 16.831945 35,000 66 475 0
2019-05-24 07:30:15 GMT 51.204803 16.831945 35,000 66 475 0
2019-05-24 07:30:11 GMT 51.198711 16.809540 35,000 66 475 0
2019-05-24 07:30:08 GMT 51.195648 16.798319 35,000 66 475 0
2019-05-24 07:30:05 GMT 51.195648 16.798319 35,000 66 475 0
2019-05-24 07:30:02 GMT 51.192657 16.787415 35,000 66 475 0
2019-05-24 07:29:59 GMT 51.190842 16.780651 34,975 66 476 64
2019-05-24 07:29:56 GMT 51.187866 16.769814 34,975 66 476 0
2019-05-24 07:29:53 GMT 51.185814 16.762390 34,975 66 476 0
2019-05-24 07:29:50 GMT 51.182182 16.748886 34,975 66 476 -64
2019-05-24 07:29:44 GMT 51.177902 16.733170 35,000 66 476 -64
2019-05-24 07:29:41 GMT 51.174133 16.719410 35,000 66 476 0
2019-05-24 07:29:36 GMT 51.170547 16.706238 35,000 66 476 0
2019-05-24 07:29:33 GMT 51.165192 16.686630 35,000 66 476 0
2019-05-24 07:29:30 GMT 51.161747 16.674118 35,000 66 476 0
2019-05-24 07:29:27 GMT 51.161747 16.674118 35,000 66 476 64
2019-05-24 07:29:24 GMT 51.159622 16.666409 35,000 66 476 64
2019-05-24 07:29:20 GMT 51.156281 16.654234 34,975 66 476 0
2019-05-24 07:29:15 GMT 51.152069 16.638868 34,975 66 476 -64
2019-05-24 07:29:12 GMT 51.149597 16.629868 34,975 66 476 0
2019-05-24 07:29:09 GMT 51.147125 16.620905 35,000 66 476 0
2019-05-24 07:29:06 GMT 51.143967 16.609324 35,000 66 476 -64
2019-05-24 07:29:03 GMT 51.141312 16.599731 35,000 66 476 -64
2019-05-24 07:29:00 GMT 51.139481 16.592993 35,000 66 476 0
2019-05-24 07:28:57 GMT 51.133583 16.571426 35,000 66 476 0
2019-05-24 07:28:54 GMT 51.133583 16.571426 35,000 66 476 0
2019-05-24 07:28:51 GMT 51.130558 16.560593 35,000 66 476 0
2019-05-24 07:28:48 GMT 51.127945 16.550903 35,000 66 476 0
2019-05-24 07:28:45 GMT 51.125610 16.542589 35,000 66 478 0
2019-05-24 07:28:41 GMT 51.121899 16.529083 34,975 66 478 0
2019-05-24 07:28:38 GMT 51.119804 16.521378 34,975 66 478 0
2019-05-24 07:28:34 GMT 51.115799 16.506958 34,975 66 478 0
2019-05-24 07:28:31 GMT 51.113617 16.498941 34,975 66 478 -64
2019-05-24 07:28:28 GMT 51.110870 16.488995 34,975 66 478 0
2019-05-24 07:28:24 GMT 51.106396 16.472931 34,975 66 478 0
2019-05-24 07:28:20 GMT 51.103592 16.462643 35,000 66 478 -64
2019-05-24 07:28:16 GMT 51.100487 16.451416 35,000 66 478 0
2019-05-24 07:28:13 GMT 51.096573 16.437302 35,000 66 478 -64
2019-05-24 07:28:10 GMT 51.094013 16.427994 35,000 66 478 -64
2019-05-24 07:28:07 GMT 51.091141 16.417658 35,000 66 478 0
2019-05-24 07:28:04 GMT 51.089722 16.412535 35,000 66 478 0
2019-05-24 07:28:01 GMT 51.086285 16.399994 35,000 66 478 0
2019-05-24 07:27:55 GMT 51.080421 16.378784 35,000 66 478 64
2019-05-24 07:27:52 GMT 51.077812 16.369476 34,975 66 479 0
2019-05-24 07:27:49 GMT 51.076046 16.363068 34,975 66 479 0
2019-05-24 07:27:46 GMT 51.071201 16.345749 34,975 66 479 0
2019-05-24 07:27:40 GMT 51.068024 16.334146 35,000 66 479 0
2019-05-24 07:27:37 GMT 51.065060 16.323547 35,000 66 479 0
2019-05-24 07:27:34 GMT 51.062668 16.314846 35,000 66 479 0
2019-05-24 07:27:31 GMT 51.060059 16.305567 34,975 66 479 0
2019-05-24 07:27:28 GMT 51.056671 16.293318 35,000 66 479 0
2019-05-24 07:27:25 GMT 51.054428 16.285301 34,975 66 479 0
2019-05-24 07:27:21 GMT 51.050392 16.270828 34,975 66 479 0
2019-05-24 07:27:18 GMT 51.048252 16.263123 34,975 66 479 0
2019-05-24 07:27:15 GMT 51.045135 16.251823 34,975 66 479 -64
2019-05-24 07:27:12 GMT 51.042805 16.243515 35,000 66 479 0
2019-05-24 07:27:09 GMT 51.039223 16.230621 35,000 66 479 -64
2019-05-24 07:27:06 GMT 51.037872 16.225815 35,000 66 479 -64
2019-05-24 07:27:03 GMT 51.035637 16.217804 35,000 66 479 0
2019-05-24 07:27:00 GMT 51.031868 16.204300 35,000 66 479 0
2019-05-24 07:26:57 GMT 51.028381 16.191769 35,000 66 479 0
2019-05-24 07:26:53 GMT 51.022881 16.172104 34,975 65 484 0
2019-05-24 07:26:50 GMT 51.022881 16.172104 34,975 66 480 0
2019-05-24 07:26:47 GMT 51.020554 16.163788 34,975 66 480 0
2019-05-24 07:26:44 GMT 51.017761 16.153793 34,975 66 480 -64
2019-05-24 07:26:40 GMT 51.013710 16.139297 35,000 66 480 -64
2019-05-24 07:26:37 GMT 51.010777 16.128693 35,000 66 480 -64
2019-05-24 07:26:33 GMT 51.008057 16.119097 35,000 66 480 -64
2019-05-24 07:26:30 GMT 51.005035 16.108185 35,000 66 480 0
2019-05-24 07:26:27 GMT 51.002399 16.098862 35,000 66 480 0
2019-05-24 07:26:24 GMT 51.000164 16.090775 35,000 66 480 0
2019-05-24 07:26:21 GMT 50.997185 16.080170 35,000 66 480 0
2019-05-24 07:26:17 GMT 50.993320 16.066360 35,000 66 480 0
2019-05-24 07:26:14 GMT 50.991505 16.059952 35,000 66 480 0
2019-05-24 07:26:11 GMT 50.988785 16.050283 35,000 66 480 0
2019-05-24 07:26:08 GMT 50.985168 16.037441 35,000 66 481 0
2019-05-24 07:26:05 GMT 50.982239 16.026827 35,000 66 481 0
2019-05-24 07:26:01 GMT 50.978989 16.015245 34,975 65 484 0
2019-05-24 07:25:58 GMT 50.975464 16.002701 34,975 65 484 0
2019-05-24 07:25:55 GMT 50.971390 15.988225 35,000 65 481 0
2019-05-24 07:25:49 GMT 50.967590 15.974789 35,000 65 481 0
2019-05-24 07:25:46 GMT 50.965347 15.966698 35,000 65 481 0
2019-05-24 07:25:43 GMT 50.963436 15.959930 35,000 65 481 0
2019-05-24 07:25:40 GMT 50.960724 15.950293 35,000 65 482 0
2019-05-24 07:25:37 GMT 50.957245 15.938110 34,975 65 482 0
2019-05-24 07:25:33 GMT 50.953518 15.924911 34,975 65 482 64
2019-05-24 07:25:30 GMT 50.950882 15.915552 34,975 65 482 64
2019-05-24 07:25:27 GMT 50.949097 15.909119 34,975 65 482 0
2019-05-24 07:25:24 GMT 50.945419 15.896301 34,975 65 482 0
2019-05-24 07:25:21 GMT 50.941772 15.883410 34,975 65 482 0
2019-05-24 07:25:17 GMT 50.938576 15.872116 35,000 65 482 0
2019-05-24 07:25:14 GMT 50.936050 15.863144 34,975 65 482 0
2019-05-24 07:25:11 GMT 50.933315 15.853500 34,975 65 482 0
2019-05-24 07:25:07 GMT 50.929367 15.839613 34,975 65 482 0
2019-05-24 07:25:03 GMT 50.925705 15.826771 34,975 65 482 0
2019-05-24 07:24:59 GMT 50.923168 15.817795 34,975 65 483 0
2019-05-24 07:24:56 GMT 50.919304 15.804291 34,975 65 482 0
2019-05-24 07:24:53 GMT 50.917858 15.799103 35,000 65 482 -64
2019-05-24 07:24:50 GMT 50.915020 15.789185 35,000 65 482 -64
2019-05-24 07:24:46 GMT 50.907944 15.764416 35,000 65 482 -64
2019-05-24 07:24:43 GMT 50.907944 15.764416 35,000 65 483 0
2019-05-24 07:24:40 GMT 50.905746 15.756696 35,000 65 482 0
2019-05-24 07:24:37 GMT 50.902637 15.745773 35,000 65 482 0
2019-05-24 07:24:34 GMT 50.899612 15.735168 35,000 65 483 0
2019-05-24 07:24:31 GMT 50.896820 15.725555 34,975 65 483 0
2019-05-24 07:24:28 GMT 50.894897 15.718763 35,000 65 483 0
2019-05-24 07:24:24 GMT 50.890366 15.703026 35,000 65 483 0
2019-05-24 07:24:21 GMT 50.887527 15.693079 35,000 65 483 0
2019-05-24 07:24:18 GMT 50.885040 15.684433 35,000 65 483 0
2019-05-24 07:24:14 GMT 50.881504 15.672226 34,975 65 483 0
2019-05-24 07:24:11 GMT 50.878338 15.661316 34,975 65 484 0
2019-05-24 07:24:08 GMT 50.876102 15.653610 34,975 65 484 0
2019-05-24 07:24:05 GMT 50.872925 15.642675 35,000 65 484 0
2019-05-24 07:24:02 GMT 50.869125 15.629536 34,975 65 484 0
2019-05-24 07:23:59 GMT 50.867443 15.623703 34,975 65 484 0
2019-05-24 07:23:56 GMT 50.864742 15.614395 35,000 65 484 0
2019-05-24 07:23:52 GMT 50.860973 15.601578 35,000 65 485 0
2019-05-24 07:23:49 GMT 50.857433 15.589371 35,000 65 485 0
2019-05-24 07:23:45 GMT 50.854248 15.578465 34,975 65 485 0
2019-05-24 07:23:42 GMT 50.851337 15.568466 35,000 65 485 0
2019-05-24 07:23:38 GMT 50.847893 15.556564 35,000 65 486 0
2019-05-24 07:23:34 GMT 50.844727 15.545654 35,000 65 485 0
2019-05-24 07:23:31 GMT 50.840397 15.530853 35,000 65 485 -64
2019-05-24 07:23:28 GMT 50.838257 15.523453 35,000 65 486 0
2019-05-24 07:23:25 GMT 50.835938 15.515442 35,000 65 485 0
2019-05-24 07:23:21 GMT 50.831543 15.500299 35,000 65 486 0
2019-05-24 07:23:18 GMT 50.829666 15.493840 35,000 65 486 0
2019-05-24 07:23:15 GMT 50.826096 15.481592 35,000 65 485 0
2019-05-24 07:23:12 GMT 50.822941 15.470657 35,000 65 485 0
2019-05-24 07:23:09 GMT 50.820145 15.461030 35,000 65 486 0
2019-05-24 07:23:06 GMT 50.817539 15.451965 35,000 66 487 0
2019-05-24 07:23:03 GMT 50.815659 15.445144 35,000 66 486 -64
2019-05-24 07:23:00 GMT 50.812279 15.433121 35,000 66 487 0
2019-05-24 07:22:57 GMT 50.810326 15.425949 35,000 67 486 0
2019-05-24 07:22:54 GMT 50.806740 15.412598 35,000 66 487 0
2019-05-24 07:22:50 GMT 50.804260 15.403426 35,000 66 487 0
2019-05-24 07:22:47 GMT 50.801434 15.392990 35,000 66 487 0
2019-05-24 07:22:44 GMT 50.798824 15.383606 35,000 66 487 0
2019-05-24 07:22:41 GMT 50.794964 15.369644 35,000 66 487 0
2019-05-24 07:22:38 GMT 50.792221 15.359852 35,000 65 487 0
2019-05-24 07:22:33 GMT 50.788258 15.345993 35,000 65 487 0
2019-05-24 07:22:30 GMT 50.784161 15.331802 35,000 65 486 0
2019-05-24 07:22:27 GMT 50.781696 15.323410 35,000 64 487 0
2019-05-24 07:22:23 GMT 50.778763 15.313416 35,000 64 487 0
2019-05-24 07:22:18 GMT 50.774059 15.297699 34,975 64 487 0
2019-05-24 07:22:15 GMT 50.771530 15.289406 34,975 64 487 0
2019-05-24 07:22:12 GMT 50.763634 15.263519 35,000 64 488 0
2019-05-24 07:22:08 GMT 50.763634 15.263519 34,975 64 487 -64
2019-05-24 07:22:05 GMT 50.760681 15.253923 34,975 64 487 0
2019-05-24 07:22:02 GMT 50.758556 15.246887 34,975 64 487 -64
2019-05-24 07:21:59 GMT 50.755417 15.236627 35,000 64 488 0
2019-05-24 07:21:56 GMT 50.752579 15.227348 35,000 64 488 0
2019-05-24 07:21:51 GMT 50.748268 15.213318 35,000 64 488 0
2019-05-24 07:21:48 GMT 50.745163 15.203074 35,000 64 488 0
2019-05-24 07:21:45 GMT 50.740631 15.188376 35,000 64 488 0
2019-05-24 07:21:41 GMT 50.738262 15.180664 35,000 64 488 0
2019-05-24 07:21:38 GMT 50.733765 15.165958 35,000 64 488 0
2019-05-24 07:21:32 GMT 50.728348 15.148392 35,000 64 488 0
2019-05-24 07:21:27 GMT 50.723553 15.132675 35,000 64 488 64
2019-05-24 07:21:23 GMT 50.719894 15.120825 34,975 64 488 0
2019-05-24 07:21:20 GMT 50.717514 15.113179 34,975 64 488 0
2019-05-24 07:21:16 GMT 50.713215 15.099106 35,000 64 488 -64
2019-05-24 07:21:13 GMT 50.709732 15.087866 35,000 64 488 -64
2019-05-24 07:21:10 GMT 50.707771 15.081482 35,000 64 489 0
2019-05-24 07:21:07 GMT 50.704926 15.072203 35,000 64 489 0
2019-05-24 07:21:04 GMT 50.700897 15.059064 35,000 64 489 0
2019-05-24 07:21:01 GMT 50.697739 15.048820 35,000 64 489 0
2019-05-24 07:20:56 GMT 50.692780 15.032883 35,000 64 489 0
2019-05-24 07:20:53 GMT 50.690689 15.026105 35,000 64 489 0
2019-05-24 07:20:50 GMT 50.686569 15.012669 35,000 64 489 0
2019-05-24 07:20:45 GMT 50.680351 14.992599 35,000 64 488 0
2019-05-24 07:20:39 GMT 50.676224 14.979116 35,000 64 488 0
2019-05-24 07:20:36 GMT 50.673740 14.971161 35,000 64 489 0
2019-05-24 07:20:33 GMT 50.671005 14.962222 35,000 64 488 0
2019-05-24 07:20:30 GMT 50.667038 14.949423 35,000 64 488 0
2019-05-24 07:20:24 GMT 50.661392 14.931287 35,000 64 488 0
2019-05-24 07:20:20 GMT 50.658325 14.921385 35,000 64 488 0
2019-05-24 07:20:17 GMT 50.655258 14.911483 35,000 64 488 0
2019-05-24 07:20:13 GMT 50.651321 14.898762 35,000 64 488 0
2019-05-24 07:20:10 GMT 50.648849 14.890811 35,000 64 488 0
2019-05-24 07:20:07 GMT 50.644367 14.876453 35,000 64 488 0
2019-05-24 07:20:04 GMT 50.641525 14.867176 34,975 63 487 0
2019-05-24 07:20:01 GMT 50.638916 14.858937 34,975 63 487 0
2019-05-24 07:19:57 GMT 50.635162 14.846866 34,975 63 487 0
2019-05-24 07:19:54 GMT 50.632004 14.836675 34,975 63 487 0
2019-05-24 07:19:51 GMT 50.628571 14.825544 34,975 63 487 0
2019-05-24 07:19:48 GMT 50.626556 14.819183 34,975 63 487 0
2019-05-24 07:19:45 GMT 50.622299 14.805488 34,975 63 487 0
2019-05-24 07:19:41 GMT 50.620056 14.798223 34,975 63 487 -64
2019-05-24 07:19:38 GMT 50.616203 14.785816 34,975 63 487 -64
2019-05-24 07:19:34 GMT 50.612804 14.775052 35,000 63 487 -64
2019-05-24 07:19:31 GMT 50.608978 14.762662 35,000 63 486 0
2019-05-24 07:19:28 GMT 50.606380 14.754416 35,000 63 486 0
2019-05-24 07:19:23 GMT 50.601746 14.739460 35,000 63 486 0
2019-05-24 07:19:20 GMT 50.598495 14.729052 35,000 63 487 0
2019-05-24 07:19:17 GMT 50.595612 14.719800 35,000 63 487 0
2019-05-24 07:19:13 GMT 50.590878 14.704606 35,000 63 487 0
2019-05-24 07:19:10 GMT 50.588085 14.695773 35,000 63 487 0
2019-05-24 07:19:07 GMT 50.585709 14.688127 35,000 63 487 0
2019-05-24 07:19:03 GMT 50.582127 14.676695 35,000 63 487 0
2019-05-24 07:19:00 GMT 50.578075 14.663705 35,000 63 487 0
2019-05-24 07:18:57 GMT 50.575005 14.653906 34,975 63 487 0
2019-05-24 07:18:54 GMT 50.572628 14.646334 34,975 63 487 0
2019-05-24 07:18:48 GMT 50.562901 14.615231 35,000 63 487 -64
2019-05-24 07:18:45 GMT 50.562901 14.615231 35,000 63 487 -64
2019-05-24 07:18:42 GMT 50.560802 14.608624 35,000 63 487 0
2019-05-24 07:18:39 GMT 50.556801 14.595931 35,000 63 487 -64
2019-05-24 07:18:34 GMT 50.552719 14.582977 35,000 63 487 0
2019-05-24 07:18:30 GMT 50.548748 14.570321 35,000 63 486 0
2019-05-24 07:18:27 GMT 50.546745 14.564011 35,000 63 486 64
2019-05-24 07:18:24 GMT 50.542877 14.551681 35,000 63 486 0
2019-05-24 07:18:21 GMT 50.539715 14.541593 35,000 63 486 0
2019-05-24 07:18:18 GMT 50.533943 14.523258 35,000 63 486 0
2019-05-24 07:18:15 GMT 50.531021 14.514096 35,000 63 486 0
2019-05-24 07:18:12 GMT 50.531021 14.514096 35,000 63 486 0
2019-05-24 07:18:08 GMT 50.523376 14.489810 35,000 63 486 0
2019-05-24 07:18:05 GMT 50.523376 14.489810 35,000 63 486 0
2019-05-24 07:18:00 GMT 50.518387 14.474054 35,000 63 485 0
2019-05-24 07:17:57 GMT 50.515789 14.465802 35,000 63 485 0
2019-05-24 07:17:54 GMT 50.512344 14.454828 34,975 63 485 0
2019-05-24 07:17:51 GMT 50.510239 14.448178 35,000 63 485 0
2019-05-24 07:17:46 GMT 50.504944 14.431507 35,000 63 485 -64
2019-05-24 07:17:43 GMT 50.502960 14.425193 35,000 63 485 0
2019-05-24 07:17:39 GMT 50.497074 14.406639 35,000 63 485 0
2019-05-24 07:17:36 GMT 50.494980 14.400033 35,000 63 485 0
2019-05-24 07:17:33 GMT 50.491905 14.390308 35,000 63 484 0
2019-05-24 07:17:30 GMT 50.489532 14.382737 35,000 63 484 0
2019-05-24 07:17:26 GMT 50.484146 14.365780 35,000 63 484 0
2019-05-24 07:17:23 GMT 50.482773 14.361371 35,000 63 484 0
2019-05-24 07:17:20 GMT 50.479156 14.350024 35,000 63 484 0
2019-05-24 07:17:16 GMT 50.475174 14.337520 35,000 63 484 0
2019-05-24 07:17:13 GMT 50.472427 14.328702 35,000 63 484 0
2019-05-24 07:17:09 GMT 50.468628 14.316776 35,000 63 484 0
2019-05-24 07:17:06 GMT 50.464626 14.304199 35,000 63 484 0
2019-05-24 07:17:03 GMT 50.461880 14.295440 35,000 63 483 0
2019-05-24 07:16:58 GMT 50.458191 14.283889 35,000 63 483 0
2019-05-24 07:16:55 GMT 50.454575 14.272541 34,975 63 483 0
2019-05-24 07:16:52 GMT 50.451920 14.264114 34,975 63 483 0
2019-05-24 07:16:49 GMT 50.443954 14.239076 34,975 63 483 0
2019-05-24 07:16:44 GMT 50.443954 14.239076 34,975 63 483 0
2019-05-24 07:16:41 GMT 50.441162 14.230331 35,000 63 483 0
2019-05-24 07:16:37 GMT 50.436539 14.215947 35,000 63 483 -64
2019-05-24 07:16:34 GMT 50.433472 14.206190 35,000 63 483 -64
2019-05-24 07:16:31 GMT 50.430954 14.198384 35,000 63 482 0
2019-05-24 07:16:28 GMT 50.426605 14.184651 35,000 63 482 0
2019-05-24 07:16:24 GMT 50.421204 14.167810 35,000 63 480 0
2019-05-24 07:16:18 GMT 50.417496 14.156245 35,000 63 482 0
2019-05-24 07:16:12 GMT 50.410629 14.134706 35,000 63 482 0
2019-05-24 07:16:08 GMT 50.407150 14.123792 35,000 63 481 0
2019-05-24 07:16:05 GMT 50.404621 14.116021 35,000 63 482 0
2019-05-24 07:16:02 GMT 50.401657 14.106662 35,000 63 482 0
2019-05-24 07:15:59 GMT 50.398041 14.095459 35,000 63 482 0
2019-05-24 07:15:55 GMT 50.394054 14.082988 35,000 63 482 0
2019-05-24 07:15:51 GMT 50.390671 14.072402 35,000 63 482 0
2019-05-24 07:15:48 GMT 50.387585 14.062797 35,000 63 481 64
2019-05-24 07:15:45 GMT 50.382202 14.046021 35,000 63 481 0
2019-05-24 07:15:42 GMT 50.382202 14.046021 35,000 63 481 0
2019-05-24 07:15:39 GMT 50.377995 14.032956 35,000 63 481 0
2019-05-24 07:15:36 GMT 50.375992 14.026720 35,000 63 481 0
2019-05-24 07:15:32 GMT 50.371803 14.013730 35,000 63 481 0
2019-05-24 07:15:28 GMT 50.366409 13.996943 35,000 63 481 0
2019-05-24 07:15:24 GMT 50.364120 13.989827 34,975 63 481 0
2019-05-24 07:15:21 GMT 50.357529 13.969333 34,975 63 481 0
2019-05-24 07:15:18 GMT 50.357529 13.969333 34,975 63 481 64
2019-05-24 07:15:15 GMT 50.354343 13.959392 34,975 63 481 64
2019-05-24 07:15:12 GMT 50.351532 13.950757 34,975 63 481 0
2019-05-24 07:15:09 GMT 50.348923 13.942662 34,975 63 481 0
2019-05-24 07:15:06 GMT 50.344940 13.930293 34,975 63 480 0
2019-05-24 07:15:03 GMT 50.342335 13.922276 34,975 63 480 0
2019-05-24 07:15:00 GMT 50.338238 13.909582 34,975 63 480 0
2019-05-24 07:14:57 GMT 50.336422 13.903941 34,975 63 480 0
2019-05-24 07:14:53 GMT 50.331722 13.889391 34,975 63 480 -64
2019-05-24 07:14:47 GMT 50.325714 13.870833 34,975 63 480 -64
2019-05-24 07:14:43 GMT 50.321571 13.858139 35,000 63 480 -64
2019-05-24 07:14:39 GMT 50.317657 13.846098 35,000 63 480 -64
2019-05-24 07:14:35 GMT 50.315380 13.838988 35,000 63 481 0
2019-05-24 07:14:32 GMT 50.311657 13.827556 35,000 63 481 0
2019-05-24 07:14:29 GMT 50.308731 13.818560 35,000 63 481 0
2019-05-24 07:14:25 GMT 50.303741 13.803093 35,000 63 481 0
2019-05-24 07:14:22 GMT 50.300720 13.793841 35,000 63 481 0
2019-05-24 07:14:19 GMT 50.298706 13.787625 34,975 63 481 0
2019-05-24 07:14:16 GMT 50.295597 13.778043 35,000 63 482 0
2019-05-24 07:14:13 GMT 50.292664 13.769049 35,000 63 482 0
2019-05-24 07:14:10 GMT 50.288708 13.756961 34,975 62 484 0
2019-05-24 07:14:05 GMT 50.283875 13.742090 34,975 63 482 -64
2019-05-24 07:14:02 GMT 50.280140 13.730683 35,000 63 482 0
2019-05-24 07:13:59 GMT 50.278511 13.725710 35,000 63 482 0
2019-05-24 07:13:55 GMT 50.274399 13.713034 35,000 63 482 0
2019-05-24 07:13:52 GMT 50.271667 13.704628 35,000 63 483 0
2019-05-24 07:13:49 GMT 50.268127 13.693808 35,000 63 482 0
2019-05-24 07:13:46 GMT 50.264175 13.681690 35,000 62 483 0
2019-05-24 07:13:43 GMT 50.262592 13.676717 35,000 63 483 0
2019-05-24 07:13:40 GMT 50.259148 13.666176 35,000 62 483 0
2019-05-24 07:13:37 GMT 50.256073 13.656897 35,000 63 483 0
2019-05-24 07:13:33 GMT 50.248077 13.632371 35,000 62 483 0
2019-05-24 07:13:30 GMT 50.248077 13.632371 34,975 62 483 0
2019-05-24 07:13:27 GMT 50.242584 13.615602 34,975 62 484 0
2019-05-24 07:13:19 GMT 50.238197 13.602262 34,975 62 485 64
2019-05-24 07:13:16 GMT 50.234619 13.591389 35,000 62 485 0
2019-05-24 07:13:13 GMT 50.231682 13.582071 35,000 62 485 0
2019-05-24 07:13:10 GMT 50.229126 13.574620 35,000 62 485 0
2019-05-24 07:13:07 GMT 50.224510 13.560618 35,000 62 485 0
2019-05-24 07:13:04 GMT 50.221577 13.551636 34,975 62 485 0
2019-05-24 07:13:00 GMT 50.218414 13.541986 35,000 62 485 64
2019-05-24 07:12:56 GMT 50.214432 13.529880 34,975 62 485 0
2019-05-24 07:12:53 GMT 50.210453 13.517712 34,975 62 485 0
2019-05-24 07:12:49 GMT 50.207985 13.510289 34,975 62 485 0
2019-05-24 07:12:45 GMT 50.203674 13.497210 34,975 62 485 0
2019-05-24 07:12:42 GMT 50.199142 13.483549 34,975 62 485 0
2019-05-24 07:12:39 GMT 50.197090 13.477033 34,975 62 486 0
2019-05-24 07:12:36 GMT 50.194019 13.467976 34,975 62 487 0
2019-05-24 07:12:33 GMT 50.190948 13.458326 35,000 62 487 0
2019-05-24 07:12:30 GMT 50.187363 13.447785 34,975 62 487 0
2019-05-24 07:12:27 GMT 50.184055 13.437764 34,975 62 487 0
2019-05-24 07:12:22 GMT 50.176208 13.414162 35,000 62 487 -64
2019-05-24 07:12:19 GMT 50.176208 13.414162 35,000 62 487 -64
2019-05-24 07:12:16 GMT 50.173443 13.405696 35,000 62 487 0
2019-05-24 07:12:13 GMT 50.169434 13.393563 34,975 62 487 64
2019-05-24 07:12:09 GMT 50.165623 13.382016 35,000 62 487 64
2019-05-24 07:12:06 GMT 50.162365 13.372069 34,975 62 488 64
2019-05-24 07:12:02 GMT 50.159103 13.362047 34,975 63 489 0
2019-05-24 07:11:59 GMT 50.155701 13.351713 34,975 63 489 0
2019-05-24 07:11:56 GMT 50.153046 13.343546 34,975 63 492 0
2019-05-24 07:11:53 GMT 50.149513 13.332874 34,975 63 491 0
2019-05-24 07:11:50 GMT 50.145721 13.320923 34,975 63 492 0
2019-05-24 07:11:46 GMT 50.142113 13.310233 34,975 63 493 0
2019-05-24 07:11:43 GMT 50.138718 13.299745 34,975 63 494 0
2019-05-24 07:11:40 GMT 50.135925 13.291216 34,975 63 494 0
2019-05-24 07:11:37 GMT 50.128941 13.269629 34,975 63 495 -64
2019-05-24 07:11:33 GMT 50.128941 13.269629 34,975 63 495 -64
2019-05-24 07:11:29 GMT 50.124847 13.256956 34,975 63 495 192
2019-05-24 07:11:26 GMT 50.122238 13.249006 34,975 63 494 448
2019-05-24 07:11:23 GMT 50.118000 13.236076 34,875 62 494 832
2019-05-24 07:11:20 GMT 50.116013 13.230069 34,900 62 493 1024
2019-05-24 07:11:17 GMT 50.111755 13.217203 34,825 62 492 1088
2019-05-24 07:11:13 GMT 50.108364 13.206754 34,400 64 493 960
2019-05-24 07:11:10 GMT 50.105392 13.197254 34,725 64 493 960
2019-05-24 07:11:06 GMT 50.101822 13.184967 34,650 68 493 960
2019-05-24 07:11:02 GMT 50.097565 13.168560 34,575 69 493 960
2019-05-24 07:10:58 GMT 50.094212 13.153827 34,500 71 493 1024
2019-05-24 07:10:55 GMT 50.093170 13.148756 34,475 72 494 1024
2019-05-24 07:10:52 GMT 50.090626 13.135491 34,400 76 495 1088
2019-05-24 07:10:49 GMT 50.087769 13.117965 34,225 88 496 1024
2019-05-24 07:10:46 GMT 50.087769 13.117965 34,300 77 495 1088
2019-05-24 07:10:43 GMT 50.086212 13.106834 34,225 79 495 1024
2019-05-24 07:10:40 GMT 50.084621 13.093179 34,150 81 496 896
2019-05-24 07:10:35 GMT 50.083145 13.076622 34,050 84 496 832
2019-05-24 07:10:32 GMT 50.082642 13.068816 34,075 85 496 832
2019-05-24 07:10:28 GMT 50.081921 13.053168 34,000 88 495 1088
2019-05-24 07:10:24 GMT 50.081589 13.040699 33,950 88 496 1024
2019-05-24 07:10:21 GMT 50.081085 13.017281 33,925 87 497 1728
2019-05-24 07:10:18 GMT 50.081085 13.017281 33,725 87 495 1728
2019-05-24 07:10:15 GMT 50.080898 13.007293 33,750 87 495 1984
2019-05-24 07:10:12 GMT 50.080582 12.994875 33,650 87 496 1856
2019-05-24 07:10:08 GMT 50.080200 12.979976 33,525 87 496 1920
2019-05-24 07:10:05 GMT 50.080032 12.972468 33,400 87 497 1792
2019-05-24 07:10:02 GMT 50.079758 12.961048 33,325 87 497 1728
2019-05-24 07:09:59 GMT 50.079453 12.948278 33,225 87 497 1664
2019-05-24 07:09:56 GMT 50.079224 12.938257 33,075 87 498 1856
2019-05-24 07:09:53 GMT 50.078888 12.925054 33,050 87 498 1856
2019-05-24 07:09:50 GMT 50.078709 12.918289 33,000 87 498 1920
2019-05-24 07:09:46 GMT 50.078430 12.906115 32,675 87 499 1984
2019-05-24 07:09:43 GMT 50.077972 12.888987 32,700 87 499 1984
2019-05-24 07:09:40 GMT 50.077835 12.883277 32,675 87 501 2560
2019-05-24 07:09:37 GMT 50.077606 12.872869 32,500 87 500 2112
2019-05-24 07:09:33 GMT 50.077221 12.857419 32,400 87 501 2368
2019-05-24 07:09:30 GMT 50.076920 12.844897 32,250 87 502 2688
2019-05-24 07:09:27 GMT 50.076614 12.832625 32,100 87 502 2688
2019-05-24 07:09:22 GMT 50.076187 12.814901 31,750 87 506 2624
2019-05-24 07:09:19 GMT 50.075962 12.806273 31,825 87 505 2688
2019-05-24 07:09:15 GMT 50.075684 12.794990 31,500 87 508 2688
2019-05-24 07:09:12 GMT 50.075363 12.781147 31,475 87 508 2688
2019-05-24 07:09:09 GMT 50.075077 12.770196 31,325 87 509 2688
2019-05-24 07:09:06 GMT 50.074753 12.758170 31,000 87 511 1728
2019-05-24 07:09:02 GMT 50.074127 12.732142 31,075 87 512 1088
2019-05-24 07:08:59 GMT 50.074127 12.732142 31,025 87 512 640
2019-05-24 07:08:55 GMT 50.073776 12.719644 31,000 87 512 192
2019-05-24 07:08:51 GMT 50.073357 12.703833 31,000 87 512 -64
2019-05-24 07:08:48 GMT 50.073120 12.693184 31,000 87 512 -64
2019-05-24 07:08:45 GMT 50.072796 12.680747 31,000 87 512 0
2019-05-24 07:08:41 GMT 50.072433 12.666441 31,000 87 512 0
2019-05-24 07:08:36 GMT 50.072021 12.651769 31,000 87 512 64
2019-05-24 07:08:33 GMT 50.071609 12.634856 30,975 87 512 0
2019-05-24 07:08:30 GMT 50.071400 12.627151 30,975 87 512 0
2019-05-24 07:08:26 GMT 50.071106 12.614256 31,000 87 512 0
2019-05-24 07:08:21 GMT 50.070515 12.591891 31,000 87 512 -64
2019-05-24 07:08:18 GMT 50.070236 12.580905 31,000 87 513 0
2019-05-24 07:08:15 GMT 50.070004 12.572071 31,000 87 512 64
2019-05-24 07:08:11 GMT 50.069584 12.555517 31,000 87 513 0
2019-05-24 07:08:08 GMT 50.069214 12.542675 31,000 87 513 -64
2019-05-24 07:08:04 GMT 50.068981 12.533099 31,000 87 513 0
2019-05-24 07:08:01 GMT 50.068653 12.521667 31,000 87 513 0
2019-05-24 07:07:58 GMT 50.068314 12.509886 31,000 87 513 0
2019-05-24 07:07:54 GMT 50.067673 12.486396 31,000 87 513 0
2019-05-24 07:07:51 GMT 50.067673 12.486396 31,000 87 513 0
2019-05-24 07:07:48 GMT 50.067211 12.469854 31,000 86 513 0
2019-05-24 07:07:45 GMT 50.066887 12.458422 31,000 87 513 0
2019-05-24 07:07:42 GMT 50.066513 12.446990 30,975 87 513 0
2019-05-24 07:07:39 GMT 50.066280 12.439641 31,000 86 516 -64
2019-05-24 07:07:36 GMT 50.065979 12.430813 31,000 86 513 0
2019-05-24 07:07:33 GMT 50.065582 12.419005 31,000 86 513 0
2019-05-24 07:07:29 GMT 50.064930 12.400298 31,000 86 513 0
2019-05-24 07:07:26 GMT 50.064651 12.392133 31,000 86 513 0
2019-05-24 07:07:22 GMT 50.064194 12.379279 31,000 86 513 -64
2019-05-24 07:07:19 GMT 50.063721 12.365632 31,000 86 513 -64
2019-05-24 07:07:15 GMT 50.063301 12.354274 31,000 86 513 0
2019-05-24 07:07:12 GMT 50.062790 12.339502 31,000 86 513 0
2019-05-24 07:07:08 GMT 50.062325 12.325844 31,000 86 513 0
2019-05-24 07:07:05 GMT 50.061905 12.314486 31,000 86 513 0
2019-05-24 07:07:00 GMT 50.061264 12.296809 31,000 86 513 0
2019-05-24 07:06:57 GMT 50.060806 12.284305 31,000 86 513 0
2019-05-24 07:06:53 GMT 50.060303 12.269560 31,000 86 513 0
2019-05-24 07:06:50 GMT 50.059937 12.259947 31,000 86 514 0
2019-05-24 07:06:47 GMT 50.059578 12.249682 30,975 86 515 0
2019-05-24 07:06:43 GMT 50.059113 12.236394 30,975 86 514 64
2019-05-24 07:06:40 GMT 50.058563 12.222001 31,000 86 514 0
2019-05-24 07:06:37 GMT 50.057667 12.197274 31,000 86 514 -64
2019-05-24 07:06:34 GMT 50.057667 12.197274 31,000 86 514 -64
2019-05-24 07:06:31 GMT 50.057465 12.191789 31,000 86 514 0
2019-05-24 07:06:28 GMT 50.056599 12.168546 31,000 86 515 0
2019-05-24 07:06:22 GMT 50.055714 12.144569 31,000 86 515 0
2019-05-24 07:06:19 GMT 50.055714 12.144569 31,000 86 515 0
2019-05-24 07:06:16 GMT 50.055340 12.134177 30,975 86 515 0
2019-05-24 07:06:11 GMT 50.053940 12.097610 31,000 86 515 -64
2019-05-24 07:06:06 GMT 50.053940 12.097610 31,000 86 515 0
2019-05-24 07:06:02 GMT 50.053291 12.080655 31,000 86 516 0
2019-05-24 07:05:59 GMT 50.052872 12.069150 31,000 86 515 0
2019-05-24 07:05:56 GMT 50.052456 12.057718 31,000 86 515 0
2019-05-24 07:05:53 GMT 50.052174 12.050295 30,975 86 516 0
2019-05-24 07:05:49 GMT 50.051559 12.035161 31,000 86 515 0
2019-05-24 07:05:45 GMT 50.050964 12.019266 30,975 86 516 0
2019-05-24 07:05:39 GMT 50.050125 11.996699 30,975 86 516 0
2019-05-24 07:05:36 GMT 50.049614 11.983783 31,000 86 516 -64
2019-05-24 07:05:32 GMT 50.049133 11.971917 31,000 86 516 0
2019-05-24 07:05:29 GMT 50.048637 11.958247 31,000 86 516 0
2019-05-24 07:05:26 GMT 50.048309 11.949728 31,000 86 516 64
2019-05-24 07:05:22 GMT 50.047806 11.937151 31,000 86 516 64
2019-05-24 07:05:19 GMT 50.046963 11.915341 31,000 86 516 64
2019-05-24 07:05:13 GMT 50.046402 11.900569 31,000 86 516 0
2019-05-24 07:05:10 GMT 50.045929 11.889448 31,000 86 516 0
2019-05-24 07:05:07 GMT 50.045612 11.880897 31,000 86 516 0
2019-05-24 07:05:04 GMT 50.045105 11.868342 31,000 86 516 0
2019-05-24 07:04:58 GMT 50.044353 11.848755 31,000 86 516 0
2019-05-24 07:04:55 GMT 50.043045 11.816519 31,000 86 516 0
2019-05-24 07:04:51 GMT 50.043045 11.816519 31,000 86 516 0
2019-05-24 07:04:48 GMT 50.042259 11.796867 31,000 86 516 0
2019-05-24 07:04:42 GMT 50.041718 11.782476 31,000 86 516 0
2019-05-24 07:04:39 GMT 50.041351 11.772862 31,000 86 516 0
2019-05-24 07:04:35 GMT 50.040676 11.756930 31,000 86 517 0
2019-05-24 07:04:32 GMT 50.039932 11.738743 31,000 86 517 0
2019-05-24 07:04:29 GMT 50.039932 11.738743 31,000 86 517 0
2019-05-24 07:04:25 GMT 50.039326 11.723971 31,000 86 517 0
2019-05-24 07:04:22 GMT 50.038879 11.712871 31,000 86 517 0
2019-05-24 07:04:18 GMT 50.038193 11.695452 31,000 86 517 0
2019-05-24 07:04:15 GMT 50.037838 11.686929 31,000 86 517 0
2019-05-24 07:04:12 GMT 50.037186 11.671044 31,000 86 517 0
2019-05-24 07:04:09 GMT 50.036858 11.663620 31,000 86 517 -64
2019-05-24 07:04:05 GMT 50.036160 11.647364 30,975 86 517 0
2019-05-24 07:04:02 GMT 50.035694 11.635858 31,000 86 517 64
2019-05-24 07:03:59 GMT 50.035263 11.626282 31,000 86 517 64
2019-05-24 07:03:55 GMT 50.034531 11.607724 30,975 86 517 64
2019-05-24 07:03:52 GMT 50.033752 11.589998 30,975 86 517 -64
2019-05-24 07:03:49 GMT 50.033752 11.589998 31,000 86 517 -64
2019-05-24 07:03:46 GMT 50.033230 11.577437 31,000 86 517 0
2019-05-24 07:03:43 GMT 50.032837 11.568170 31,000 86 517 0
2019-05-24 07:03:40 GMT 50.032425 11.557473 31,000 86 517 0
2019-05-24 07:03:37 GMT 50.031830 11.543378 31,000 86 517 0
2019-05-24 07:03:33 GMT 50.031281 11.530802 31,000 86 517 -64
2019-05-24 07:03:30 GMT 50.030777 11.519743 31,000 86 517 0
2019-05-24 07:03:27 GMT 50.029587 11.490904 31,000 86 517 0
2019-05-24 07:03:22 GMT 50.029037 11.477966 31,000 86 517 0
2019-05-24 07:03:18 GMT 50.029037 11.477966 31,000 86 517 0
2019-05-24 07:03:15 GMT 50.028442 11.464306 30,975 86 517 0
2019-05-24 07:03:12 GMT 50.028015 11.454286 30,975 86 517 0
2019-05-24 07:03:09 GMT 50.027500 11.442112 30,975 86 517 0
2019-05-24 07:03:06 GMT 50.026886 11.428383 30,975 86 517 0
2019-05-24 07:03:03 GMT 50.026520 11.420288 30,975 85 515 1408
2019-05-24 07:03:00 GMT 50.026154 11.411759 30,975 86 517 64
2019-05-24 07:02:57 GMT 50.025558 11.397737 30,975 86 517 64
2019-05-24 07:02:54 GMT 50.025082 11.387032 30,975 86 517 64
2019-05-24 07:02:50 GMT 50.024277 11.368464 30,975 86 517 320
2019-05-24 07:02:46 GMT 50.023773 11.357044 30,950 86 517 384
2019-05-24 07:02:43 GMT 50.022812 11.335578 30,725 85 514 1408
2019-05-24 07:02:40 GMT 50.022812 11.335578 30,900 86 516 1152
2019-05-24 07:02:37 GMT 50.022308 11.324158 30,850 85 515 1344
2019-05-24 07:02:34 GMT 50.021824 11.313839 30,775 85 514 1408
2019-05-24 07:02:30 GMT 50.021210 11.299438 30,550 85 514 1408
2019-05-24 07:02:27 GMT 50.020519 11.284369 30,625 85 514 1408
2019-05-24 07:02:24 GMT 50.020241 11.278505 29,850 85 510 1408
2019-05-24 07:02:19 GMT 50.019447 11.260541 30,475 85 513 1408
2019-05-24 07:02:16 GMT 50.018749 11.244358 30,325 85 512 1280
2019-05-24 07:02:12 GMT 50.017727 11.221643 30,225 85 511 1536
2019-05-24 07:02:09 GMT 50.017029 11.206277 30,125 85 509 1408
2019-05-24 07:02:05 GMT 50.017029 11.206277 30,125 85 509 1408
2019-05-24 07:02:02 GMT 50.016331 11.191283 29,975 85 511 2240
2019-05-24 07:01:59 GMT 50.015957 11.183265 29,875 85 512 2240
2019-05-24 07:01:56 GMT 50.015533 11.174108 29,775 85 513 1984
2019-05-24 07:01:53 GMT 50.014885 11.159808 29,550 85 513 1728
2019-05-24 07:01:50 GMT 50.014004 11.139988 29,525 85 513 1600
2019-05-24 07:01:43 GMT 50.013306 11.125290 29,400 85 513 1536
2019-05-24 07:01:40 GMT 50.012791 11.113933 29,250 85 512 1536
2019-05-24 07:01:37 GMT 50.012192 11.100745 29,225 85 512 1536
2019-05-24 07:01:34 GMT 50.011642 11.089397 29,100 85 511 1408
2019-05-24 07:01:30 GMT 50.011116 11.078079 28,375 85 499 1472
2019-05-24 07:01:26 GMT 50.010544 11.065618 29,000 85 511 1408
2019-05-24 07:01:23 GMT 50.009907 11.052172 28,950 85 510 1408
2019-05-24 07:01:20 GMT 50.009537 11.044440 28,650 85 507 1408
2019-05-24 07:01:17 GMT 50.008789 11.028046 28,775 85 509 1408
2019-05-24 07:01:14 GMT 50.008484 11.021166 26,050 85 509 1408
2019-05-24 07:01:11 GMT 50.007904 11.009488 28,600 85 508 1408
2019-05-24 07:01:08 GMT 50.006699 10.984087 28,525 85 506 1536
2019-05-24 07:01:04 GMT 50.006287 10.975053 28,425 85 507 1472
2019-05-24 07:00:58 GMT 50.005737 10.963850 28,125 85 506 1536
2019-05-24 07:00:55 GMT 50.005157 10.951513 28,225 85 505 1472
2019-05-24 07:00:52 GMT 50.004459 10.935999 28,125 85 499 1472
2019-05-24 07:00:49 GMT 50.003586 10.918242 28,025 85 505 1472
2019-05-24 07:00:46 GMT 50.003586 10.918242 28,025 85 504 1472
2019-05-24 07:00:43 GMT 50.003155 10.908904 27,950 85 503 1344
2019-05-24 07:00:40 GMT 50.002716 10.899522 27,900 85 503 1344
2019-05-24 07:00:37 GMT 50.002167 10.888391 27,825 85 501 1280
2019-05-24 07:00:34 GMT 50.001434 10.873285 27,750 85 501 1216
2019-05-24 07:00:31 GMT 50.001015 10.864291 27,650 85 499 1408
2019-05-24 07:00:28 GMT 50.000362 10.851449 27,625 85 498 1600
2019-05-24 07:00:23 GMT 49.999573 10.834672 26,725 85 497 1664
2019-05-24 07:00:20 GMT 49.999058 10.824280 27,425 85 498 1600
2019-05-24 07:00:17 GMT 49.998638 10.815743 27,300 85 498 1600
2019-05-24 07:00:14 GMT 49.997990 10.801491 27,025 85 497 1664
2019-05-24 07:00:08 GMT 49.996994 10.781997 26,925 85 497 1664
2019-05-24 07:00:05 GMT 49.996216 10.765662 27,000 85 496 1600
2019-05-24 07:00:02 GMT 49.995255 10.745785 26,825 85 496 1600
2019-05-24 06:59:57 GMT 49.995255 10.745785 26,825 85 496 1600
2019-05-24 06:59:54 GMT 49.994541 10.731267 26,700 85 494 1600
2019-05-24 06:59:51 GMT 49.994110 10.723162 26,675 85 494 1600
2019-05-24 06:59:48 GMT 49.993652 10.713621 26,575 85 494 1600
2019-05-24 06:59:45 GMT 49.992416 10.688541 26,475 85 493 1600
2019-05-24 06:59:42 GMT 49.992416 10.688541 26,400 85 493 1536
2019-05-24 06:59:39 GMT 49.991867 10.678350 26,250 85 492 1536
2019-05-24 06:59:36 GMT 49.991318 10.666713 26,250 85 492 1536
2019-05-24 06:59:32 GMT 49.990219 10.644595 25,950 85 490 1600
2019-05-24 06:59:29 GMT 49.990219 10.644595 26,100 85 490 1600
2019-05-24 06:59:26 GMT 49.989609 10.633058 26,000 85 488 1600
2019-05-24 06:59:23 GMT 49.989285 10.626377 25,925 85 489 1600
2019-05-24 06:59:20 GMT 49.988445 10.609601 25,875 85 489 1600
2019-05-24 06:59:16 GMT 49.987328 10.587628 25,525 85 488 1600
2019-05-24 06:59:12 GMT 49.987328 10.587628 25,650 85 487 1664
2019-05-24 06:59:09 GMT 49.986721 10.576122 25,525 85 487 1664
2019-05-24 06:59:05 GMT 49.986023 10.562167 25,425 85 485 1728
2019-05-24 06:59:02 GMT 49.985504 10.551790 25,400 85 486 1728
2019-05-24 06:58:59 GMT 49.984859 10.539600 25,250 85 484 1664
2019-05-24 06:58:52 GMT 49.983650 10.516069 25,100 85 484 1664
2019-05-24 06:58:49 GMT 49.982986 10.502568 24,925 85 482 1664
2019-05-24 06:58:43 GMT 49.981926 10.482219 24,725 85 481 1664
2019-05-24 06:58:38 GMT 49.981182 10.468412 24,700 85 481 1664
2019-05-24 06:58:35 GMT 49.980762 10.459801 24,475 85 479 1600
2019-05-24 06:58:32 GMT 49.980103 10.446769 24,500 85 480 1664
2019-05-24 06:58:29 GMT 49.979507 10.436121 24,425 85 479 1600
2019-05-24 06:58:26 GMT 49.978912 10.424508 24,150 85 469 1152
2019-05-24 06:58:23 GMT 49.978436 10.414891 24,275 85 478 1600
2019-05-24 06:58:20 GMT 49.977859 10.404631 24,100 85 477 1664
2019-05-24 06:58:16 GMT 49.977226 10.392027 24,100 85 477 1664
2019-05-24 06:58:13 GMT 49.976761 10.382803 24,025 85 473 1536
2019-05-24 06:58:10 GMT 49.976063 10.370277 23,925 85 475 1664
2019-05-24 06:58:07 GMT 49.975571 10.360758 23,825 85 475 1728
2019-05-24 06:58:02 GMT 49.974571 10.341772 23,675 85 474 1536
2019-05-24 06:57:58 GMT 49.974060 10.331557 23,575 85 473 1536
2019-05-24 06:57:55 GMT 49.973499 10.321433 23,525 85 471 1728
2019-05-24 06:57:52 GMT 49.972801 10.308665 23,425 85 469 1152
2019-05-24 06:57:49 GMT 49.972340 10.299534 23,325 85 471 1984
2019-05-24 06:57:46 GMT 49.971817 10.290142 22,750 85 470 2304
2019-05-24 06:57:41 GMT 49.971130 10.276698 23,025 85 470 0
2019-05-24 06:57:38 GMT 49.970398 10.263254 22,850 85 471 1920
2019-05-24 06:57:34 GMT 49.969032 10.237402 22,750 85 470 1280
2019-05-24 06:57:31 GMT 49.969032 10.237402 22,750 85 468 1024
2019-05-24 06:57:27 GMT 49.968246 10.223284 22,675 85 469 1024
2019-05-24 06:57:23 GMT 49.967636 10.211569 22,600 85 469 1024
2019-05-24 06:57:20 GMT 49.967239 10.204564 22,575 85 468 1024
2019-05-24 06:57:17 GMT 49.966141 10.184471 22,475 85 468 1024
2019-05-24 06:57:10 GMT 49.965317 10.169437 22,275 85 467 960
2019-05-24 06:57:05 GMT 49.964310 10.150428 22,300 85 465 1024
2019-05-24 06:57:02 GMT 49.963726 10.139861 22,000 85 460 1728
2019-05-24 06:56:57 GMT 49.963028 10.127588 22,200 85 458 1792
2019-05-24 06:56:54 GMT 49.962387 10.115734 22,000 85 460 1728
2019-05-24 06:56:49 GMT 49.961632 10.101632 22,000 85 459 1728
2019-05-24 06:56:46 GMT 49.960968 10.089497 21,825 85 458 1792
2019-05-24 06:56:40 GMT 49.959778 10.068536 21,300 85 455 2048
2019-05-24 06:56:37 GMT 49.959457 10.061959 20,600 85 447 1984
2019-05-24 06:56:34 GMT 49.958233 10.040465 21,450 85 456 2048
2019-05-24 06:56:31 GMT 49.958233 10.040465 21,375 85 456 2048
2019-05-24 06:56:25 GMT 49.957161 10.020942 21,175 85 455 1984
2019-05-24 06:56:22 GMT 49.956650 10.011514 20,200 85 450 2048
2019-05-24 06:56:19 GMT 49.956024 10.000450 20,925 85 452 1920
2019-05-24 06:56:16 GMT 49.954975 9.981376 20,675 85 452 1856
2019-05-24 06:56:12 GMT 49.954975 9.981376 20,675 85 452 1856
2019-05-24 06:56:09 GMT 49.954323 9.969722 19,700 85 448 1920
2019-05-24 06:56:06 GMT 49.953857 9.961333 20,600 85 451 1984
2019-05-24 06:56:01 GMT 49.952911 9.945229 20,425 85 442 2176
2019-05-24 06:55:58 GMT 49.952366 9.934907 20,325 85 450 1984
2019-05-24 06:55:55 GMT 49.951855 9.925628 20,225 85 450 1984
2019-05-24 06:55:52 GMT 49.951355 9.916607 20,150 85 449 1920
2019-05-24 06:55:49 GMT 49.950878 9.908258 20,050 85 447 1920
2019-05-24 06:55:46 GMT 49.950348 9.898682 19,975 85 448 1920
2019-05-24 06:55:43 GMT 49.949570 9.884587 19,800 85 447 1984
2019-05-24 06:55:40 GMT 49.949112 9.876637 19,650 85 442 1984
2019-05-24 06:55:37 GMT 49.948517 9.866084 19,625 85 445 1856
2019-05-24 06:55:33 GMT 49.947922 9.854953 18,850 85 443 1856
2019-05-24 06:55:30 GMT 49.947418 9.845702 19,400 85 444 1856
2019-05-24 06:55:27 GMT 49.946968 9.837440 19,325 85 443 1920
2019-05-24 06:55:21 GMT 49.945805 9.817175 19,100 85 442 1984
2019-05-24 06:55:17 GMT 49.945152 9.805149 18,925 85 442 2112
2019-05-24 06:55:10 GMT 49.943390 9.773278 18,725 85 440 2048
2019-05-24 06:55:07 GMT 49.943390 9.773278 18,650 85 440 2048
2019-05-24 06:55:00 GMT 49.941971 9.748126 18,450 85 440 2048
2019-05-24 06:54:57 GMT 49.941708 9.743463 18,325 85 440 1984
2019-05-24 06:54:54 GMT 49.941147 9.734031 18,275 84 439 1984
2019-05-24 06:54:50 GMT 49.940403 9.720525 18,150 84 438 2048
2019-05-24 06:54:47 GMT 49.939659 9.708054 17,950 84 437 2112
2019-05-24 06:54:41 GMT 49.938721 9.691821 17,775 84 436 2176
2019-05-24 06:54:38 GMT 49.938213 9.683112 17,675 84 436 2112
2019-05-24 06:54:33 GMT 49.937283 9.667226 17,575 84 434 1856
2019-05-24 06:54:30 GMT 49.936539 9.654162 17,375 84 434 1920
2019-05-24 06:54:26 GMT 49.936028 9.645848 17,225 84 433 1792
2019-05-24 06:54:23 GMT 49.935234 9.632857 17,225 84 433 1792
2019-05-24 06:54:19 GMT 49.934738 9.624819 16,975 84 432 1792
2019-05-24 06:54:14 GMT 49.933502 9.605737 16,900 83 428 2112
2019-05-24 06:54:09 GMT 49.932629 9.592623 16,750 83 429 2048
2019-05-24 06:54:06 GMT 49.931900 9.581307 16,675 83 426 1984
2019-05-24 06:54:02 GMT 49.931187 9.571541 16,175 83 428 2048
2019-05-24 06:53:58 GMT 49.930344 9.559696 16,400 83 426 1984
2019-05-24 06:53:55 GMT 49.929649 9.549940 16,350 83 422 2240
2019-05-24 06:53:52 GMT 49.929092 9.542368 16,200 83 425 1920
2019-05-24 06:53:48 GMT 49.928146 9.529989 15,800 83 423 2048
2019-05-24 06:53:42 GMT 49.926811 9.512824 14,900 76 419 2112
2019-05-24 06:53:38 GMT 49.925720 9.497753 15,675 81 421 1984
2019-05-24 06:53:33 GMT 49.924480 9.483057 15,450 81 421 1984
2019-05-24 06:53:29 GMT 49.923523 9.473251 15,175 78 419 2112
2019-05-24 06:53:26 GMT 49.921921 9.459897 15,275 78 419 2112
2019-05-24 06:53:22 GMT 49.920410 9.448459 15,125 77 419 2176
2019-05-24 06:53:18 GMT 49.919128 9.439631 15,000 76 418 2112
2019-05-24 06:53:11 GMT 49.915833 9.418753 14,775 75 416 1920
2019-05-24 06:53:07 GMT 49.913635 9.405410 14,725 75 416 1920
2019-05-24 06:53:03 GMT 49.911530 9.392154 14,475 76 415 2048
2019-05-24 06:53:00 GMT 49.910564 9.386110 14,275 75 414 2368
2019-05-24 06:52:57 GMT 49.909397 9.379281 14,300 72 414 2240
2019-05-24 06:52:53 GMT 49.907135 9.367652 14,050 69 413 1984
2019-05-24 06:52:50 GMT 49.905121 9.358978 13,800 62 400 1984
2019-05-24 06:52:46 GMT 49.902557 9.349076 13,975 66 413 1728
2019-05-24 06:52:40 GMT 49.896652 9.329705 13,750 62 409 1472
2019-05-24 06:52:36 GMT 49.890427 9.311347 13,600 62 406 1344
2019-05-24 06:52:33 GMT 49.890427 9.311347 13,575 62 405 1408
2019-05-24 06:52:29 GMT 49.887726 9.303396 13,500 62 403 1536
2019-05-24 06:52:25 GMT 49.884354 9.293469 13,175 62 400 1984
2019-05-24 06:52:18 GMT 49.878582 9.276469 13,175 62 399 2176
2019-05-24 06:52:14 GMT 49.874718 9.265112 13,075 62 398 2112
2019-05-24 06:52:08 GMT 49.868820 9.247814 12,775 62 395 2112
2019-05-24 06:52:04 GMT 49.866852 9.242032 12,725 62 395 2176
2019-05-24 06:51:57 GMT 49.857285 9.213915 12,275 62 391 2112
2019-05-24 06:51:53 GMT 49.857285 9.213915 12,275 62 390 1920
2019-05-24 06:51:50 GMT 49.854748 9.206469 12,175 62 391 2048
2019-05-24 06:51:47 GMT 49.851536 9.197116 12,050 61 389 1472
2019-05-24 06:51:41 GMT 49.847206 9.184645 11,925 62 383 896
2019-05-24 06:51:38 GMT 49.844376 9.176331 11,900 62 382 960
2019-05-24 06:51:34 GMT 49.840919 9.166235 11,825 62 376 1088
2019-05-24 06:51:26 GMT 49.834900 9.148648 11,700 62 372 1152
2019-05-24 06:51:23 GMT 49.832108 9.140480 11,675 62 370 1216
2019-05-24 06:51:20 GMT 49.829086 9.131590 11,575 62 360 1408
2019-05-24 06:51:17 GMT 49.824142 9.117062 11,375 62 360 1408
2019-05-24 06:51:14 GMT 49.824142 9.117062 11,375 62 360 1408
2019-05-24 06:51:07 GMT 49.819061 9.102101 11,275 62 356 1216
2019-05-24 06:51:02 GMT 49.812698 9.083380 11,175 62 350 1216
2019-05-24 06:50:59 GMT 49.812698 9.083380 11,125 62 346 1280
2019-05-24 06:50:56 GMT 49.810474 9.076786 11,050 62 346 1280
2019-05-24 06:50:53 GMT 49.808941 9.072183 11,025 63 344 1344
2019-05-24 06:50:50 GMT 49.806519 9.064733 10,925 63 342 1344
2019-05-24 06:50:47 GMT 49.805191 9.060324 10,875 64 340 1344
2019-05-24 06:50:43 GMT 49.802353 9.050349 10,625 84 326 1216
2019-05-24 06:50:39 GMT 49.800385 9.041603 10,550 91 322 960
2019-05-24 06:50:35 GMT 49.798885 9.032618 10,550 84 326 1216
2019-05-24 06:50:31 GMT 49.798004 9.022883 10,400 87 325 1152
2019-05-24 06:50:28 GMT 49.797859 9.014060 10,475 91 322 960
2019-05-24 06:50:24 GMT 49.798141 9.007199 10,425 96 319 704
2019-05-24 06:50:20 GMT 49.799103 8.998236 10,375 103 314 768
2019-05-24 06:50:15 GMT 49.800980 8.988190 10,200 112 307 1984
2019-05-24 06:50:12 GMT 49.804844 8.974568 10,075 117 305 2304
2019-05-24 06:50:05 GMT 49.807171 8.967887 9,925 119 303 2240
2019-05-24 06:50:02 GMT 49.809311 8.962023 9,825 119 297 2880
2019-05-24 06:49:59 GMT 49.811501 8.956010 9,675 119 300 2304
2019-05-24 06:49:54 GMT 49.814575 8.947569 9,525 119 299 2432
2019-05-24 06:49:51 GMT 49.817505 8.939531 9,350 119 298 2560
2019-05-24 06:49:47 GMT 49.819153 8.935065 8,625 119 296 2432
2019-05-24 06:49:44 GMT 49.823639 8.922850 8,925 119 297 2752
2019-05-24 06:49:41 GMT 49.823639 8.922850 8,900 119 297 2752
2019-05-24 06:49:38 GMT 49.825928 8.916562 8,800 119 297 2560
2019-05-24 06:49:35 GMT 49.827839 8.911397 8,675 119 295 1984
2019-05-24 06:49:30 GMT 49.831467 8.901383 8,475 119 295 1984
2019-05-24 06:49:27 GMT 49.833473 8.895882 8,400 119 292 1984
2019-05-24 06:49:23 GMT 49.835724 8.889530 8,225 118 290 2304
2019-05-24 06:49:20 GMT 49.837475 8.884599 8,175 118 290 2496
2019-05-24 06:49:17 GMT 49.839432 8.879121 8,025 119 288 2752
2019-05-24 06:49:13 GMT 49.842224 8.871388 7,975 119 288 2752
2019-05-24 06:49:10 GMT 49.844055 8.866400 7,725 119 287 2688
2019-05-24 06:49:07 GMT 49.846069 8.860835 7,575 119 286 2496
2019-05-24 06:49:03 GMT 49.851070 8.847112 7,175 119 284 2432
2019-05-24 06:49:00 GMT 49.851070 8.847112 7,250 119 284 2432
2019-05-24 06:48:57 GMT 49.852654 8.842658 7,150 119 282 2432
2019-05-24 06:48:53 GMT 49.855682 8.834381 6,975 119 282 2432
2019-05-24 06:48:48 GMT 49.858566 8.826503 6,600 119 279 2560
2019-05-24 06:48:43 GMT 49.861313 8.818769 6,600 119 279 2624
2019-05-24 06:48:39 GMT 49.863968 8.811469 6,400 119 278 2624
2019-05-24 06:48:36 GMT 49.866669 8.804024 6,225 119 276 2624
2019-05-24 06:48:33 GMT 49.867905 8.800555 6,125 119 276 2688
2019-05-24 06:48:30 GMT 49.869225 8.796931 5,325 119 269 2496
2019-05-24 06:48:27 GMT 49.872162 8.788846 5,825 119 274 2688
2019-05-24 06:48:23 GMT 49.874725 8.781835 5,575 119 272 2688
2019-05-24 06:48:18 GMT 49.876812 8.776072 5,450 119 271 2560
2019-05-24 06:48:13 GMT 49.880859 8.764921 5,350 119 269 2496
2019-05-24 06:48:10 GMT 49.882118 8.761374 5,125 119 269 2496
2019-05-24 06:48:05 GMT 49.885658 8.751650 4,425 119 223 1024
2019-05-24 06:48:01 GMT 49.887268 8.747141 4,800 119 263 1728
2019-05-24 06:47:57 GMT 49.889477 8.741109 4,700 119 261 1600
2019-05-24 06:47:54 GMT 49.891388 8.735866 4,525 119 257 1408
2019-05-24 06:47:51 GMT 49.893723 8.729433 4,525 119 254 1344
2019-05-24 06:47:47 GMT 49.895508 8.724518 4,450 119 252 1280
2019-05-24 06:47:42 GMT 49.898132 8.717354 3,825 119 223 1024
2019-05-24 06:47:39 GMT 49.901413 8.708255 4,250 119 243 1024
2019-05-24 06:47:33 GMT 49.905350 8.697535 4,175 119 237 1088
2019-05-24 06:47:29 GMT 49.905350 8.697535 4,125 119 234 1216
2019-05-24 06:47:26 GMT 49.906883 8.693303 4,025 119 232 1280
2019-05-24 06:47:22 GMT 49.908920 8.687656 4,000 119 229 1408
2019-05-24 06:47:17 GMT 49.911621 8.680139 3,875 119 225 1152
2019-05-24 06:47:13 GMT 49.914379 8.672444 3,775 119 219 768
2019-05-24 06:47:08 GMT 49.916428 8.666840 3,700 119 210 512
2019-05-24 06:47:04 GMT 49.917873 8.662794 3,700 119 211 512
2019-05-24 06:47:00 GMT 49.920319 8.655998 3,675 119 205 512
2019-05-24 06:46:55 GMT 49.922333 8.650360 3,625 118 200 384
2019-05-24 06:46:50 GMT 49.924347 8.644795 3,600 119 195 640
2019-05-24 06:46:46 GMT 49.926579 8.638446 3,550 118 190 640
2019-05-24 06:46:41 GMT 49.928879 8.632074 3,475 118 187 640
2019-05-24 06:46:35 GMT 49.931076 8.625785 3,150 118 178 1472
2019-05-24 06:46:28 GMT 49.934212 8.616844 3,275 118 178 1472
2019-05-24 06:46:25 GMT 49.935150 8.614293 3,200 118 178 1472
2019-05-24 06:46:22 GMT 49.936432 8.610535 3,125 118 179 1472
2019-05-24 06:46:17 GMT 49.937851 8.606487 3,050 117 178 1472
2019-05-24 06:46:14 GMT 49.939545 8.601500 2,950 117 178 1472
2019-05-24 06:46:11 GMT 49.940323 8.599259 2,900 117 178 1536
2019-05-24 06:46:06 GMT 49.942825 8.592051 2,725 117 178 1472
2019-05-24 06:46:02 GMT 49.943707 8.589304 2,675 117 178 1472
2019-05-24 06:45:56 GMT 49.946182 8.582202 2,525 118 178 1536
2019-05-24 06:45:53 GMT 49.947525 8.578244 2,400 118 178 1536
2019-05-24 06:45:44 GMT 49.950829 8.568891 2,150 118 178 1536
2019-05-24 06:45:41 GMT 49.951859 8.565939 2,150 118 178 1536
2019-05-24 06:45:33 GMT 49.955624 8.555455 1,900 118 177 1472
2019-05-24 06:45:30 GMT 49.956848 8.551917 1,850 118 177 1472
2019-05-24 06:45:24 GMT 49.959209 8.545136 1,675 118 177 1728
2019-05-24 06:45:21 GMT 49.960190 8.542376 1,625 118 177 1664
2019-05-24 06:45:15 GMT 49.962467 8.536525 1,600 119 178 1536
2019-05-24 06:45:12 GMT 49.963818 8.533779 1,350 133 178 1216
2019-05-24 06:45:08 GMT 49.966187 8.530378 1,350 153 177 832
2019-05-24 06:45:00 GMT 49.974060 8.525897 1,175 174 175 1152
2019-05-24 06:44:50 GMT 49.980671 8.525762 1,000 182 173 1920
2019-05-24 06:44:40 GMT 49.988865 8.526133 700 181 176 1536
2019-05-24 06:44:37 GMT 49.991005 8.526207 625 181 175 1600
2019-05-24 06:44:28 GMT 49.997818 8.526258 425 179 176 1280
2019-05-24 06:44:19 GMT 50.005737 8.526186 225 179 171 128
2019-05-24 06:43:51 GMT 50.023441 8.526023 0 180 96
2019-05-24 06:43:48 GMT 50.024662 8.526003 0 180 84
2019-05-24 06:43:38 GMT 50.027500 8.525984 0 180 43
2019-05-24 06:42:23 GMT 50.028740 8.526005 0 81 0
2019-05-24 06:42:08 GMT 50.028763 8.526023 0 81 4
2019-05-24 06:41:49 GMT 50.029278 8.526294 0 239 8
2019-05-24 06:41:42 GMT 50.029358 8.526637 0 264 11
2019-05-24 06:41:31 GMT 50.029381 8.527378 0 270 9
2019-05-24 06:41:14 GMT 50.029377 8.527877 0 81 0
2019-05-24 06:40:44 GMT 50.029369 8.527884 0 81 0
2019-05-24 06:39:44 GMT 50.028580 8.528246 0 0 15
2019-05-24 06:39:36 GMT 50.027992 8.528249 0 0 17
2019-05-24 06:39:25 GMT 50.027252 8.528264 0 0 15
2019-05-24 06:39:17 GMT 50.026714 8.528264 0 0 14
2019-05-24 06:39:07 GMT 50.026093 8.528267 0 0 13
2019-05-24 06:38:55 GMT 50.025513 8.528286 0 357 11
2019-05-24 06:38:38 GMT 50.024769 8.528638 0 315 10
2019-05-24 06:38:34 GMT 50.024662 8.528805 0 309 10
2019-05-24 06:38:17 GMT 50.024105 8.530016 0 298 12
2019-05-24 06:38:11 GMT 50.024010 8.530364 0 278 11
2019-05-24 06:38:02 GMT 50.024071 8.531101 0 250 15
2019-05-24 06:37:29 GMT 50.025112 8.535419 0 250 21
2019-05-24 06:37:22 GMT 50.025364 8.536467 0 250 20
2019-05-24 06:37:08 GMT 50.025757 8.538121 0 250 20
2019-05-24 06:36:57 GMT 50.026154 8.539792 0 250 23
2019-05-24 06:36:50 GMT 50.026371 8.540714 0 250 22
2019-05-24 06:36:31 GMT 50.026863 8.543151 0 253 19
2019-05-24 06:36:24 GMT 50.027023 8.543930 0 250 18
2019-05-24 06:36:17 GMT 50.027195 8.544635 0 250 17
2019-05-24 06:36:12 GMT 50.027328 8.545192 0 250 15
2019-05-24 06:36:02 GMT 50.027561 8.546176 0 250 13
2019-05-24 06:35:50 GMT 50.027779 8.547056 0 250 12
2019-05-24 06:35:34 GMT 50.028027 8.547994 0 81 4
2019-05-24 06:35:25 GMT 50.028141 8.548217 0 81 4
2019-05-24 06:34:56 GMT 50.028759 8.548254 0 250 19
2019-05-24 06:33:58 GMT 50.030399 8.554121 0 250 19
2019-05-24 06:33:54 GMT 50.030479 8.554429 0 250 18
2019-05-24 06:33:49 GMT 50.030609 8.555009 0 250 17
2019-05-24 06:33:37 GMT 50.030914 8.556290 0 250 14
2019-05-24 06:33:19 GMT 50.031269 8.557753 0 250 20
2019-05-24 06:33:03 GMT 50.031830 8.560102 0 250 22
2019-05-24 06:32:52 GMT 50.032192 8.561597 0 250 20
2019-05-24 06:32:36 GMT 50.032669 8.563583 0 250 18
2019-05-24 06:32:30 GMT 50.032780 8.564060 0 250 17
2019-05-24 06:32:13 GMT 50.033203 8.565830 0 250 14
2019-05-24 06:32:09 GMT 50.033260 8.566120 0 250 13
2019-05-24 06:32:04 GMT 50.033356 8.566552 0 253 12
2019-05-24 06:31:54 GMT 50.033463 8.567257 0 270 10
2019-05-24 06:31:48 GMT 50.033401 8.567703 0 298 10
2019-05-24 06:31:36 GMT 50.033089 8.568130 0 340 10
2019-05-24 06:31:28 GMT 50.032669 8.568371 0 340 9
We lost coverage of the aircraft here for a total of 6 minutes
2019-05-24 06:25:27 GMT 50.028854 8.570565 0 81 4
2019-05-24 06:25:16 GMT 50.028736 8.570635 0 81 3
2019-05-24 06:25:08 GMT 50.028629 8.570691 0 81 4
2019-05-24 06:24:55 GMT 50.028503 8.570765 0 81 3
2019-05-24 06:24:40 GMT 50.028316 8.570913 0 81 3
2019-05-24 06:24:36 GMT 50.028294 8.570913 0 81 3
2019-05-24 06:24:26 GMT 50.028259 8.570962 0 81 0
2019-05-24 06:24:17 GMT 50.028316 8.570908 0 81 3
2019-05-24 06:24:14 GMT 50.028351 8.570872 0 81 2
2019-05-24 06:24:05 GMT 50.028385 8.570800 0 81 2
2019-05-24 06:23:58 GMT 50.028408 8.570727 0 81 2
2019-05-24 06:23:53 GMT 50.028412 8.570672 0 81 2

Making use of Plane Finder data

You are free to use the raw flight data, aircraft information and images provided in this report for your own purposes provided the data is correctly attributed to Plane Finder. We ask that you please credit Plane Finder and link to planefinder.net in close proximity to the content.

Optionally one of the following logos (no smaller then 150x24px) can be used and must link to planefinder.net

Embedding the Plane Finder map

You are welcome to embed the Plane Finder playback map on your website to offer visitors a more interactive experience. We suggest using the following HTML code:

<iframe src="//planefinder.net/data/report/RU562-VQ-BLQ-7700-squawk-2019-05-24/map" width="800" height="600" seamless="seamless"></iframe>

Where our data comes from

Plane Finder has a global network of data feeds and antenna radars that receive data broadcast directly from aircraft. The primary technologies used are ADS-B and MLAT. We also show feeds from the FAA and a FLARM glider feed.

Click here to find out more about the Plane Finder network.

How we collect our data